<?xml version="1.0" encoding="UTF-8" standalone="no" ?>
<gpx xmlns="http://www.topografix.com/GPX/1/1" xmlns:xsi="http://www.w3.org/2001/XMLSchema-instance" xsi:schemaLocation="http://www.topografix.com/GPX/1/1 http://www.topografix.com/GPX/1/1/gpx.xsd" version="1.1" creator="VisuGPX - https://www.visugpx.com">
  <metadata>
    <name>NANGI ==&gt; MOHARE (NEPAL)</name>
    <desc><![CDATA[Trek entre DAULAGHIRI et ANNAPURNAS]]></desc>
  </metadata>
  <trk>
    <name><![CDATA[NANGI MOHARE]]></name>
    <trkseg>
      <trkpt lat="28.37094" lon="83.63952">
        <ele>2333.26</ele>
        <time>2013-10-28T02:10:33Z</time>
      </trkpt>
      <trkpt lat="28.37094" lon="83.63951">
        <ele>2330.85</ele>
        <time>2013-10-28T02:10:54Z</time>
      </trkpt>
      <trkpt lat="28.37094" lon="83.63952">
        <ele>2330.37</ele>
        <time>2013-10-28T02:11:09Z</time>
      </trkpt>
      <trkpt lat="28.37093" lon="83.63953">
        <ele>2330.37</ele>
        <time>2013-10-28T02:11:24Z</time>
      </trkpt>
      <trkpt lat="28.37091" lon="83.63954">
        <ele>2329.89</ele>
        <time>2013-10-28T02:11:40Z</time>
      </trkpt>
      <trkpt lat="28.37088" lon="83.63959">
        <ele>2329.41</ele>
        <time>2013-10-28T02:11:51Z</time>
      </trkpt>
      <trkpt lat="28.37087" lon="83.63966">
        <ele>2329.41</ele>
        <time>2013-10-28T02:12:01Z</time>
      </trkpt>
      <trkpt lat="28.37085" lon="83.63967">
        <ele>2328.93</ele>
        <time>2013-10-28T02:12:03Z</time>
      </trkpt>
      <trkpt lat="28.37075" lon="83.63973">
        <ele>2327.49</ele>
        <time>2013-10-28T02:12:16Z</time>
      </trkpt>
      <trkpt lat="28.37071" lon="83.63975">
        <ele>2327.01</ele>
        <time>2013-10-28T02:12:22Z</time>
      </trkpt>
      <trkpt lat="28.37059" lon="83.6398">
        <ele>2327.49</ele>
        <time>2013-10-28T02:12:34Z</time>
      </trkpt>
      <trkpt lat="28.37057" lon="83.6398">
        <ele>2327.49</ele>
        <time>2013-10-28T02:12:35Z</time>
      </trkpt>
      <trkpt lat="28.37052" lon="83.63984">
        <ele>2327.49</ele>
        <time>2013-10-28T02:12:41Z</time>
      </trkpt>
      <trkpt lat="28.37046" lon="83.63985">
        <ele>2327.49</ele>
        <time>2013-10-28T02:12:47Z</time>
      </trkpt>
      <trkpt lat="28.37037" lon="83.63991">
        <ele>2327.97</ele>
        <time>2013-10-28T02:12:57Z</time>
      </trkpt>
      <trkpt lat="28.37027" lon="83.63996">
        <ele>2329.41</ele>
        <time>2013-10-28T02:13:11Z</time>
      </trkpt>
      <trkpt lat="28.37018" lon="83.64">
        <ele>2330.85</ele>
        <time>2013-10-28T02:13:24Z</time>
      </trkpt>
      <trkpt lat="28.37017" lon="83.64">
        <ele>2330.37</ele>
        <time>2013-10-28T02:13:25Z</time>
      </trkpt>
      <trkpt lat="28.3701" lon="83.64007">
        <ele>2332.3</ele>
        <time>2013-10-28T02:13:39Z</time>
      </trkpt>
      <trkpt lat="28.37008" lon="83.6401">
        <ele>2334.7</ele>
        <time>2013-10-28T02:13:52Z</time>
      </trkpt>
      <trkpt lat="28.37005" lon="83.64015">
        <ele>2336.62</ele>
        <time>2013-10-28T02:14:03Z</time>
      </trkpt>
      <trkpt lat="28.37001" lon="83.6402">
        <ele>2337.58</ele>
        <time>2013-10-28T02:14:14Z</time>
      </trkpt>
      <trkpt lat="28.36998" lon="83.64023">
        <ele>2339.99</ele>
        <time>2013-10-28T02:14:29Z</time>
      </trkpt>
      <trkpt lat="28.36995" lon="83.64029">
        <ele>2341.91</ele>
        <time>2013-10-28T02:14:42Z</time>
      </trkpt>
      <trkpt lat="28.36991" lon="83.64036">
        <ele>2343.35</ele>
        <time>2013-10-28T02:14:56Z</time>
      </trkpt>
      <trkpt lat="28.36987" lon="83.64042">
        <ele>2345.75</ele>
        <time>2013-10-28T02:15:10Z</time>
      </trkpt>
      <trkpt lat="28.36982" lon="83.64049">
        <ele>2346.72</ele>
        <time>2013-10-28T02:15:23Z</time>
      </trkpt>
      <trkpt lat="28.36979" lon="83.64057">
        <ele>2348.64</ele>
        <time>2013-10-28T02:15:38Z</time>
      </trkpt>
      <trkpt lat="28.36976" lon="83.64068">
        <ele>2350.56</ele>
        <time>2013-10-28T02:15:52Z</time>
      </trkpt>
      <trkpt lat="28.36975" lon="83.6408">
        <ele>2352</ele>
        <time>2013-10-28T02:16:07Z</time>
      </trkpt>
      <trkpt lat="28.36973" lon="83.64089">
        <ele>2353.44</ele>
        <time>2013-10-28T02:16:21Z</time>
      </trkpt>
      <trkpt lat="28.3697" lon="83.64102">
        <ele>2355.37</ele>
        <time>2013-10-28T02:16:37Z</time>
      </trkpt>
      <trkpt lat="28.36965" lon="83.64113">
        <ele>2356.81</ele>
        <time>2013-10-28T02:16:52Z</time>
      </trkpt>
      <trkpt lat="28.36959" lon="83.64122">
        <ele>2357.77</ele>
        <time>2013-10-28T02:17:07Z</time>
      </trkpt>
      <trkpt lat="28.36958" lon="83.64125">
        <ele>2358.73</ele>
        <time>2013-10-28T02:17:21Z</time>
      </trkpt>
      <trkpt lat="28.36958" lon="83.64127">
        <ele>2359.21</ele>
        <time>2013-10-28T02:17:38Z</time>
      </trkpt>
      <trkpt lat="28.36956" lon="83.6413">
        <ele>2359.69</ele>
        <time>2013-10-28T02:18:01Z</time>
      </trkpt>
      <trkpt lat="28.36952" lon="83.64138">
        <ele>2360.17</ele>
        <time>2013-10-28T02:18:12Z</time>
      </trkpt>
      <trkpt lat="28.3695" lon="83.6415">
        <ele>2360.65</ele>
        <time>2013-10-28T02:18:24Z</time>
      </trkpt>
      <trkpt lat="28.3695" lon="83.64162">
        <ele>2362.58</ele>
        <time>2013-10-28T02:18:36Z</time>
      </trkpt>
      <trkpt lat="28.36952" lon="83.64174">
        <ele>2363.06</ele>
        <time>2013-10-28T02:18:48Z</time>
      </trkpt>
      <trkpt lat="28.36956" lon="83.64186">
        <ele>2364.5</ele>
        <time>2013-10-28T02:19:03Z</time>
      </trkpt>
      <trkpt lat="28.36957" lon="83.64198">
        <ele>2365.46</ele>
        <time>2013-10-28T02:19:16Z</time>
      </trkpt>
      <trkpt lat="28.36954" lon="83.64209">
        <ele>2367.38</ele>
        <time>2013-10-28T02:19:28Z</time>
      </trkpt>
      <trkpt lat="28.36953" lon="83.64211">
        <ele>2367.38</ele>
        <time>2013-10-28T02:19:31Z</time>
      </trkpt>
      <trkpt lat="28.36952" lon="83.64215">
        <ele>2367.38</ele>
        <time>2013-10-28T02:19:34Z</time>
      </trkpt>
      <trkpt lat="28.36946" lon="83.64226">
        <ele>2368.35</ele>
        <time>2013-10-28T02:19:48Z</time>
      </trkpt>
      <trkpt lat="28.36942" lon="83.64237">
        <ele>2370.27</ele>
        <time>2013-10-28T02:20:04Z</time>
      </trkpt>
      <trkpt lat="28.36936" lon="83.64245">
        <ele>2372.19</ele>
        <time>2013-10-28T02:20:16Z</time>
      </trkpt>
      <trkpt lat="28.36931" lon="83.64251">
        <ele>2373.63</ele>
        <time>2013-10-28T02:20:29Z</time>
      </trkpt>
      <trkpt lat="28.36926" lon="83.64261">
        <ele>2375.07</ele>
        <time>2013-10-28T02:20:43Z</time>
      </trkpt>
      <trkpt lat="28.36921" lon="83.64267">
        <ele>2377.48</ele>
        <time>2013-10-28T02:20:56Z</time>
      </trkpt>
      <trkpt lat="28.36916" lon="83.64271">
        <ele>2379.4</ele>
        <time>2013-10-28T02:21:08Z</time>
      </trkpt>
      <trkpt lat="28.36912" lon="83.64276">
        <ele>2381.32</ele>
        <time>2013-10-28T02:21:23Z</time>
      </trkpt>
      <trkpt lat="28.36908" lon="83.64279">
        <ele>2382.76</ele>
        <time>2013-10-28T02:21:37Z</time>
      </trkpt>
      <trkpt lat="28.36904" lon="83.64283">
        <ele>2384.69</ele>
        <time>2013-10-28T02:21:49Z</time>
      </trkpt>
      <trkpt lat="28.369" lon="83.64286">
        <ele>2386.13</ele>
        <time>2013-10-28T02:21:57Z</time>
      </trkpt>
      <trkpt lat="28.36892" lon="83.64291">
        <ele>2387.09</ele>
        <time>2013-10-28T02:22:08Z</time>
      </trkpt>
      <trkpt lat="28.36886" lon="83.643">
        <ele>2387.57</ele>
        <time>2013-10-28T02:22:20Z</time>
      </trkpt>
      <trkpt lat="28.36878" lon="83.64309">
        <ele>2389.01</ele>
        <time>2013-10-28T02:22:33Z</time>
      </trkpt>
      <trkpt lat="28.36869" lon="83.64318">
        <ele>2390.46</ele>
        <time>2013-10-28T02:22:48Z</time>
      </trkpt>
      <trkpt lat="28.3686" lon="83.64323">
        <ele>2391.9</ele>
        <time>2013-10-28T02:23:02Z</time>
      </trkpt>
      <trkpt lat="28.36856" lon="83.64325">
        <ele>2392.38</ele>
        <time>2013-10-28T02:23:07Z</time>
      </trkpt>
      <trkpt lat="28.36845" lon="83.64327">
        <ele>2392.86</ele>
        <time>2013-10-28T02:23:20Z</time>
      </trkpt>
      <trkpt lat="28.36839" lon="83.64328">
        <ele>2392.86</ele>
        <time>2013-10-28T02:23:26Z</time>
      </trkpt>
      <trkpt lat="28.36832" lon="83.64331">
        <ele>2392.86</ele>
        <time>2013-10-28T02:23:34Z</time>
      </trkpt>
      <trkpt lat="28.36826" lon="83.64333">
        <ele>2393.34</ele>
        <time>2013-10-28T02:23:39Z</time>
      </trkpt>
      <trkpt lat="28.36819" lon="83.64333">
        <ele>2393.34</ele>
        <time>2013-10-28T02:23:46Z</time>
      </trkpt>
      <trkpt lat="28.36807" lon="83.64334">
        <ele>2393.82</ele>
        <time>2013-10-28T02:23:57Z</time>
      </trkpt>
      <trkpt lat="28.36798" lon="83.64335">
        <ele>2395.74</ele>
        <time>2013-10-28T02:24:08Z</time>
      </trkpt>
      <trkpt lat="28.36792" lon="83.64335">
        <ele>2396.7</ele>
        <time>2013-10-28T02:24:19Z</time>
      </trkpt>
      <trkpt lat="28.36789" lon="83.64335">
        <ele>2397.18</ele>
        <time>2013-10-28T02:24:22Z</time>
      </trkpt>
      <trkpt lat="28.36783" lon="83.64335">
        <ele>2397.67</ele>
        <time>2013-10-28T02:24:28Z</time>
      </trkpt>
      <trkpt lat="28.36776" lon="83.64335">
        <ele>2399.11</ele>
        <time>2013-10-28T02:24:37Z</time>
      </trkpt>
      <trkpt lat="28.3677" lon="83.64335">
        <ele>2400.07</ele>
        <time>2013-10-28T02:24:49Z</time>
      </trkpt>
      <trkpt lat="28.36769" lon="83.64334">
        <ele>2400.07</ele>
        <time>2013-10-28T02:25:07Z</time>
      </trkpt>
      <trkpt lat="28.36764" lon="83.64334">
        <ele>2400.55</ele>
        <time>2013-10-28T02:25:24Z</time>
      </trkpt>
      <trkpt lat="28.3676" lon="83.64335">
        <ele>2400.55</ele>
        <time>2013-10-28T02:25:28Z</time>
      </trkpt>
      <trkpt lat="28.3675" lon="83.64334">
        <ele>2401.51</ele>
        <time>2013-10-28T02:25:41Z</time>
      </trkpt>
      <trkpt lat="28.36739" lon="83.64334">
        <ele>2401.99</ele>
        <time>2013-10-28T02:25:52Z</time>
      </trkpt>
      <trkpt lat="28.36731" lon="83.64334">
        <ele>2401.99</ele>
        <time>2013-10-28T02:26:08Z</time>
      </trkpt>
      <trkpt lat="28.36729" lon="83.64338">
        <ele>2401.99</ele>
        <time>2013-10-28T02:26:29Z</time>
      </trkpt>
      <trkpt lat="28.36717" lon="83.64346">
        <ele>2401.51</ele>
        <time>2013-10-28T02:26:44Z</time>
      </trkpt>
      <trkpt lat="28.36709" lon="83.6435">
        <ele>2401.99</ele>
        <time>2013-10-28T02:26:58Z</time>
      </trkpt>
      <trkpt lat="28.367" lon="83.64358">
        <ele>2402.95</ele>
        <time>2013-10-28T02:27:15Z</time>
      </trkpt>
      <trkpt lat="28.36694" lon="83.64365">
        <ele>2403.91</ele>
        <time>2013-10-28T02:27:29Z</time>
      </trkpt>
      <trkpt lat="28.36689" lon="83.64379">
        <ele>2404.88</ele>
        <time>2013-10-28T02:27:43Z</time>
      </trkpt>
      <trkpt lat="28.3668" lon="83.64387">
        <ele>2406.32</ele>
        <time>2013-10-28T02:28:01Z</time>
      </trkpt>
      <trkpt lat="28.3667" lon="83.64396">
        <ele>2407.28</ele>
        <time>2013-10-28T02:28:16Z</time>
      </trkpt>
      <trkpt lat="28.36661" lon="83.64402">
        <ele>2408.24</ele>
        <time>2013-10-28T02:28:28Z</time>
      </trkpt>
      <trkpt lat="28.36653" lon="83.64405">
        <ele>2409.2</ele>
        <time>2013-10-28T02:28:41Z</time>
      </trkpt>
      <trkpt lat="28.36649" lon="83.64404">
        <ele>2410.16</ele>
        <time>2013-10-28T02:28:53Z</time>
      </trkpt>
      <trkpt lat="28.36649" lon="83.64405">
        <ele>2409.68</ele>
        <time>2013-10-28T02:29:14Z</time>
      </trkpt>
      <trkpt lat="28.36649" lon="83.64404">
        <ele>2410.16</ele>
        <time>2013-10-28T02:29:37Z</time>
      </trkpt>
      <trkpt lat="28.36649" lon="83.64404">
        <ele>2410.16</ele>
        <time>2013-10-28T02:29:55Z</time>
      </trkpt>
      <trkpt lat="28.36649" lon="83.64404">
        <ele>2410.16</ele>
        <time>2013-10-28T02:30:29Z</time>
      </trkpt>
      <trkpt lat="28.36649" lon="83.64404">
        <ele>2410.16</ele>
        <time>2013-10-28T02:30:56Z</time>
      </trkpt>
      <trkpt lat="28.3665" lon="83.64404">
        <ele>2410.16</ele>
        <time>2013-10-28T02:31:21Z</time>
      </trkpt>
      <trkpt lat="28.36648" lon="83.64405">
        <ele>2410.16</ele>
        <time>2013-10-28T02:31:34Z</time>
      </trkpt>
      <trkpt lat="28.36641" lon="83.64404">
        <ele>2411.12</ele>
        <time>2013-10-28T02:31:45Z</time>
      </trkpt>
      <trkpt lat="28.3664" lon="83.64405">
        <ele>2411.12</ele>
        <time>2013-10-28T02:32:04Z</time>
      </trkpt>
      <trkpt lat="28.36639" lon="83.64404">
        <ele>2411.6</ele>
        <time>2013-10-28T02:32:28Z</time>
      </trkpt>
      <trkpt lat="28.36639" lon="83.64404">
        <ele>2412.57</ele>
        <time>2013-10-28T02:32:54Z</time>
      </trkpt>
      <trkpt lat="28.36638" lon="83.64404">
        <ele>2411.6</ele>
        <time>2013-10-28T02:33:12Z</time>
      </trkpt>
      <trkpt lat="28.36639" lon="83.64403">
        <ele>2411.6</ele>
        <time>2013-10-28T02:33:40Z</time>
      </trkpt>
      <trkpt lat="28.36639" lon="83.64403">
        <ele>2411.12</ele>
        <time>2013-10-28T02:34:06Z</time>
      </trkpt>
      <trkpt lat="28.3664" lon="83.64401">
        <ele>2411.12</ele>
        <time>2013-10-28T02:34:27Z</time>
      </trkpt>
      <trkpt lat="28.36642" lon="83.64398">
        <ele>2410.64</ele>
        <time>2013-10-28T02:34:46Z</time>
      </trkpt>
      <trkpt lat="28.36642" lon="83.64398">
        <ele>2414.01</ele>
        <time>2013-10-28T02:34:47Z</time>
      </trkpt>
      <trkpt lat="28.36641" lon="83.64398">
        <ele>2411.12</ele>
        <time>2013-10-28T02:34:49Z</time>
      </trkpt>
      <trkpt lat="28.3664" lon="83.64401">
        <ele>2411.12</ele>
        <time>2013-10-28T02:35:09Z</time>
      </trkpt>
      <trkpt lat="28.36632" lon="83.64405">
        <ele>2411.12</ele>
        <time>2013-10-28T02:35:25Z</time>
      </trkpt>
      <trkpt lat="28.3663" lon="83.64406">
        <ele>2410.64</ele>
        <time>2013-10-28T02:35:27Z</time>
      </trkpt>
      <trkpt lat="28.36625" lon="83.64408">
        <ele>2410.64</ele>
        <time>2013-10-28T02:35:31Z</time>
      </trkpt>
      <trkpt lat="28.36612" lon="83.64407">
        <ele>2410.16</ele>
        <time>2013-10-28T02:35:46Z</time>
      </trkpt>
      <trkpt lat="28.36606" lon="83.64408">
        <ele>2410.16</ele>
        <time>2013-10-28T02:36:00Z</time>
      </trkpt>
      <trkpt lat="28.36606" lon="83.64409">
        <ele>2410.64</ele>
        <time>2013-10-28T02:36:18Z</time>
      </trkpt>
      <trkpt lat="28.36606" lon="83.64409">
        <ele>2410.64</ele>
        <time>2013-10-28T02:36:40Z</time>
      </trkpt>
      <trkpt lat="28.36608" lon="83.64409">
        <ele>2410.16</ele>
        <time>2013-10-28T02:37:07Z</time>
      </trkpt>
      <trkpt lat="28.36604" lon="83.64409">
        <ele>2410.16</ele>
        <time>2013-10-28T02:37:25Z</time>
      </trkpt>
      <trkpt lat="28.36592" lon="83.64412">
        <ele>2409.68</ele>
        <time>2013-10-28T02:37:40Z</time>
      </trkpt>
      <trkpt lat="28.36581" lon="83.64414">
        <ele>2409.2</ele>
        <time>2013-10-28T02:37:52Z</time>
      </trkpt>
      <trkpt lat="28.36572" lon="83.64415">
        <ele>2409.2</ele>
        <time>2013-10-28T02:38:04Z</time>
      </trkpt>
      <trkpt lat="28.36571" lon="83.64415">
        <ele>2408.72</ele>
        <time>2013-10-28T02:38:07Z</time>
      </trkpt>
      <trkpt lat="28.36561" lon="83.64414">
        <ele>2408.72</ele>
        <time>2013-10-28T02:38:18Z</time>
      </trkpt>
      <trkpt lat="28.36557" lon="83.64416">
        <ele>2408.24</ele>
        <time>2013-10-28T02:38:22Z</time>
      </trkpt>
      <trkpt lat="28.36549" lon="83.64414">
        <ele>2407.76</ele>
        <time>2013-10-28T02:38:31Z</time>
      </trkpt>
      <trkpt lat="28.36545" lon="83.64413">
        <ele>2407.76</ele>
        <time>2013-10-28T02:38:35Z</time>
      </trkpt>
      <trkpt lat="28.36532" lon="83.64414">
        <ele>2406.8</ele>
        <time>2013-10-28T02:38:44Z</time>
      </trkpt>
      <trkpt lat="28.36523" lon="83.64412">
        <ele>2405.84</ele>
        <time>2013-10-28T02:38:51Z</time>
      </trkpt>
      <trkpt lat="28.36518" lon="83.64411">
        <ele>2404.88</ele>
        <time>2013-10-28T02:38:56Z</time>
      </trkpt>
      <trkpt lat="28.36513" lon="83.64408">
        <ele>2404.88</ele>
        <time>2013-10-28T02:39:02Z</time>
      </trkpt>
      <trkpt lat="28.365" lon="83.64409">
        <ele>2404.39</ele>
        <time>2013-10-28T02:39:12Z</time>
      </trkpt>
      <trkpt lat="28.36487" lon="83.64407">
        <ele>2404.88</ele>
        <time>2013-10-28T02:39:25Z</time>
      </trkpt>
      <trkpt lat="28.36476" lon="83.6441">
        <ele>2405.84</ele>
        <time>2013-10-28T02:39:38Z</time>
      </trkpt>
      <trkpt lat="28.3646" lon="83.64418">
        <ele>2406.32</ele>
        <time>2013-10-28T02:39:55Z</time>
      </trkpt>
      <trkpt lat="28.36449" lon="83.64421">
        <ele>2407.28</ele>
        <time>2013-10-28T02:40:08Z</time>
      </trkpt>
      <trkpt lat="28.36438" lon="83.6442">
        <ele>2408.24</ele>
        <time>2013-10-28T02:40:23Z</time>
      </trkpt>
      <trkpt lat="28.36437" lon="83.6442">
        <ele>2408.72</ele>
        <time>2013-10-28T02:40:25Z</time>
      </trkpt>
      <trkpt lat="28.36426" lon="83.64421">
        <ele>2409.2</ele>
        <time>2013-10-28T02:40:39Z</time>
      </trkpt>
      <trkpt lat="28.36414" lon="83.64423">
        <ele>2410.16</ele>
        <time>2013-10-28T02:40:52Z</time>
      </trkpt>
      <trkpt lat="28.36403" lon="83.64425">
        <ele>2411.6</ele>
        <time>2013-10-28T02:41:08Z</time>
      </trkpt>
      <trkpt lat="28.36396" lon="83.64426">
        <ele>2414.01</ele>
        <time>2013-10-28T02:41:24Z</time>
      </trkpt>
      <trkpt lat="28.36389" lon="83.64429">
        <ele>2415.93</ele>
        <time>2013-10-28T02:41:42Z</time>
      </trkpt>
      <trkpt lat="28.36383" lon="83.64426">
        <ele>2418.33</ele>
        <time>2013-10-28T02:41:55Z</time>
      </trkpt>
      <trkpt lat="28.36378" lon="83.64426">
        <ele>2419.78</ele>
        <time>2013-10-28T02:42:13Z</time>
      </trkpt>
      <trkpt lat="28.3637" lon="83.64428">
        <ele>2422.18</ele>
        <time>2013-10-28T02:42:26Z</time>
      </trkpt>
      <trkpt lat="28.3636" lon="83.64429">
        <ele>2422.66</ele>
        <time>2013-10-28T02:42:37Z</time>
      </trkpt>
      <trkpt lat="28.36349" lon="83.6443">
        <ele>2423.62</ele>
        <time>2013-10-28T02:42:48Z</time>
      </trkpt>
      <trkpt lat="28.36338" lon="83.6443">
        <ele>2424.1</ele>
        <time>2013-10-28T02:43:00Z</time>
      </trkpt>
      <trkpt lat="28.36334" lon="83.6443">
        <ele>2424.1</ele>
        <time>2013-10-28T02:43:04Z</time>
      </trkpt>
      <trkpt lat="28.3632" lon="83.64431">
        <ele>2425.06</ele>
        <time>2013-10-28T02:43:17Z</time>
      </trkpt>
      <trkpt lat="28.36317" lon="83.64432">
        <ele>2425.06</ele>
        <time>2013-10-28T02:43:21Z</time>
      </trkpt>
      <trkpt lat="28.36309" lon="83.64427">
        <ele>2426.02</ele>
        <time>2013-10-28T02:43:30Z</time>
      </trkpt>
      <trkpt lat="28.36303" lon="83.64428">
        <ele>2426.02</ele>
        <time>2013-10-28T02:43:35Z</time>
      </trkpt>
      <trkpt lat="28.36293" lon="83.64431">
        <ele>2426.5</ele>
        <time>2013-10-28T02:43:44Z</time>
      </trkpt>
      <trkpt lat="28.36287" lon="83.64432">
        <ele>2426.5</ele>
        <time>2013-10-28T02:43:51Z</time>
      </trkpt>
      <trkpt lat="28.36273" lon="83.64434">
        <ele>2427.47</ele>
        <time>2013-10-28T02:44:04Z</time>
      </trkpt>
      <trkpt lat="28.36268" lon="83.64437">
        <ele>2427.47</ele>
        <time>2013-10-28T02:44:10Z</time>
      </trkpt>
      <trkpt lat="28.36263" lon="83.6444">
        <ele>2427.47</ele>
        <time>2013-10-28T02:44:14Z</time>
      </trkpt>
      <trkpt lat="28.36256" lon="83.64443">
        <ele>2428.91</ele>
        <time>2013-10-28T02:44:27Z</time>
      </trkpt>
      <trkpt lat="28.36251" lon="83.64445">
        <ele>2429.39</ele>
        <time>2013-10-28T02:44:38Z</time>
      </trkpt>
      <trkpt lat="28.36246" lon="83.64448">
        <ele>2429.87</ele>
        <time>2013-10-28T02:44:58Z</time>
      </trkpt>
      <trkpt lat="28.36243" lon="83.64448">
        <ele>2430.35</ele>
        <time>2013-10-28T02:45:03Z</time>
      </trkpt>
      <trkpt lat="28.36235" lon="83.6445">
        <ele>2431.79</ele>
        <time>2013-10-28T02:45:14Z</time>
      </trkpt>
      <trkpt lat="28.3623" lon="83.6445">
        <ele>2433.23</ele>
        <time>2013-10-28T02:45:24Z</time>
      </trkpt>
      <trkpt lat="28.36224" lon="83.64454">
        <ele>2435.16</ele>
        <time>2013-10-28T02:45:36Z</time>
      </trkpt>
      <trkpt lat="28.36217" lon="83.64455">
        <ele>2436.6</ele>
        <time>2013-10-28T02:45:49Z</time>
      </trkpt>
      <trkpt lat="28.36211" lon="83.64457">
        <ele>2438.04</ele>
        <time>2013-10-28T02:46:01Z</time>
      </trkpt>
      <trkpt lat="28.36205" lon="83.64457">
        <ele>2439.48</ele>
        <time>2013-10-28T02:46:12Z</time>
      </trkpt>
      <trkpt lat="28.36196" lon="83.64459">
        <ele>2439.48</ele>
        <time>2013-10-28T02:46:22Z</time>
      </trkpt>
      <trkpt lat="28.36186" lon="83.64462">
        <ele>2439.96</ele>
        <time>2013-10-28T02:46:34Z</time>
      </trkpt>
      <trkpt lat="28.3618" lon="83.64464">
        <ele>2441.41</ele>
        <time>2013-10-28T02:46:47Z</time>
      </trkpt>
      <trkpt lat="28.3618" lon="83.64467">
        <ele>2442.85</ele>
        <time>2013-10-28T02:47:00Z</time>
      </trkpt>
      <trkpt lat="28.36178" lon="83.6447">
        <ele>2444.29</ele>
        <time>2013-10-28T02:47:13Z</time>
      </trkpt>
      <trkpt lat="28.36174" lon="83.64471">
        <ele>2446.21</ele>
        <time>2013-10-28T02:47:26Z</time>
      </trkpt>
      <trkpt lat="28.36169" lon="83.64476">
        <ele>2448.62</ele>
        <time>2013-10-28T02:47:42Z</time>
      </trkpt>
      <trkpt lat="28.36164" lon="83.64475">
        <ele>2451.5</ele>
        <time>2013-10-28T02:47:55Z</time>
      </trkpt>
      <trkpt lat="28.3616" lon="83.64476">
        <ele>2452.94</ele>
        <time>2013-10-28T02:48:07Z</time>
      </trkpt>
      <trkpt lat="28.36151" lon="83.64479">
        <ele>2455.34</ele>
        <time>2013-10-28T02:48:22Z</time>
      </trkpt>
      <trkpt lat="28.36142" lon="83.64482">
        <ele>2457.27</ele>
        <time>2013-10-28T02:48:37Z</time>
      </trkpt>
      <trkpt lat="28.36133" lon="83.64485">
        <ele>2459.67</ele>
        <time>2013-10-28T02:48:54Z</time>
      </trkpt>
      <trkpt lat="28.36133" lon="83.64486">
        <ele>2459.67</ele>
        <time>2013-10-28T02:48:55Z</time>
      </trkpt>
      <trkpt lat="28.36122" lon="83.6449">
        <ele>2461.11</ele>
        <time>2013-10-28T02:49:07Z</time>
      </trkpt>
      <trkpt lat="28.36113" lon="83.64496">
        <ele>2462.07</ele>
        <time>2013-10-28T02:49:20Z</time>
      </trkpt>
      <trkpt lat="28.36103" lon="83.64501">
        <ele>2463.04</ele>
        <time>2013-10-28T02:49:32Z</time>
      </trkpt>
      <trkpt lat="28.36094" lon="83.64507">
        <ele>2464.48</ele>
        <time>2013-10-28T02:49:48Z</time>
      </trkpt>
      <trkpt lat="28.36086" lon="83.6451">
        <ele>2464.48</ele>
        <time>2013-10-28T02:50:04Z</time>
      </trkpt>
      <trkpt lat="28.36085" lon="83.6451">
        <ele>2464.96</ele>
        <time>2013-10-28T02:50:22Z</time>
      </trkpt>
      <trkpt lat="28.36092" lon="83.64503">
        <ele>2464.48</ele>
        <time>2013-10-28T02:50:35Z</time>
      </trkpt>
      <trkpt lat="28.361" lon="83.64496">
        <ele>2462.55</ele>
        <time>2013-10-28T02:50:48Z</time>
      </trkpt>
      <trkpt lat="28.36099" lon="83.64494">
        <ele>2463.04</ele>
        <time>2013-10-28T02:51:21Z</time>
      </trkpt>
      <trkpt lat="28.36097" lon="83.64502">
        <ele>2464</ele>
        <time>2013-10-28T02:51:37Z</time>
      </trkpt>
      <trkpt lat="28.36087" lon="83.64509">
        <ele>2464.96</ele>
        <time>2013-10-28T02:51:49Z</time>
      </trkpt>
      <trkpt lat="28.36087" lon="83.6451">
        <ele>2464.96</ele>
        <time>2013-10-28T02:52:07Z</time>
      </trkpt>
      <trkpt lat="28.36087" lon="83.64511">
        <ele>2464.96</ele>
        <time>2013-10-28T02:52:30Z</time>
      </trkpt>
      <trkpt lat="28.36086" lon="83.6451">
        <ele>2465.44</ele>
        <time>2013-10-28T02:52:55Z</time>
      </trkpt>
      <trkpt lat="28.36086" lon="83.64511">
        <ele>2465.44</ele>
        <time>2013-10-28T02:53:10Z</time>
      </trkpt>
      <trkpt lat="28.36086" lon="83.64511">
        <ele>2465.44</ele>
        <time>2013-10-28T02:53:31Z</time>
      </trkpt>
      <trkpt lat="28.36085" lon="83.64511">
        <ele>2465.44</ele>
        <time>2013-10-28T02:53:58Z</time>
      </trkpt>
      <trkpt lat="28.36085" lon="83.6451">
        <ele>2465.44</ele>
        <time>2013-10-28T02:54:20Z</time>
      </trkpt>
      <trkpt lat="28.36085" lon="83.64511">
        <ele>2465.92</ele>
        <time>2013-10-28T02:54:41Z</time>
      </trkpt>
      <trkpt lat="28.36083" lon="83.64511">
        <ele>2465.92</ele>
        <time>2013-10-28T02:54:59Z</time>
      </trkpt>
      <trkpt lat="28.36081" lon="83.64512">
        <ele>2465.44</ele>
        <time>2013-10-28T02:55:01Z</time>
      </trkpt>
      <trkpt lat="28.36074" lon="83.64523">
        <ele>2466.4</ele>
        <time>2013-10-28T02:55:15Z</time>
      </trkpt>
      <trkpt lat="28.36073" lon="83.64525">
        <ele>2465.92</ele>
        <time>2013-10-28T02:55:17Z</time>
      </trkpt>
      <trkpt lat="28.3606" lon="83.64543">
        <ele>2466.88</ele>
        <time>2013-10-28T02:55:34Z</time>
      </trkpt>
      <trkpt lat="28.3605" lon="83.64548">
        <ele>2469.28</ele>
        <time>2013-10-28T02:55:49Z</time>
      </trkpt>
      <trkpt lat="28.3604" lon="83.64557">
        <ele>2472.17</ele>
        <time>2013-10-28T02:56:08Z</time>
      </trkpt>
      <trkpt lat="28.36031" lon="83.64564">
        <ele>2474.09</ele>
        <time>2013-10-28T02:56:24Z</time>
      </trkpt>
      <trkpt lat="28.36027" lon="83.64572">
        <ele>2477.45</ele>
        <time>2013-10-28T02:56:45Z</time>
      </trkpt>
      <trkpt lat="28.36025" lon="83.64581">
        <ele>2479.86</ele>
        <time>2013-10-28T02:57:06Z</time>
      </trkpt>
      <trkpt lat="28.36019" lon="83.64587">
        <ele>2482.26</ele>
        <time>2013-10-28T02:57:23Z</time>
      </trkpt>
      <trkpt lat="28.36016" lon="83.64589">
        <ele>2484.18</ele>
        <time>2013-10-28T02:57:37Z</time>
      </trkpt>
      <trkpt lat="28.36012" lon="83.64594">
        <ele>2486.59</ele>
        <time>2013-10-28T02:57:56Z</time>
      </trkpt>
      <trkpt lat="28.36012" lon="83.64599">
        <ele>2488.03</ele>
        <time>2013-10-28T02:58:12Z</time>
      </trkpt>
      <trkpt lat="28.36012" lon="83.64608">
        <ele>2490.43</ele>
        <time>2013-10-28T02:58:28Z</time>
      </trkpt>
      <trkpt lat="28.36009" lon="83.64616">
        <ele>2492.84</ele>
        <time>2013-10-28T02:58:45Z</time>
      </trkpt>
      <trkpt lat="28.36" lon="83.64621">
        <ele>2494.28</ele>
        <time>2013-10-28T02:58:59Z</time>
      </trkpt>
      <trkpt lat="28.35995" lon="83.64626">
        <ele>2495.72</ele>
        <time>2013-10-28T02:59:12Z</time>
      </trkpt>
      <trkpt lat="28.35993" lon="83.64633">
        <ele>2498.12</ele>
        <time>2013-10-28T02:59:30Z</time>
      </trkpt>
      <trkpt lat="28.35986" lon="83.64648">
        <ele>2500.53</ele>
        <time>2013-10-28T02:59:48Z</time>
      </trkpt>
      <trkpt lat="28.35976" lon="83.64651">
        <ele>2501.97</ele>
        <time>2013-10-28T03:00:04Z</time>
      </trkpt>
      <trkpt lat="28.35967" lon="83.64654">
        <ele>2503.89</ele>
        <time>2013-10-28T03:00:23Z</time>
      </trkpt>
      <trkpt lat="28.35966" lon="83.6467">
        <ele>2505.33</ele>
        <time>2013-10-28T03:00:39Z</time>
      </trkpt>
      <trkpt lat="28.35962" lon="83.64683">
        <ele>2505.33</ele>
        <time>2013-10-28T03:00:54Z</time>
      </trkpt>
      <trkpt lat="28.35948" lon="83.647">
        <ele>2505.33</ele>
        <time>2013-10-28T03:01:11Z</time>
      </trkpt>
      <trkpt lat="28.35936" lon="83.64704">
        <ele>2506.77</ele>
        <time>2013-10-28T03:01:27Z</time>
      </trkpt>
      <trkpt lat="28.3593" lon="83.64707">
        <ele>2510.14</ele>
        <time>2013-10-28T03:01:43Z</time>
      </trkpt>
      <trkpt lat="28.35917" lon="83.64706">
        <ele>2513.02</ele>
        <time>2013-10-28T03:02:03Z</time>
      </trkpt>
      <trkpt lat="28.3591" lon="83.6471">
        <ele>2515.43</ele>
        <time>2013-10-28T03:02:19Z</time>
      </trkpt>
      <trkpt lat="28.35905" lon="83.64709">
        <ele>2516.87</ele>
        <time>2013-10-28T03:02:33Z</time>
      </trkpt>
      <trkpt lat="28.359" lon="83.64709">
        <ele>2516.87</ele>
        <time>2013-10-28T03:02:49Z</time>
      </trkpt>
      <trkpt lat="28.359" lon="83.64709">
        <ele>2517.35</ele>
        <time>2013-10-28T03:03:23Z</time>
      </trkpt>
      <trkpt lat="28.35899" lon="83.64709">
        <ele>2517.35</ele>
        <time>2013-10-28T03:03:57Z</time>
      </trkpt>
      <trkpt lat="28.35899" lon="83.64707">
        <ele>2517.35</ele>
        <time>2013-10-28T03:04:13Z</time>
      </trkpt>
      <trkpt lat="28.35898" lon="83.64708">
        <ele>2517.83</ele>
        <time>2013-10-28T03:04:48Z</time>
      </trkpt>
      <trkpt lat="28.35898" lon="83.64708">
        <ele>2518.31</ele>
        <time>2013-10-28T03:05:20Z</time>
      </trkpt>
      <trkpt lat="28.35899" lon="83.64708">
        <ele>2517.83</ele>
        <time>2013-10-28T03:05:49Z</time>
      </trkpt>
      <trkpt lat="28.35898" lon="83.64713">
        <ele>2519.75</ele>
        <time>2013-10-28T03:06:06Z</time>
      </trkpt>
      <trkpt lat="28.359" lon="83.64725">
        <ele>2522.16</ele>
        <time>2013-10-28T03:06:23Z</time>
      </trkpt>
      <trkpt lat="28.35892" lon="83.64731">
        <ele>2525.52</ele>
        <time>2013-10-28T03:06:44Z</time>
      </trkpt>
      <trkpt lat="28.35887" lon="83.64736">
        <ele>2526.48</ele>
        <time>2013-10-28T03:07:00Z</time>
      </trkpt>
      <trkpt lat="28.35879" lon="83.64743">
        <ele>2529.37</ele>
        <time>2013-10-28T03:07:16Z</time>
      </trkpt>
      <trkpt lat="28.3587" lon="83.64746">
        <ele>2531.29</ele>
        <time>2013-10-28T03:07:31Z</time>
      </trkpt>
      <trkpt lat="28.35862" lon="83.64747">
        <ele>2532.73</ele>
        <time>2013-10-28T03:07:45Z</time>
      </trkpt>
      <trkpt lat="28.35861" lon="83.64754">
        <ele>2534.65</ele>
        <time>2013-10-28T03:08:01Z</time>
      </trkpt>
      <trkpt lat="28.35856" lon="83.64758">
        <ele>2537.06</ele>
        <time>2013-10-28T03:08:16Z</time>
      </trkpt>
      <trkpt lat="28.3585" lon="83.64761">
        <ele>2538.5</ele>
        <time>2013-10-28T03:08:30Z</time>
      </trkpt>
      <trkpt lat="28.35847" lon="83.64765">
        <ele>2539.94</ele>
        <time>2013-10-28T03:08:47Z</time>
      </trkpt>
      <trkpt lat="28.35839" lon="83.64768">
        <ele>2541.86</ele>
        <time>2013-10-28T03:09:03Z</time>
      </trkpt>
      <trkpt lat="28.35829" lon="83.6478">
        <ele>2543.31</ele>
        <time>2013-10-28T03:09:18Z</time>
      </trkpt>
      <trkpt lat="28.35822" lon="83.64785">
        <ele>2545.23</ele>
        <time>2013-10-28T03:09:34Z</time>
      </trkpt>
      <trkpt lat="28.35815" lon="83.64788">
        <ele>2546.19</ele>
        <time>2013-10-28T03:09:47Z</time>
      </trkpt>
      <trkpt lat="28.35807" lon="83.64792">
        <ele>2548.59</ele>
        <time>2013-10-28T03:10:03Z</time>
      </trkpt>
      <trkpt lat="28.35805" lon="83.64795">
        <ele>2550.51</ele>
        <time>2013-10-28T03:10:16Z</time>
      </trkpt>
      <trkpt lat="28.35802" lon="83.64796">
        <ele>2551.48</ele>
        <time>2013-10-28T03:10:33Z</time>
      </trkpt>
      <trkpt lat="28.35797" lon="83.648">
        <ele>2553.88</ele>
        <time>2013-10-28T03:10:53Z</time>
      </trkpt>
      <trkpt lat="28.3579" lon="83.64803">
        <ele>2555.8</ele>
        <time>2013-10-28T03:11:08Z</time>
      </trkpt>
      <trkpt lat="28.35786" lon="83.64805">
        <ele>2556.76</ele>
        <time>2013-10-28T03:11:23Z</time>
      </trkpt>
      <trkpt lat="28.35776" lon="83.64814">
        <ele>2558.69</ele>
        <time>2013-10-28T03:11:39Z</time>
      </trkpt>
      <trkpt lat="28.35767" lon="83.64822">
        <ele>2560.61</ele>
        <time>2013-10-28T03:11:53Z</time>
      </trkpt>
      <trkpt lat="28.35756" lon="83.64828">
        <ele>2562.53</ele>
        <time>2013-10-28T03:12:09Z</time>
      </trkpt>
      <trkpt lat="28.35748" lon="83.64832">
        <ele>2563.97</ele>
        <time>2013-10-28T03:12:22Z</time>
      </trkpt>
      <trkpt lat="28.35743" lon="83.64835">
        <ele>2564.93</ele>
        <time>2013-10-28T03:12:38Z</time>
      </trkpt>
      <trkpt lat="28.35743" lon="83.64836">
        <ele>2565.42</ele>
        <time>2013-10-28T03:13:02Z</time>
      </trkpt>
      <trkpt lat="28.35743" lon="83.64836">
        <ele>2565.42</ele>
        <time>2013-10-28T03:13:09Z</time>
      </trkpt>
      <trkpt lat="28.35733" lon="83.64843">
        <ele>2565.9</ele>
        <time>2013-10-28T03:13:19Z</time>
      </trkpt>
      <trkpt lat="28.35731" lon="83.64844">
        <ele>2566.38</ele>
        <time>2013-10-28T03:13:21Z</time>
      </trkpt>
      <trkpt lat="28.35726" lon="83.64847">
        <ele>2566.86</ele>
        <time>2013-10-28T03:13:25Z</time>
      </trkpt>
      <trkpt lat="28.35713" lon="83.64853">
        <ele>2566.86</ele>
        <time>2013-10-28T03:13:37Z</time>
      </trkpt>
      <trkpt lat="28.35699" lon="83.64854">
        <ele>2568.3</ele>
        <time>2013-10-28T03:13:51Z</time>
      </trkpt>
      <trkpt lat="28.35692" lon="83.64854">
        <ele>2568.3</ele>
        <time>2013-10-28T03:13:56Z</time>
      </trkpt>
      <trkpt lat="28.35688" lon="83.64855">
        <ele>2568.3</ele>
        <time>2013-10-28T03:14:00Z</time>
      </trkpt>
      <trkpt lat="28.35672" lon="83.64859">
        <ele>2568.3</ele>
        <time>2013-10-28T03:14:14Z</time>
      </trkpt>
      <trkpt lat="28.35657" lon="83.6486">
        <ele>2568.78</ele>
        <time>2013-10-28T03:14:27Z</time>
      </trkpt>
      <trkpt lat="28.35647" lon="83.64861">
        <ele>2569.74</ele>
        <time>2013-10-28T03:14:43Z</time>
      </trkpt>
      <trkpt lat="28.35638" lon="83.64867">
        <ele>2571.66</ele>
        <time>2013-10-28T03:14:58Z</time>
      </trkpt>
      <trkpt lat="28.35636" lon="83.64875">
        <ele>2573.59</ele>
        <time>2013-10-28T03:15:13Z</time>
      </trkpt>
      <trkpt lat="28.35629" lon="83.64881">
        <ele>2574.55</ele>
        <time>2013-10-28T03:15:28Z</time>
      </trkpt>
      <trkpt lat="28.35616" lon="83.64878">
        <ele>2575.99</ele>
        <time>2013-10-28T03:15:47Z</time>
      </trkpt>
      <trkpt lat="28.35606" lon="83.64876">
        <ele>2577.91</ele>
        <time>2013-10-28T03:16:03Z</time>
      </trkpt>
      <trkpt lat="28.35603" lon="83.64871">
        <ele>2579.35</ele>
        <time>2013-10-28T03:16:19Z</time>
      </trkpt>
      <trkpt lat="28.35603" lon="83.64869">
        <ele>2579.35</ele>
        <time>2013-10-28T03:16:40Z</time>
      </trkpt>
      <trkpt lat="28.35598" lon="83.6487">
        <ele>2581.28</ele>
        <time>2013-10-28T03:16:57Z</time>
      </trkpt>
      <trkpt lat="28.35591" lon="83.64871">
        <ele>2583.68</ele>
        <time>2013-10-28T03:17:12Z</time>
      </trkpt>
      <trkpt lat="28.35586" lon="83.64878">
        <ele>2585.12</ele>
        <time>2013-10-28T03:17:28Z</time>
      </trkpt>
      <trkpt lat="28.35581" lon="83.64881">
        <ele>2586.56</ele>
        <time>2013-10-28T03:17:43Z</time>
      </trkpt>
      <trkpt lat="28.35577" lon="83.64882">
        <ele>2589.45</ele>
        <time>2013-10-28T03:17:55Z</time>
      </trkpt>
      <trkpt lat="28.35576" lon="83.64886">
        <ele>2590.41</ele>
        <time>2013-10-28T03:18:07Z</time>
      </trkpt>
      <trkpt lat="28.35577" lon="83.64891">
        <ele>2592.33</ele>
        <time>2013-10-28T03:18:25Z</time>
      </trkpt>
      <trkpt lat="28.35577" lon="83.64895">
        <ele>2594.25</ele>
        <time>2013-10-28T03:18:42Z</time>
      </trkpt>
      <trkpt lat="28.35577" lon="83.64902">
        <ele>2596.18</ele>
        <time>2013-10-28T03:18:57Z</time>
      </trkpt>
      <trkpt lat="28.35575" lon="83.64904">
        <ele>2598.58</ele>
        <time>2013-10-28T03:19:15Z</time>
      </trkpt>
      <trkpt lat="28.3557" lon="83.64904">
        <ele>2600.98</ele>
        <time>2013-10-28T03:19:33Z</time>
      </trkpt>
      <trkpt lat="28.35567" lon="83.64903">
        <ele>2603.39</ele>
        <time>2013-10-28T03:19:51Z</time>
      </trkpt>
      <trkpt lat="28.35561" lon="83.64904">
        <ele>2605.31</ele>
        <time>2013-10-28T03:20:09Z</time>
      </trkpt>
      <trkpt lat="28.35559" lon="83.64903">
        <ele>2605.79</ele>
        <time>2013-10-28T03:20:26Z</time>
      </trkpt>
      <trkpt lat="28.35556" lon="83.649">
        <ele>2608.19</ele>
        <time>2013-10-28T03:20:44Z</time>
      </trkpt>
      <trkpt lat="28.35555" lon="83.64899">
        <ele>2610.12</ele>
        <time>2013-10-28T03:21:02Z</time>
      </trkpt>
      <trkpt lat="28.35553" lon="83.64898">
        <ele>2612.52</ele>
        <time>2013-10-28T03:21:18Z</time>
      </trkpt>
      <trkpt lat="28.35547" lon="83.64891">
        <ele>2614.44</ele>
        <time>2013-10-28T03:21:32Z</time>
      </trkpt>
      <trkpt lat="28.35543" lon="83.6489">
        <ele>2616.37</ele>
        <time>2013-10-28T03:21:49Z</time>
      </trkpt>
      <trkpt lat="28.35542" lon="83.64891">
        <ele>2618.29</ele>
        <time>2013-10-28T03:22:05Z</time>
      </trkpt>
      <trkpt lat="28.35537" lon="83.64889">
        <ele>2619.73</ele>
        <time>2013-10-28T03:22:19Z</time>
      </trkpt>
      <trkpt lat="28.35539" lon="83.64887">
        <ele>2620.21</ele>
        <time>2013-10-28T03:22:35Z</time>
      </trkpt>
      <trkpt lat="28.35539" lon="83.64887">
        <ele>2621.17</ele>
        <time>2013-10-28T03:22:55Z</time>
      </trkpt>
      <trkpt lat="28.35539" lon="83.64886">
        <ele>2621.17</ele>
        <time>2013-10-28T03:23:24Z</time>
      </trkpt>
      <trkpt lat="28.35539" lon="83.64886">
        <ele>2620.69</ele>
        <time>2013-10-28T03:23:47Z</time>
      </trkpt>
      <trkpt lat="28.35539" lon="83.64885">
        <ele>2620.69</ele>
        <time>2013-10-28T03:24:20Z</time>
      </trkpt>
      <trkpt lat="28.35539" lon="83.64885">
        <ele>2620.69</ele>
        <time>2013-10-28T03:24:50Z</time>
      </trkpt>
      <trkpt lat="28.3554" lon="83.64886">
        <ele>2621.17</ele>
        <time>2013-10-28T03:25:19Z</time>
      </trkpt>
      <trkpt lat="28.35539" lon="83.64886">
        <ele>2621.65</ele>
        <time>2013-10-28T03:25:33Z</time>
      </trkpt>
      <trkpt lat="28.35539" lon="83.64886">
        <ele>2621.65</ele>
        <time>2013-10-28T03:26:03Z</time>
      </trkpt>
      <trkpt lat="28.35534" lon="83.64889">
        <ele>2623.09</ele>
        <time>2013-10-28T03:26:19Z</time>
      </trkpt>
      <trkpt lat="28.35526" lon="83.6489">
        <ele>2624.54</ele>
        <time>2013-10-28T03:26:33Z</time>
      </trkpt>
      <trkpt lat="28.35513" lon="83.64888">
        <ele>2626.46</ele>
        <time>2013-10-28T03:26:49Z</time>
      </trkpt>
      <trkpt lat="28.35507" lon="83.64888">
        <ele>2628.86</ele>
        <time>2013-10-28T03:27:06Z</time>
      </trkpt>
      <trkpt lat="28.35502" lon="83.64888">
        <ele>2630.79</ele>
        <time>2013-10-28T03:27:22Z</time>
      </trkpt>
      <trkpt lat="28.35495" lon="83.64888">
        <ele>2632.23</ele>
        <time>2013-10-28T03:27:35Z</time>
      </trkpt>
      <trkpt lat="28.35492" lon="83.64886">
        <ele>2633.19</ele>
        <time>2013-10-28T03:27:45Z</time>
      </trkpt>
      <trkpt lat="28.35489" lon="83.64884">
        <ele>2632.71</ele>
        <time>2013-10-28T03:28:11Z</time>
      </trkpt>
      <trkpt lat="28.3549" lon="83.64885">
        <ele>2633.67</ele>
        <time>2013-10-28T03:28:38Z</time>
      </trkpt>
      <trkpt lat="28.35487" lon="83.64891">
        <ele>2635.59</ele>
        <time>2013-10-28T03:28:53Z</time>
      </trkpt>
      <trkpt lat="28.35477" lon="83.64892">
        <ele>2637.51</ele>
        <time>2013-10-28T03:29:07Z</time>
      </trkpt>
      <trkpt lat="28.35471" lon="83.64891">
        <ele>2638.96</ele>
        <time>2013-10-28T03:29:19Z</time>
      </trkpt>
      <trkpt lat="28.35467" lon="83.64891">
        <ele>2640.4</ele>
        <time>2013-10-28T03:29:31Z</time>
      </trkpt>
      <trkpt lat="28.35467" lon="83.6489">
        <ele>2640.88</ele>
        <time>2013-10-28T03:30:02Z</time>
      </trkpt>
      <trkpt lat="28.35464" lon="83.64892">
        <ele>2641.84</ele>
        <time>2013-10-28T03:30:25Z</time>
      </trkpt>
      <trkpt lat="28.35458" lon="83.64893">
        <ele>2643.76</ele>
        <time>2013-10-28T03:30:38Z</time>
      </trkpt>
      <trkpt lat="28.35453" lon="83.64896">
        <ele>2646.17</ele>
        <time>2013-10-28T03:30:55Z</time>
      </trkpt>
      <trkpt lat="28.35443" lon="83.64891">
        <ele>2647.13</ele>
        <time>2013-10-28T03:31:08Z</time>
      </trkpt>
      <trkpt lat="28.35438" lon="83.64896">
        <ele>2650.01</ele>
        <time>2013-10-28T03:31:24Z</time>
      </trkpt>
      <trkpt lat="28.35432" lon="83.64898">
        <ele>2651.93</ele>
        <time>2013-10-28T03:31:36Z</time>
      </trkpt>
      <trkpt lat="28.35422" lon="83.64902">
        <ele>2653.38</ele>
        <time>2013-10-28T03:31:49Z</time>
      </trkpt>
      <trkpt lat="28.35418" lon="83.64901">
        <ele>2653.86</ele>
        <time>2013-10-28T03:31:53Z</time>
      </trkpt>
      <trkpt lat="28.35413" lon="83.64905">
        <ele>2655.3</ele>
        <time>2013-10-28T03:32:05Z</time>
      </trkpt>
      <trkpt lat="28.35405" lon="83.6491">
        <ele>2657.22</ele>
        <time>2013-10-28T03:32:19Z</time>
      </trkpt>
      <trkpt lat="28.35401" lon="83.64913">
        <ele>2658.18</ele>
        <time>2013-10-28T03:32:33Z</time>
      </trkpt>
      <trkpt lat="28.35396" lon="83.64916">
        <ele>2659.62</ele>
        <time>2013-10-28T03:32:45Z</time>
      </trkpt>
      <trkpt lat="28.35395" lon="83.64915">
        <ele>2659.62</ele>
        <time>2013-10-28T03:33:05Z</time>
      </trkpt>
      <trkpt lat="28.35392" lon="83.64922">
        <ele>2658.66</ele>
        <time>2013-10-28T03:33:21Z</time>
      </trkpt>
      <trkpt lat="28.35387" lon="83.64931">
        <ele>2659.62</ele>
        <time>2013-10-28T03:33:33Z</time>
      </trkpt>
      <trkpt lat="28.35386" lon="83.64931">
        <ele>2659.62</ele>
        <time>2013-10-28T03:33:34Z</time>
      </trkpt>
      <trkpt lat="28.35378" lon="83.64938">
        <ele>2661.07</ele>
        <time>2013-10-28T03:33:47Z</time>
      </trkpt>
      <trkpt lat="28.35373" lon="83.64942">
        <ele>2662.99</ele>
        <time>2013-10-28T03:33:58Z</time>
      </trkpt>
      <trkpt lat="28.3537" lon="83.64944">
        <ele>2663.47</ele>
        <time>2013-10-28T03:34:13Z</time>
      </trkpt>
      <trkpt lat="28.35368" lon="83.6495">
        <ele>2664.43</ele>
        <time>2013-10-28T03:34:35Z</time>
      </trkpt>
      <trkpt lat="28.35364" lon="83.64958">
        <ele>2666.35</ele>
        <time>2013-10-28T03:34:51Z</time>
      </trkpt>
      <trkpt lat="28.35362" lon="83.64961">
        <ele>2668.28</ele>
        <time>2013-10-28T03:35:05Z</time>
      </trkpt>
      <trkpt lat="28.35355" lon="83.64962">
        <ele>2670.68</ele>
        <time>2013-10-28T03:35:23Z</time>
      </trkpt>
      <trkpt lat="28.3535" lon="83.64966">
        <ele>2672.6</ele>
        <time>2013-10-28T03:35:36Z</time>
      </trkpt>
      <trkpt lat="28.35343" lon="83.64967">
        <ele>2673.56</ele>
        <time>2013-10-28T03:35:48Z</time>
      </trkpt>
      <trkpt lat="28.35338" lon="83.64961">
        <ele>2675.49</ele>
        <time>2013-10-28T03:36:01Z</time>
      </trkpt>
      <trkpt lat="28.35332" lon="83.64964">
        <ele>2676.93</ele>
        <time>2013-10-28T03:36:13Z</time>
      </trkpt>
      <trkpt lat="28.35328" lon="83.64966">
        <ele>2678.37</ele>
        <time>2013-10-28T03:36:26Z</time>
      </trkpt>
      <trkpt lat="28.35325" lon="83.64966">
        <ele>2680.29</ele>
        <time>2013-10-28T03:36:40Z</time>
      </trkpt>
      <trkpt lat="28.35315" lon="83.64975">
        <ele>2681.73</ele>
        <time>2013-10-28T03:36:56Z</time>
      </trkpt>
      <trkpt lat="28.35307" lon="83.64977">
        <ele>2684.14</ele>
        <time>2013-10-28T03:37:15Z</time>
      </trkpt>
      <trkpt lat="28.35304" lon="83.64978">
        <ele>2685.58</ele>
        <time>2013-10-28T03:37:28Z</time>
      </trkpt>
      <trkpt lat="28.35299" lon="83.64979">
        <ele>2687.98</ele>
        <time>2013-10-28T03:37:42Z</time>
      </trkpt>
      <trkpt lat="28.35296" lon="83.64982">
        <ele>2689.43</ele>
        <time>2013-10-28T03:37:57Z</time>
      </trkpt>
      <trkpt lat="28.35294" lon="83.64986">
        <ele>2690.87</ele>
        <time>2013-10-28T03:38:11Z</time>
      </trkpt>
      <trkpt lat="28.35288" lon="83.64989">
        <ele>2693.27</ele>
        <time>2013-10-28T03:38:29Z</time>
      </trkpt>
      <trkpt lat="28.35281" lon="83.64991">
        <ele>2695.19</ele>
        <time>2013-10-28T03:38:44Z</time>
      </trkpt>
      <trkpt lat="28.35277" lon="83.64993">
        <ele>2696.64</ele>
        <time>2013-10-28T03:39:00Z</time>
      </trkpt>
      <trkpt lat="28.35272" lon="83.64994">
        <ele>2697.6</ele>
        <time>2013-10-28T03:39:14Z</time>
      </trkpt>
      <trkpt lat="28.35264" lon="83.64999">
        <ele>2699.52</ele>
        <time>2013-10-28T03:39:29Z</time>
      </trkpt>
      <trkpt lat="28.35261" lon="83.64999">
        <ele>2701.44</ele>
        <time>2013-10-28T03:39:44Z</time>
      </trkpt>
      <trkpt lat="28.35255" lon="83.64998">
        <ele>2704.81</ele>
        <time>2013-10-28T03:39:56Z</time>
      </trkpt>
      <trkpt lat="28.35249" lon="83.65003">
        <ele>2705.29</ele>
        <time>2013-10-28T03:40:12Z</time>
      </trkpt>
      <trkpt lat="28.35243" lon="83.65004">
        <ele>2707.21</ele>
        <time>2013-10-28T03:40:25Z</time>
      </trkpt>
      <trkpt lat="28.35236" lon="83.65006">
        <ele>2708.17</ele>
        <time>2013-10-28T03:40:38Z</time>
      </trkpt>
      <trkpt lat="28.3523" lon="83.6501">
        <ele>2710.09</ele>
        <time>2013-10-28T03:40:55Z</time>
      </trkpt>
      <trkpt lat="28.35227" lon="83.65009">
        <ele>2712.5</ele>
        <time>2013-10-28T03:41:10Z</time>
      </trkpt>
      <trkpt lat="28.35223" lon="83.6501">
        <ele>2714.42</ele>
        <time>2013-10-28T03:41:27Z</time>
      </trkpt>
      <trkpt lat="28.35215" lon="83.65015">
        <ele>2715.86</ele>
        <time>2013-10-28T03:41:46Z</time>
      </trkpt>
      <trkpt lat="28.35201" lon="83.65023">
        <ele>2716.82</ele>
        <time>2013-10-28T03:42:04Z</time>
      </trkpt>
      <trkpt lat="28.35195" lon="83.65032">
        <ele>2718.75</ele>
        <time>2013-10-28T03:42:25Z</time>
      </trkpt>
      <trkpt lat="28.35191" lon="83.65042">
        <ele>2719.71</ele>
        <time>2013-10-28T03:42:39Z</time>
      </trkpt>
      <trkpt lat="28.35187" lon="83.65042">
        <ele>2719.71</ele>
        <time>2013-10-28T03:42:43Z</time>
      </trkpt>
      <trkpt lat="28.35178" lon="83.6505">
        <ele>2719.71</ele>
        <time>2013-10-28T03:42:58Z</time>
      </trkpt>
      <trkpt lat="28.35172" lon="83.65058">
        <ele>2719.71</ele>
        <time>2013-10-28T03:43:11Z</time>
      </trkpt>
      <trkpt lat="28.35164" lon="83.65066">
        <ele>2721.63</ele>
        <time>2013-10-28T03:43:27Z</time>
      </trkpt>
      <trkpt lat="28.35154" lon="83.65071">
        <ele>2723.07</ele>
        <time>2013-10-28T03:43:42Z</time>
      </trkpt>
      <trkpt lat="28.35145" lon="83.6508">
        <ele>2723.07</ele>
        <time>2013-10-28T03:44:00Z</time>
      </trkpt>
      <trkpt lat="28.35134" lon="83.65088">
        <ele>2722.59</ele>
        <time>2013-10-28T03:44:16Z</time>
      </trkpt>
      <trkpt lat="28.35134" lon="83.65091">
        <ele>2723.55</ele>
        <time>2013-10-28T03:44:32Z</time>
      </trkpt>
      <trkpt lat="28.35133" lon="83.65091">
        <ele>2724.03</ele>
        <time>2013-10-28T03:44:52Z</time>
      </trkpt>
      <trkpt lat="28.35131" lon="83.65091">
        <ele>2724.03</ele>
        <time>2013-10-28T03:45:10Z</time>
      </trkpt>
      <trkpt lat="28.3513" lon="83.65092">
        <ele>2724.03</ele>
        <time>2013-10-28T03:45:31Z</time>
      </trkpt>
      <trkpt lat="28.3513" lon="83.65092">
        <ele>2724.51</ele>
        <time>2013-10-28T03:45:54Z</time>
      </trkpt>
      <trkpt lat="28.3513" lon="83.65091">
        <ele>2726.44</ele>
        <time>2013-10-28T03:45:57Z</time>
      </trkpt>
      <trkpt lat="28.3513" lon="83.6509">
        <ele>2724.99</ele>
        <time>2013-10-28T03:45:59Z</time>
      </trkpt>
      <trkpt lat="28.35129" lon="83.65091">
        <ele>2724.99</ele>
        <time>2013-10-28T03:46:28Z</time>
      </trkpt>
      <trkpt lat="28.35128" lon="83.65091">
        <ele>2724.99</ele>
        <time>2013-10-28T03:46:45Z</time>
      </trkpt>
      <trkpt lat="28.35129" lon="83.6509">
        <ele>2724.99</ele>
        <time>2013-10-28T03:47:09Z</time>
      </trkpt>
      <trkpt lat="28.35129" lon="83.6509">
        <ele>2725.48</ele>
        <time>2013-10-28T03:47:36Z</time>
      </trkpt>
      <trkpt lat="28.35129" lon="83.6509">
        <ele>2725.48</ele>
        <time>2013-10-28T03:48:02Z</time>
      </trkpt>
      <trkpt lat="28.35128" lon="83.65089">
        <ele>2725.96</ele>
        <time>2013-10-28T03:48:31Z</time>
      </trkpt>
      <trkpt lat="28.35128" lon="83.6509">
        <ele>2725.96</ele>
        <time>2013-10-28T03:49:05Z</time>
      </trkpt>
      <trkpt lat="28.35128" lon="83.65091">
        <ele>2726.44</ele>
        <time>2013-10-28T03:49:33Z</time>
      </trkpt>
      <trkpt lat="28.35129" lon="83.65091">
        <ele>2726.44</ele>
        <time>2013-10-28T03:50:05Z</time>
      </trkpt>
      <trkpt lat="28.35129" lon="83.65091">
        <ele>2726.92</ele>
        <time>2013-10-28T03:50:31Z</time>
      </trkpt>
      <trkpt lat="28.35129" lon="83.65091">
        <ele>2726.92</ele>
        <time>2013-10-28T03:51:00Z</time>
      </trkpt>
      <trkpt lat="28.3513" lon="83.6509">
        <ele>2726.92</ele>
        <time>2013-10-28T03:51:29Z</time>
      </trkpt>
      <trkpt lat="28.3513" lon="83.6509">
        <ele>2726.92</ele>
        <time>2013-10-28T03:51:48Z</time>
      </trkpt>
      <trkpt lat="28.35129" lon="83.6509">
        <ele>2726.44</ele>
        <time>2013-10-28T03:52:12Z</time>
      </trkpt>
      <trkpt lat="28.35127" lon="83.65098">
        <ele>2724.99</ele>
        <time>2013-10-28T03:52:23Z</time>
      </trkpt>
      <trkpt lat="28.35125" lon="83.65113">
        <ele>2726.44</ele>
        <time>2013-10-28T03:52:39Z</time>
      </trkpt>
      <trkpt lat="28.35125" lon="83.65126">
        <ele>2727.88</ele>
        <time>2013-10-28T03:52:54Z</time>
      </trkpt>
      <trkpt lat="28.35123" lon="83.65138">
        <ele>2728.84</ele>
        <time>2013-10-28T03:53:08Z</time>
      </trkpt>
      <trkpt lat="28.35123" lon="83.65148">
        <ele>2730.76</ele>
        <time>2013-10-28T03:53:22Z</time>
      </trkpt>
      <trkpt lat="28.35126" lon="83.65157">
        <ele>2731.24</ele>
        <time>2013-10-28T03:53:33Z</time>
      </trkpt>
      <trkpt lat="28.35125" lon="83.65165">
        <ele>2732.2</ele>
        <time>2013-10-28T03:53:46Z</time>
      </trkpt>
      <trkpt lat="28.35125" lon="83.65171">
        <ele>2733.17</ele>
        <time>2013-10-28T03:54:03Z</time>
      </trkpt>
      <trkpt lat="28.35118" lon="83.65181">
        <ele>2733.17</ele>
        <time>2013-10-28T03:54:16Z</time>
      </trkpt>
      <trkpt lat="28.35115" lon="83.6519">
        <ele>2733.65</ele>
        <time>2013-10-28T03:54:32Z</time>
      </trkpt>
      <trkpt lat="28.35113" lon="83.65192">
        <ele>2734.61</ele>
        <time>2013-10-28T03:54:48Z</time>
      </trkpt>
      <trkpt lat="28.35107" lon="83.65201">
        <ele>2736.05</ele>
        <time>2013-10-28T03:55:03Z</time>
      </trkpt>
      <trkpt lat="28.35105" lon="83.65207">
        <ele>2736.53</ele>
        <time>2013-10-28T03:55:21Z</time>
      </trkpt>
      <trkpt lat="28.35105" lon="83.65213">
        <ele>2735.57</ele>
        <time>2013-10-28T03:55:38Z</time>
      </trkpt>
      <trkpt lat="28.35102" lon="83.65216">
        <ele>2734.61</ele>
        <time>2013-10-28T03:55:54Z</time>
      </trkpt>
      <trkpt lat="28.35097" lon="83.65219">
        <ele>2735.57</ele>
        <time>2013-10-28T03:56:08Z</time>
      </trkpt>
      <trkpt lat="28.35095" lon="83.65223">
        <ele>2737.01</ele>
        <time>2013-10-28T03:56:21Z</time>
      </trkpt>
      <trkpt lat="28.3509" lon="83.65229">
        <ele>2737.01</ele>
        <time>2013-10-28T03:56:35Z</time>
      </trkpt>
      <trkpt lat="28.35086" lon="83.65236">
        <ele>2737.01</ele>
        <time>2013-10-28T03:56:51Z</time>
      </trkpt>
      <trkpt lat="28.35074" lon="83.65248">
        <ele>2737.01</ele>
        <time>2013-10-28T03:57:07Z</time>
      </trkpt>
      <trkpt lat="28.35069" lon="83.65253">
        <ele>2737.97</ele>
        <time>2013-10-28T03:57:24Z</time>
      </trkpt>
      <trkpt lat="28.35065" lon="83.65256">
        <ele>2738.45</ele>
        <time>2013-10-28T03:57:41Z</time>
      </trkpt>
      <trkpt lat="28.35061" lon="83.65259">
        <ele>2739.41</ele>
        <time>2013-10-28T03:57:55Z</time>
      </trkpt>
      <trkpt lat="28.35056" lon="83.65264">
        <ele>2740.38</ele>
        <time>2013-10-28T03:58:12Z</time>
      </trkpt>
      <trkpt lat="28.35052" lon="83.65266">
        <ele>2740.38</ele>
        <time>2013-10-28T03:58:25Z</time>
      </trkpt>
      <trkpt lat="28.35051" lon="83.65268">
        <ele>2741.82</ele>
        <time>2013-10-28T03:58:40Z</time>
      </trkpt>
      <trkpt lat="28.35045" lon="83.65278">
        <ele>2741.82</ele>
        <time>2013-10-28T03:58:53Z</time>
      </trkpt>
      <trkpt lat="28.3504" lon="83.65299">
        <ele>2743.26</ele>
        <time>2013-10-28T03:59:08Z</time>
      </trkpt>
      <trkpt lat="28.35031" lon="83.65317">
        <ele>2743.74</ele>
        <time>2013-10-28T03:59:25Z</time>
      </trkpt>
      <trkpt lat="28.35023" lon="83.65328">
        <ele>2745.18</ele>
        <time>2013-10-28T03:59:43Z</time>
      </trkpt>
      <trkpt lat="28.35019" lon="83.65332">
        <ele>2746.62</ele>
        <time>2013-10-28T04:00:00Z</time>
      </trkpt>
      <trkpt lat="28.35012" lon="83.65339">
        <ele>2748.55</ele>
        <time>2013-10-28T04:00:13Z</time>
      </trkpt>
      <trkpt lat="28.35004" lon="83.65343">
        <ele>2749.99</ele>
        <time>2013-10-28T04:00:27Z</time>
      </trkpt>
      <trkpt lat="28.35001" lon="83.65345">
        <ele>2751.43</ele>
        <time>2013-10-28T04:00:43Z</time>
      </trkpt>
      <trkpt lat="28.34996" lon="83.65349">
        <ele>2752.87</ele>
        <time>2013-10-28T04:01:01Z</time>
      </trkpt>
      <trkpt lat="28.3499" lon="83.65353">
        <ele>2752.87</ele>
        <time>2013-10-28T04:01:18Z</time>
      </trkpt>
      <trkpt lat="28.3498" lon="83.65354">
        <ele>2753.35</ele>
        <time>2013-10-28T04:01:34Z</time>
      </trkpt>
      <trkpt lat="28.3497" lon="83.65357">
        <ele>2755.28</ele>
        <time>2013-10-28T04:01:50Z</time>
      </trkpt>
      <trkpt lat="28.34964" lon="83.65363">
        <ele>2756.24</ele>
        <time>2013-10-28T04:02:07Z</time>
      </trkpt>
      <trkpt lat="28.34957" lon="83.65372">
        <ele>2757.68</ele>
        <time>2013-10-28T04:02:28Z</time>
      </trkpt>
      <trkpt lat="28.34957" lon="83.65381">
        <ele>2759.6</ele>
        <time>2013-10-28T04:02:46Z</time>
      </trkpt>
      <trkpt lat="28.34958" lon="83.65381">
        <ele>2761.52</ele>
        <time>2013-10-28T04:03:01Z</time>
      </trkpt>
      <trkpt lat="28.34959" lon="83.65383">
        <ele>2763.45</ele>
        <time>2013-10-28T04:03:18Z</time>
      </trkpt>
      <trkpt lat="28.34956" lon="83.65385">
        <ele>2764.41</ele>
        <time>2013-10-28T04:03:39Z</time>
      </trkpt>
      <trkpt lat="28.34955" lon="83.65387">
        <ele>2765.37</ele>
        <time>2013-10-28T04:04:03Z</time>
      </trkpt>
      <trkpt lat="28.34951" lon="83.65393">
        <ele>2766.81</ele>
        <time>2013-10-28T04:04:22Z</time>
      </trkpt>
      <trkpt lat="28.3495" lon="83.65395">
        <ele>2767.29</ele>
        <time>2013-10-28T04:04:45Z</time>
      </trkpt>
      <trkpt lat="28.34947" lon="83.65403">
        <ele>2768.73</ele>
        <time>2013-10-28T04:05:03Z</time>
      </trkpt>
      <trkpt lat="28.34945" lon="83.65404">
        <ele>2769.21</ele>
        <time>2013-10-28T04:05:23Z</time>
      </trkpt>
      <trkpt lat="28.34945" lon="83.6541">
        <ele>2772.1</ele>
        <time>2013-10-28T04:05:42Z</time>
      </trkpt>
      <trkpt lat="28.34937" lon="83.65411">
        <ele>2774.5</ele>
        <time>2013-10-28T04:06:02Z</time>
      </trkpt>
      <trkpt lat="28.34933" lon="83.65411">
        <ele>2776.91</ele>
        <time>2013-10-28T04:06:23Z</time>
      </trkpt>
      <trkpt lat="28.34929" lon="83.65416">
        <ele>2779.31</ele>
        <time>2013-10-28T04:06:46Z</time>
      </trkpt>
      <trkpt lat="28.34926" lon="83.65416">
        <ele>2779.31</ele>
        <time>2013-10-28T04:07:06Z</time>
      </trkpt>
      <trkpt lat="28.34923" lon="83.65414">
        <ele>2779.79</ele>
        <time>2013-10-28T04:07:33Z</time>
      </trkpt>
      <trkpt lat="28.34927" lon="83.65415">
        <ele>2779.79</ele>
        <time>2013-10-28T04:08:00Z</time>
      </trkpt>
      <trkpt lat="28.34928" lon="83.65414">
        <ele>2780.27</ele>
        <time>2013-10-28T04:08:36Z</time>
      </trkpt>
      <trkpt lat="28.34928" lon="83.65415">
        <ele>2780.27</ele>
        <time>2013-10-28T04:09:00Z</time>
      </trkpt>
      <trkpt lat="28.34928" lon="83.6542">
        <ele>2783.15</ele>
        <time>2013-10-28T04:09:20Z</time>
      </trkpt>
      <trkpt lat="28.34929" lon="83.65427">
        <ele>2785.08</ele>
        <time>2013-10-28T04:09:39Z</time>
      </trkpt>
      <trkpt lat="28.34922" lon="83.65437">
        <ele>2787</ele>
        <time>2013-10-28T04:09:58Z</time>
      </trkpt>
      <trkpt lat="28.34922" lon="83.65438">
        <ele>2788.44</ele>
        <time>2013-10-28T04:10:21Z</time>
      </trkpt>
      <trkpt lat="28.34921" lon="83.65444">
        <ele>2790.84</ele>
        <time>2013-10-28T04:10:38Z</time>
      </trkpt>
      <trkpt lat="28.34921" lon="83.65444">
        <ele>2790.84</ele>
        <time>2013-10-28T04:10:39Z</time>
      </trkpt>
      <trkpt lat="28.34918" lon="83.65448">
        <ele>2792.77</ele>
        <time>2013-10-28T04:10:57Z</time>
      </trkpt>
      <trkpt lat="28.34912" lon="83.65453">
        <ele>2795.17</ele>
        <time>2013-10-28T04:11:14Z</time>
      </trkpt>
      <trkpt lat="28.34912" lon="83.65456">
        <ele>2797.09</ele>
        <time>2013-10-28T04:11:33Z</time>
      </trkpt>
      <trkpt lat="28.34908" lon="83.6546">
        <ele>2799.02</ele>
        <time>2013-10-28T04:11:47Z</time>
      </trkpt>
      <trkpt lat="28.34904" lon="83.65467">
        <ele>2801.42</ele>
        <time>2013-10-28T04:12:02Z</time>
      </trkpt>
      <trkpt lat="28.34904" lon="83.65473">
        <ele>2803.34</ele>
        <time>2013-10-28T04:12:18Z</time>
      </trkpt>
      <trkpt lat="28.34904" lon="83.65476">
        <ele>2803.82</ele>
        <time>2013-10-28T04:12:30Z</time>
      </trkpt>
      <trkpt lat="28.34902" lon="83.65477">
        <ele>2803.82</ele>
        <time>2013-10-28T04:12:43Z</time>
      </trkpt>
      <trkpt lat="28.34902" lon="83.65479">
        <ele>2803.82</ele>
        <time>2013-10-28T04:13:10Z</time>
      </trkpt>
      <trkpt lat="28.34902" lon="83.65479">
        <ele>2804.3</ele>
        <time>2013-10-28T04:13:15Z</time>
      </trkpt>
      <trkpt lat="28.34902" lon="83.6548">
        <ele>2803.82</ele>
        <time>2013-10-28T04:13:50Z</time>
      </trkpt>
      <trkpt lat="28.34901" lon="83.65479">
        <ele>2803.34</ele>
        <time>2013-10-28T04:14:28Z</time>
      </trkpt>
      <trkpt lat="28.34901" lon="83.65479">
        <ele>2806.23</ele>
        <time>2013-10-28T04:14:35Z</time>
      </trkpt>
      <trkpt lat="28.34901" lon="83.65478">
        <ele>2804.78</ele>
        <time>2013-10-28T04:14:36Z</time>
      </trkpt>
      <trkpt lat="28.34901" lon="83.65479">
        <ele>2803.82</ele>
        <time>2013-10-28T04:14:38Z</time>
      </trkpt>
      <trkpt lat="28.34899" lon="83.65488">
        <ele>2805.75</ele>
        <time>2013-10-28T04:14:53Z</time>
      </trkpt>
      <trkpt lat="28.34897" lon="83.65491">
        <ele>2808.63</ele>
        <time>2013-10-28T04:15:11Z</time>
      </trkpt>
      <trkpt lat="28.34897" lon="83.65499">
        <ele>2811.03</ele>
        <time>2013-10-28T04:15:27Z</time>
      </trkpt>
      <trkpt lat="28.34896" lon="83.65505">
        <ele>2814.88</ele>
        <time>2013-10-28T04:15:44Z</time>
      </trkpt>
      <trkpt lat="28.34896" lon="83.65505">
        <ele>2815.36</ele>
        <time>2013-10-28T04:16:02Z</time>
      </trkpt>
      <trkpt lat="28.34894" lon="83.65504">
        <ele>2817.76</ele>
        <time>2013-10-28T04:16:23Z</time>
      </trkpt>
      <trkpt lat="28.34889" lon="83.65503">
        <ele>2819.2</ele>
        <time>2013-10-28T04:16:39Z</time>
      </trkpt>
      <trkpt lat="28.34886" lon="83.65504">
        <ele>2821.13</ele>
        <time>2013-10-28T04:16:59Z</time>
      </trkpt>
      <trkpt lat="28.3488" lon="83.65513">
        <ele>2824.01</ele>
        <time>2013-10-28T04:17:12Z</time>
      </trkpt>
      <trkpt lat="28.34875" lon="83.65518">
        <ele>2825.93</ele>
        <time>2013-10-28T04:17:28Z</time>
      </trkpt>
      <trkpt lat="28.34873" lon="83.65518">
        <ele>2826.89</ele>
        <time>2013-10-28T04:17:46Z</time>
      </trkpt>
      <trkpt lat="28.34872" lon="83.6552">
        <ele>2828.82</ele>
        <time>2013-10-28T04:18:05Z</time>
      </trkpt>
      <trkpt lat="28.3487" lon="83.65521">
        <ele>2829.3</ele>
        <time>2013-10-28T04:18:21Z</time>
      </trkpt>
      <trkpt lat="28.34867" lon="83.65523">
        <ele>2831.22</ele>
        <time>2013-10-28T04:18:36Z</time>
      </trkpt>
      <trkpt lat="28.34867" lon="83.65523">
        <ele>2831.7</ele>
        <time>2013-10-28T04:18:43Z</time>
      </trkpt>
      <trkpt lat="28.34857" lon="83.65531">
        <ele>2831.22</ele>
        <time>2013-10-28T04:19:01Z</time>
      </trkpt>
      <trkpt lat="28.34854" lon="83.65535">
        <ele>2833.62</ele>
        <time>2013-10-28T04:19:20Z</time>
      </trkpt>
      <trkpt lat="28.34849" lon="83.65535">
        <ele>2835.06</ele>
        <time>2013-10-28T04:19:36Z</time>
      </trkpt>
      <trkpt lat="28.34845" lon="83.65535">
        <ele>2837.47</ele>
        <time>2013-10-28T04:19:51Z</time>
      </trkpt>
      <trkpt lat="28.34843" lon="83.65535">
        <ele>2838.43</ele>
        <time>2013-10-28T04:20:07Z</time>
      </trkpt>
      <trkpt lat="28.34841" lon="83.65537">
        <ele>2840.35</ele>
        <time>2013-10-28T04:20:20Z</time>
      </trkpt>
      <trkpt lat="28.34841" lon="83.65544">
        <ele>2842.28</ele>
        <time>2013-10-28T04:20:35Z</time>
      </trkpt>
      <trkpt lat="28.34835" lon="83.65548">
        <ele>2845.16</ele>
        <time>2013-10-28T04:20:49Z</time>
      </trkpt>
      <trkpt lat="28.34832" lon="83.65548">
        <ele>2846.12</ele>
        <time>2013-10-28T04:21:11Z</time>
      </trkpt>
      <trkpt lat="28.34832" lon="83.65547">
        <ele>2846.12</ele>
        <time>2013-10-28T04:21:34Z</time>
      </trkpt>
      <trkpt lat="28.34831" lon="83.65548">
        <ele>2846.6</ele>
        <time>2013-10-28T04:22:08Z</time>
      </trkpt>
      <trkpt lat="28.3483" lon="83.6555">
        <ele>2849.48</ele>
        <time>2013-10-28T04:22:29Z</time>
      </trkpt>
      <trkpt lat="28.34826" lon="83.65554">
        <ele>2851.41</ele>
        <time>2013-10-28T04:22:44Z</time>
      </trkpt>
      <trkpt lat="28.34825" lon="83.65557">
        <ele>2854.29</ele>
        <time>2013-10-28T04:23:04Z</time>
      </trkpt>
      <trkpt lat="28.34823" lon="83.65558">
        <ele>2854.77</ele>
        <time>2013-10-28T04:23:30Z</time>
      </trkpt>
      <trkpt lat="28.34823" lon="83.65558">
        <ele>2856.69</ele>
        <time>2013-10-28T04:23:46Z</time>
      </trkpt>
      <trkpt lat="28.3482" lon="83.65561">
        <ele>2858.14</ele>
        <time>2013-10-28T04:24:03Z</time>
      </trkpt>
      <trkpt lat="28.34815" lon="83.65564">
        <ele>2860.06</ele>
        <time>2013-10-28T04:24:19Z</time>
      </trkpt>
      <trkpt lat="28.34804" lon="83.65575">
        <ele>2861.02</ele>
        <time>2013-10-28T04:24:41Z</time>
      </trkpt>
      <trkpt lat="28.34802" lon="83.65575">
        <ele>2862.46</ele>
        <time>2013-10-28T04:25:04Z</time>
      </trkpt>
      <trkpt lat="28.348" lon="83.65575">
        <ele>2862.46</ele>
        <time>2013-10-28T04:25:28Z</time>
      </trkpt>
      <trkpt lat="28.34793" lon="83.65578">
        <ele>2863.9</ele>
        <time>2013-10-28T04:25:50Z</time>
      </trkpt>
      <trkpt lat="28.34792" lon="83.65581">
        <ele>2865.83</ele>
        <time>2013-10-28T04:26:04Z</time>
      </trkpt>
      <trkpt lat="28.34787" lon="83.65582">
        <ele>2867.27</ele>
        <time>2013-10-28T04:26:23Z</time>
      </trkpt>
      <trkpt lat="28.34788" lon="83.65586">
        <ele>2869.67</ele>
        <time>2013-10-28T04:26:37Z</time>
      </trkpt>
      <trkpt lat="28.34785" lon="83.65589">
        <ele>2872.56</ele>
        <time>2013-10-28T04:26:54Z</time>
      </trkpt>
      <trkpt lat="28.34779" lon="83.65595">
        <ele>2874.96</ele>
        <time>2013-10-28T04:27:12Z</time>
      </trkpt>
      <trkpt lat="28.34777" lon="83.65599">
        <ele>2877.84</ele>
        <time>2013-10-28T04:27:26Z</time>
      </trkpt>
      <trkpt lat="28.34779" lon="83.65601">
        <ele>2877.84</ele>
        <time>2013-10-28T04:27:46Z</time>
      </trkpt>
      <trkpt lat="28.3478" lon="83.65603">
        <ele>2877.84</ele>
        <time>2013-10-28T04:28:08Z</time>
      </trkpt>
      <trkpt lat="28.34777" lon="83.65603">
        <ele>2878.32</ele>
        <time>2013-10-28T04:28:27Z</time>
      </trkpt>
      <trkpt lat="28.34774" lon="83.65602">
        <ele>2877.84</ele>
        <time>2013-10-28T04:28:48Z</time>
      </trkpt>
      <trkpt lat="28.34775" lon="83.65602">
        <ele>2878.32</ele>
        <time>2013-10-28T04:29:12Z</time>
      </trkpt>
      <trkpt lat="28.34775" lon="83.65601">
        <ele>2878.32</ele>
        <time>2013-10-28T04:29:36Z</time>
      </trkpt>
      <trkpt lat="28.34775" lon="83.65602">
        <ele>2879.77</ele>
        <time>2013-10-28T04:29:51Z</time>
      </trkpt>
      <trkpt lat="28.34775" lon="83.65605">
        <ele>2880.73</ele>
        <time>2013-10-28T04:30:10Z</time>
      </trkpt>
      <trkpt lat="28.34777" lon="83.6561">
        <ele>2883.61</ele>
        <time>2013-10-28T04:30:23Z</time>
      </trkpt>
      <trkpt lat="28.34786" lon="83.65612">
        <ele>2884.57</ele>
        <time>2013-10-28T04:30:34Z</time>
      </trkpt>
      <trkpt lat="28.34785" lon="83.65622">
        <ele>2886.98</ele>
        <time>2013-10-28T04:30:49Z</time>
      </trkpt>
      <trkpt lat="28.34786" lon="83.65627">
        <ele>2889.38</ele>
        <time>2013-10-28T04:31:03Z</time>
      </trkpt>
      <trkpt lat="28.34789" lon="83.65632">
        <ele>2891.78</ele>
        <time>2013-10-28T04:31:20Z</time>
      </trkpt>
      <trkpt lat="28.34793" lon="83.65638">
        <ele>2893.71</ele>
        <time>2013-10-28T04:31:33Z</time>
      </trkpt>
      <trkpt lat="28.34794" lon="83.65645">
        <ele>2895.63</ele>
        <time>2013-10-28T04:31:48Z</time>
      </trkpt>
      <trkpt lat="28.34793" lon="83.65653">
        <ele>2898.03</ele>
        <time>2013-10-28T04:32:04Z</time>
      </trkpt>
      <trkpt lat="28.34797" lon="83.65659">
        <ele>2899.47</ele>
        <time>2013-10-28T04:32:24Z</time>
      </trkpt>
      <trkpt lat="28.34796" lon="83.65662">
        <ele>2902.36</ele>
        <time>2013-10-28T04:32:41Z</time>
      </trkpt>
      <trkpt lat="28.34798" lon="83.65667">
        <ele>2904.28</ele>
        <time>2013-10-28T04:32:56Z</time>
      </trkpt>
      <trkpt lat="28.348" lon="83.65674">
        <ele>2906.2</ele>
        <time>2013-10-28T04:33:11Z</time>
      </trkpt>
      <trkpt lat="28.34799" lon="83.65682">
        <ele>2909.09</ele>
        <time>2013-10-28T04:33:29Z</time>
      </trkpt>
      <trkpt lat="28.34797" lon="83.6569">
        <ele>2911.49</ele>
        <time>2013-10-28T04:33:46Z</time>
      </trkpt>
      <trkpt lat="28.34797" lon="83.65693">
        <ele>2913.41</ele>
        <time>2013-10-28T04:34:04Z</time>
      </trkpt>
      <trkpt lat="28.34795" lon="83.657">
        <ele>2915.82</ele>
        <time>2013-10-28T04:34:25Z</time>
      </trkpt>
      <trkpt lat="28.34794" lon="83.65703">
        <ele>2914.85</ele>
        <time>2013-10-28T04:34:47Z</time>
      </trkpt>
      <trkpt lat="28.34793" lon="83.65704">
        <ele>2914.85</ele>
        <time>2013-10-28T04:35:18Z</time>
      </trkpt>
      <trkpt lat="28.3479" lon="83.65706">
        <ele>2915.82</ele>
        <time>2013-10-28T04:35:46Z</time>
      </trkpt>
      <trkpt lat="28.34785" lon="83.65718">
        <ele>2916.78</ele>
        <time>2013-10-28T04:36:00Z</time>
      </trkpt>
      <trkpt lat="28.34782" lon="83.65725">
        <ele>2917.74</ele>
        <time>2013-10-28T04:36:15Z</time>
      </trkpt>
      <trkpt lat="28.3478" lon="83.65735">
        <ele>2920.14</ele>
        <time>2013-10-28T04:36:31Z</time>
      </trkpt>
      <trkpt lat="28.34778" lon="83.65744">
        <ele>2921.58</ele>
        <time>2013-10-28T04:36:46Z</time>
      </trkpt>
      <trkpt lat="28.34778" lon="83.65748">
        <ele>2923.99</ele>
        <time>2013-10-28T04:37:00Z</time>
      </trkpt>
      <trkpt lat="28.34779" lon="83.65749">
        <ele>2924.47</ele>
        <time>2013-10-28T04:37:16Z</time>
      </trkpt>
      <trkpt lat="28.34778" lon="83.65752">
        <ele>2925.91</ele>
        <time>2013-10-28T04:37:33Z</time>
      </trkpt>
      <trkpt lat="28.34778" lon="83.65755">
        <ele>2925.91</ele>
        <time>2013-10-28T04:37:57Z</time>
      </trkpt>
      <trkpt lat="28.34778" lon="83.65756">
        <ele>2925.91</ele>
        <time>2013-10-28T04:38:14Z</time>
      </trkpt>
      <trkpt lat="28.34778" lon="83.65758">
        <ele>2926.87</ele>
        <time>2013-10-28T04:38:28Z</time>
      </trkpt>
      <trkpt lat="28.34774" lon="83.65761">
        <ele>2929.27</ele>
        <time>2013-10-28T04:38:41Z</time>
      </trkpt>
      <trkpt lat="28.34773" lon="83.65765">
        <ele>2932.64</ele>
        <time>2013-10-28T04:38:59Z</time>
      </trkpt>
      <trkpt lat="28.34769" lon="83.65769">
        <ele>2935.04</ele>
        <time>2013-10-28T04:39:18Z</time>
      </trkpt>
      <trkpt lat="28.34766" lon="83.65771">
        <ele>2936.48</ele>
        <time>2013-10-28T04:39:39Z</time>
      </trkpt>
      <trkpt lat="28.34769" lon="83.65778">
        <ele>2938.41</ele>
        <time>2013-10-28T04:40:05Z</time>
      </trkpt>
      <trkpt lat="28.34769" lon="83.65783">
        <ele>2940.33</ele>
        <time>2013-10-28T04:40:21Z</time>
      </trkpt>
      <trkpt lat="28.34769" lon="83.65785">
        <ele>2942.73</ele>
        <time>2013-10-28T04:40:39Z</time>
      </trkpt>
      <trkpt lat="28.34766" lon="83.65788">
        <ele>2944.66</ele>
        <time>2013-10-28T04:40:55Z</time>
      </trkpt>
      <trkpt lat="28.34767" lon="83.65789">
        <ele>2944.17</ele>
        <time>2013-10-28T04:41:14Z</time>
      </trkpt>
      <trkpt lat="28.34769" lon="83.65791">
        <ele>2946.58</ele>
        <time>2013-10-28T04:41:32Z</time>
      </trkpt>
      <trkpt lat="28.34772" lon="83.65794">
        <ele>2948.02</ele>
        <time>2013-10-28T04:41:53Z</time>
      </trkpt>
      <trkpt lat="28.34771" lon="83.65793">
        <ele>2948.02</ele>
        <time>2013-10-28T04:42:17Z</time>
      </trkpt>
      <trkpt lat="28.34769" lon="83.658">
        <ele>2949.94</ele>
        <time>2013-10-28T04:42:40Z</time>
      </trkpt>
      <trkpt lat="28.34769" lon="83.65805">
        <ele>2950.42</ele>
        <time>2013-10-28T04:42:59Z</time>
      </trkpt>
      <trkpt lat="28.34768" lon="83.65805">
        <ele>2951.38</ele>
        <time>2013-10-28T04:43:20Z</time>
      </trkpt>
      <trkpt lat="28.34763" lon="83.65809">
        <ele>2953.79</ele>
        <time>2013-10-28T04:43:42Z</time>
      </trkpt>
      <trkpt lat="28.34759" lon="83.65814">
        <ele>2955.71</ele>
        <time>2013-10-28T04:43:58Z</time>
      </trkpt>
      <trkpt lat="28.34758" lon="83.65815">
        <ele>2956.67</ele>
        <time>2013-10-28T04:44:17Z</time>
      </trkpt>
      <trkpt lat="28.34757" lon="83.65816">
        <ele>2957.15</ele>
        <time>2013-10-28T04:44:51Z</time>
      </trkpt>
      <trkpt lat="28.34757" lon="83.65817">
        <ele>2958.11</ele>
        <time>2013-10-28T04:45:20Z</time>
      </trkpt>
      <trkpt lat="28.34751" lon="83.65824">
        <ele>2959.56</ele>
        <time>2013-10-28T04:45:38Z</time>
      </trkpt>
      <trkpt lat="28.34751" lon="83.65828">
        <ele>2960.04</ele>
        <time>2013-10-28T04:45:52Z</time>
      </trkpt>
      <trkpt lat="28.34751" lon="83.65829">
        <ele>2961.48</ele>
        <time>2013-10-28T04:46:09Z</time>
      </trkpt>
      <trkpt lat="28.34752" lon="83.65831">
        <ele>2963.88</ele>
        <time>2013-10-28T04:46:26Z</time>
      </trkpt>
      <trkpt lat="28.34749" lon="83.6584">
        <ele>2965.8</ele>
        <time>2013-10-28T04:46:42Z</time>
      </trkpt>
      <trkpt lat="28.34747" lon="83.65838">
        <ele>2968.21</ele>
        <time>2013-10-28T04:47:04Z</time>
      </trkpt>
      <trkpt lat="28.34736" lon="83.65839">
        <ele>2970.61</ele>
        <time>2013-10-28T04:47:24Z</time>
      </trkpt>
      <trkpt lat="28.34727" lon="83.65842">
        <ele>2972.05</ele>
        <time>2013-10-28T04:47:39Z</time>
      </trkpt>
      <trkpt lat="28.34728" lon="83.65843">
        <ele>2973.5</ele>
        <time>2013-10-28T04:47:56Z</time>
      </trkpt>
      <trkpt lat="28.34726" lon="83.65842">
        <ele>2974.94</ele>
        <time>2013-10-28T04:48:13Z</time>
      </trkpt>
      <trkpt lat="28.3473" lon="83.65843">
        <ele>2976.38</ele>
        <time>2013-10-28T04:48:29Z</time>
      </trkpt>
      <trkpt lat="28.34727" lon="83.65846">
        <ele>2978.3</ele>
        <time>2013-10-28T04:48:41Z</time>
      </trkpt>
      <trkpt lat="28.34722" lon="83.65853">
        <ele>2980.22</ele>
        <time>2013-10-28T04:49:00Z</time>
      </trkpt>
      <trkpt lat="28.34716" lon="83.65851">
        <ele>2982.15</ele>
        <time>2013-10-28T04:49:21Z</time>
      </trkpt>
      <trkpt lat="28.34715" lon="83.65853">
        <ele>2982.63</ele>
        <time>2013-10-28T04:49:39Z</time>
      </trkpt>
      <trkpt lat="28.34714" lon="83.65856">
        <ele>2983.59</ele>
        <time>2013-10-28T04:49:51Z</time>
      </trkpt>
      <trkpt lat="28.34713" lon="83.6586">
        <ele>2985.03</ele>
        <time>2013-10-28T04:50:04Z</time>
      </trkpt>
      <trkpt lat="28.34714" lon="83.6586">
        <ele>2985.03</ele>
        <time>2013-10-28T04:50:06Z</time>
      </trkpt>
      <trkpt lat="28.34713" lon="83.65871">
        <ele>2985.03</ele>
        <time>2013-10-28T04:50:19Z</time>
      </trkpt>
      <trkpt lat="28.34712" lon="83.65879">
        <ele>2985.51</ele>
        <time>2013-10-28T04:50:35Z</time>
      </trkpt>
      <trkpt lat="28.3471" lon="83.6588">
        <ele>2985.51</ele>
        <time>2013-10-28T04:50:40Z</time>
      </trkpt>
      <trkpt lat="28.34709" lon="83.65882">
        <ele>2985.51</ele>
        <time>2013-10-28T04:50:42Z</time>
      </trkpt>
      <trkpt lat="28.34704" lon="83.65885">
        <ele>2986.95</ele>
        <time>2013-10-28T04:50:54Z</time>
      </trkpt>
      <trkpt lat="28.34701" lon="83.65888">
        <ele>2988.4</ele>
        <time>2013-10-28T04:51:09Z</time>
      </trkpt>
      <trkpt lat="28.34699" lon="83.65891">
        <ele>2988.4</ele>
        <time>2013-10-28T04:51:23Z</time>
      </trkpt>
      <trkpt lat="28.34698" lon="83.65892">
        <ele>2988.4</ele>
        <time>2013-10-28T04:51:41Z</time>
      </trkpt>
      <trkpt lat="28.34698" lon="83.65893">
        <ele>2988.4</ele>
        <time>2013-10-28T04:52:00Z</time>
      </trkpt>
      <trkpt lat="28.347" lon="83.65887">
        <ele>2987.91</ele>
        <time>2013-10-28T04:52:12Z</time>
      </trkpt>
      <trkpt lat="28.347" lon="83.65886">
        <ele>2987.43</ele>
        <time>2013-10-28T04:52:28Z</time>
      </trkpt>
      <trkpt lat="28.34701" lon="83.65887">
        <ele>2987.91</ele>
        <time>2013-10-28T04:52:55Z</time>
      </trkpt>
      <trkpt lat="28.34701" lon="83.65887">
        <ele>2987.91</ele>
        <time>2013-10-28T04:53:28Z</time>
      </trkpt>
      <trkpt lat="28.347" lon="83.65887">
        <ele>2987.91</ele>
        <time>2013-10-28T04:53:47Z</time>
      </trkpt>
      <trkpt lat="28.347" lon="83.65894">
        <ele>2988.4</ele>
        <time>2013-10-28T04:53:59Z</time>
      </trkpt>
      <trkpt lat="28.34702" lon="83.65896">
        <ele>2988.88</ele>
        <time>2013-10-28T04:54:09Z</time>
      </trkpt>
      <trkpt lat="28.34707" lon="83.65899">
        <ele>2990.32</ele>
        <time>2013-10-28T04:54:19Z</time>
      </trkpt>
      <trkpt lat="28.34709" lon="83.65899">
        <ele>2991.28</ele>
        <time>2013-10-28T04:54:30Z</time>
      </trkpt>
      <trkpt lat="28.34709" lon="83.65899">
        <ele>2991.28</ele>
        <time>2013-10-28T04:54:45Z</time>
      </trkpt>
      <trkpt lat="28.34709" lon="83.65898">
        <ele>2991.76</ele>
        <time>2013-10-28T04:55:09Z</time>
      </trkpt>
      <trkpt lat="28.3471" lon="83.65898">
        <ele>2991.28</ele>
        <time>2013-10-28T04:55:29Z</time>
      </trkpt>
      <trkpt lat="28.3471" lon="83.65898">
        <ele>2991.28</ele>
        <time>2013-10-28T04:55:51Z</time>
      </trkpt>
      <trkpt lat="28.3471" lon="83.65898">
        <ele>2991.28</ele>
        <time>2013-10-28T04:56:12Z</time>
      </trkpt>
      <trkpt lat="28.34711" lon="83.65899">
        <ele>2991.76</ele>
        <time>2013-10-28T04:56:32Z</time>
      </trkpt>
      <trkpt lat="28.34711" lon="83.659">
        <ele>2992.24</ele>
        <time>2013-10-28T04:56:55Z</time>
      </trkpt>
      <trkpt lat="28.34711" lon="83.65901">
        <ele>2992.24</ele>
        <time>2013-10-28T04:57:27Z</time>
      </trkpt>
      <trkpt lat="28.34712" lon="83.659">
        <ele>2992.24</ele>
        <time>2013-10-28T04:57:57Z</time>
      </trkpt>
      <trkpt lat="28.34712" lon="83.659">
        <ele>2992.24</ele>
        <time>2013-10-28T04:58:17Z</time>
      </trkpt>
      <trkpt lat="28.34712" lon="83.659">
        <ele>2992.72</ele>
        <time>2013-10-28T04:58:44Z</time>
      </trkpt>
      <trkpt lat="28.34711" lon="83.659">
        <ele>2992.72</ele>
        <time>2013-10-28T04:59:09Z</time>
      </trkpt>
      <trkpt lat="28.34711" lon="83.659">
        <ele>2993.2</ele>
        <time>2013-10-28T04:59:32Z</time>
      </trkpt>
      <trkpt lat="28.34712" lon="83.659">
        <ele>2993.2</ele>
        <time>2013-10-28T04:59:59Z</time>
      </trkpt>
      <trkpt lat="28.34711" lon="83.659">
        <ele>2993.2</ele>
        <time>2013-10-28T05:00:23Z</time>
      </trkpt>
      <trkpt lat="28.34711" lon="83.65901">
        <ele>2992.72</ele>
        <time>2013-10-28T05:00:45Z</time>
      </trkpt>
      <trkpt lat="28.3471" lon="83.65901">
        <ele>2993.68</ele>
        <time>2013-10-28T05:00:48Z</time>
      </trkpt>
      <trkpt lat="28.3471" lon="83.65901">
        <ele>2992.24</ele>
        <time>2013-10-28T05:00:50Z</time>
      </trkpt>
      <trkpt lat="28.34711" lon="83.65901">
        <ele>2993.2</ele>
        <time>2013-10-28T05:00:52Z</time>
      </trkpt>
      <trkpt lat="28.34711" lon="83.659">
        <ele>2993.2</ele>
        <time>2013-10-28T05:01:09Z</time>
      </trkpt>
      <trkpt lat="28.34711" lon="83.65901">
        <ele>2993.68</ele>
        <time>2013-10-28T05:01:42Z</time>
      </trkpt>
      <trkpt lat="28.34711" lon="83.65901">
        <ele>2993.68</ele>
        <time>2013-10-28T05:02:06Z</time>
      </trkpt>
      <trkpt lat="28.34711" lon="83.65901">
        <ele>2994.16</ele>
        <time>2013-10-28T05:02:36Z</time>
      </trkpt>
      <trkpt lat="28.34711" lon="83.65901">
        <ele>2994.16</ele>
        <time>2013-10-28T05:02:56Z</time>
      </trkpt>
      <trkpt lat="28.34711" lon="83.65901">
        <ele>2993.68</ele>
        <time>2013-10-28T05:03:25Z</time>
      </trkpt>
      <trkpt lat="28.3471" lon="83.65901">
        <ele>2996.09</ele>
        <time>2013-10-28T05:03:51Z</time>
      </trkpt>
      <trkpt lat="28.3471" lon="83.659">
        <ele>2994.16</ele>
        <time>2013-10-28T05:04:20Z</time>
      </trkpt>
      <trkpt lat="28.34711" lon="83.659">
        <ele>2994.16</ele>
        <time>2013-10-28T05:04:47Z</time>
      </trkpt>
      <trkpt lat="28.3471" lon="83.659">
        <ele>2994.16</ele>
        <time>2013-10-28T05:05:13Z</time>
      </trkpt>
      <trkpt lat="28.3471" lon="83.65901">
        <ele>2994.16</ele>
        <time>2013-10-28T05:05:34Z</time>
      </trkpt>
      <trkpt lat="28.3471" lon="83.65901">
        <ele>2994.64</ele>
        <time>2013-10-28T05:06:01Z</time>
      </trkpt>
      <trkpt lat="28.3471" lon="83.659">
        <ele>2994.64</ele>
        <time>2013-10-28T05:06:33Z</time>
      </trkpt>
      <trkpt lat="28.3471" lon="83.65901">
        <ele>2994.64</ele>
        <time>2013-10-28T05:06:59Z</time>
      </trkpt>
      <trkpt lat="28.34711" lon="83.65901">
        <ele>2994.64</ele>
        <time>2013-10-28T05:07:16Z</time>
      </trkpt>
      <trkpt lat="28.34711" lon="83.65901">
        <ele>2994.16</ele>
        <time>2013-10-28T05:07:45Z</time>
      </trkpt>
      <trkpt lat="28.34711" lon="83.65901">
        <ele>2994.16</ele>
        <time>2013-10-28T05:08:11Z</time>
      </trkpt>
      <trkpt lat="28.3471" lon="83.65901">
        <ele>2994.64</ele>
        <time>2013-10-28T05:08:41Z</time>
      </trkpt>
      <trkpt lat="28.3471" lon="83.65901">
        <ele>2994.64</ele>
        <time>2013-10-28T05:09:11Z</time>
      </trkpt>
      <trkpt lat="28.3471" lon="83.65901">
        <ele>2994.64</ele>
        <time>2013-10-28T05:09:47Z</time>
      </trkpt>
      <trkpt lat="28.34709" lon="83.65901">
        <ele>2994.64</ele>
        <time>2013-10-28T05:10:10Z</time>
      </trkpt>
      <trkpt lat="28.34709" lon="83.65901">
        <ele>2994.64</ele>
        <time>2013-10-28T05:10:22Z</time>
      </trkpt>
      <trkpt lat="28.34709" lon="83.65899">
        <ele>2994.64</ele>
        <time>2013-10-28T05:10:43Z</time>
      </trkpt>
      <trkpt lat="28.34709" lon="83.65899">
        <ele>2995.12</ele>
        <time>2013-10-28T05:11:01Z</time>
      </trkpt>
      <trkpt lat="28.34709" lon="83.65899">
        <ele>2995.12</ele>
        <time>2013-10-28T05:11:20Z</time>
      </trkpt>
      <trkpt lat="28.3471" lon="83.65903">
        <ele>2995.6</ele>
        <time>2013-10-28T05:11:30Z</time>
      </trkpt>
      <trkpt lat="28.34708" lon="83.65907">
        <ele>2995.12</ele>
        <time>2013-10-28T05:11:33Z</time>
      </trkpt>
      <trkpt lat="28.34709" lon="83.65909">
        <ele>2995.6</ele>
        <time>2013-10-28T05:11:35Z</time>
      </trkpt>
      <trkpt lat="28.34712" lon="83.6592">
        <ele>2997.05</ele>
        <time>2013-10-28T05:11:48Z</time>
      </trkpt>
      <trkpt lat="28.34716" lon="83.65929">
        <ele>2998.97</ele>
        <time>2013-10-28T05:12:01Z</time>
      </trkpt>
      <trkpt lat="28.34718" lon="83.65931">
        <ele>2999.93</ele>
        <time>2013-10-28T05:12:15Z</time>
      </trkpt>
      <trkpt lat="28.34718" lon="83.65931">
        <ele>2999.93</ele>
        <time>2013-10-28T05:12:37Z</time>
      </trkpt>
      <trkpt lat="28.34718" lon="83.65929">
        <ele>2998.97</ele>
        <time>2013-10-28T05:12:54Z</time>
      </trkpt>
      <trkpt lat="28.34719" lon="83.65932">
        <ele>2999.45</ele>
        <time>2013-10-28T05:13:12Z</time>
      </trkpt>
      <trkpt lat="28.34727" lon="83.65939">
        <ele>3000.89</ele>
        <time>2013-10-28T05:13:21Z</time>
      </trkpt>
      <trkpt lat="28.34734" lon="83.65949">
        <ele>3002.82</ele>
        <time>2013-10-28T05:13:34Z</time>
      </trkpt>
      <trkpt lat="28.34738" lon="83.65956">
        <ele>3003.3</ele>
        <time>2013-10-28T05:13:45Z</time>
      </trkpt>
      <trkpt lat="28.34742" lon="83.65966">
        <ele>3005.7</ele>
        <time>2013-10-28T05:13:58Z</time>
      </trkpt>
      <trkpt lat="28.34747" lon="83.65975">
        <ele>3007.14</ele>
        <time>2013-10-28T05:14:10Z</time>
      </trkpt>
      <trkpt lat="28.34752" lon="83.65984">
        <ele>3008.58</ele>
        <time>2013-10-28T05:14:22Z</time>
      </trkpt>
      <trkpt lat="28.34759" lon="83.65989">
        <ele>3008.58</ele>
        <time>2013-10-28T05:14:33Z</time>
      </trkpt>
      <trkpt lat="28.34762" lon="83.65991">
        <ele>3009.54</ele>
        <time>2013-10-28T05:14:38Z</time>
      </trkpt>
      <trkpt lat="28.34768" lon="83.65996">
        <ele>3010.51</ele>
        <time>2013-10-28T05:14:50Z</time>
      </trkpt>
      <trkpt lat="28.34771" lon="83.66001">
        <ele>3011.95</ele>
        <time>2013-10-28T05:15:03Z</time>
      </trkpt>
      <trkpt lat="28.34772" lon="83.66006">
        <ele>3012.91</ele>
        <time>2013-10-28T05:15:10Z</time>
      </trkpt>
      <trkpt lat="28.34771" lon="83.66019">
        <ele>3013.87</ele>
        <time>2013-10-28T05:15:24Z</time>
      </trkpt>
      <trkpt lat="28.34768" lon="83.66028">
        <ele>3016.27</ele>
        <time>2013-10-28T05:15:37Z</time>
      </trkpt>
      <trkpt lat="28.34768" lon="83.66035">
        <ele>3018.68</ele>
        <time>2013-10-28T05:15:51Z</time>
      </trkpt>
      <trkpt lat="28.34766" lon="83.6604">
        <ele>3020.12</ele>
        <time>2013-10-28T05:16:04Z</time>
      </trkpt>
      <trkpt lat="28.34766" lon="83.66041">
        <ele>3021.08</ele>
        <time>2013-10-28T05:16:16Z</time>
      </trkpt>
      <trkpt lat="28.34768" lon="83.66045">
        <ele>3022.52</ele>
        <time>2013-10-28T05:16:31Z</time>
      </trkpt>
      <trkpt lat="28.3477" lon="83.6605">
        <ele>3024.93</ele>
        <time>2013-10-28T05:16:42Z</time>
      </trkpt>
      <trkpt lat="28.3477" lon="83.66055">
        <ele>3026.37</ele>
        <time>2013-10-28T05:16:51Z</time>
      </trkpt>
      <trkpt lat="28.3477" lon="83.66061">
        <ele>3027.33</ele>
        <time>2013-10-28T05:17:04Z</time>
      </trkpt>
      <trkpt lat="28.34771" lon="83.66062">
        <ele>3027.81</ele>
        <time>2013-10-28T05:17:10Z</time>
      </trkpt>
      <trkpt lat="28.34776" lon="83.66069">
        <ele>3029.25</ele>
        <time>2013-10-28T05:17:22Z</time>
      </trkpt>
      <trkpt lat="28.3478" lon="83.66072">
        <ele>3030.69</ele>
        <time>2013-10-28T05:17:35Z</time>
      </trkpt>
      <trkpt lat="28.34784" lon="83.66075">
        <ele>3032.62</ele>
        <time>2013-10-28T05:17:46Z</time>
      </trkpt>
      <trkpt lat="28.34785" lon="83.66082">
        <ele>3033.1</ele>
        <time>2013-10-28T05:17:58Z</time>
      </trkpt>
      <trkpt lat="28.34785" lon="83.66087">
        <ele>3035.5</ele>
        <time>2013-10-28T05:18:10Z</time>
      </trkpt>
      <trkpt lat="28.34787" lon="83.6609">
        <ele>3035.5</ele>
        <time>2013-10-28T05:18:22Z</time>
      </trkpt>
      <trkpt lat="28.34787" lon="83.6609">
        <ele>3035.5</ele>
        <time>2013-10-28T05:18:53Z</time>
      </trkpt>
      <trkpt lat="28.34787" lon="83.6609">
        <ele>3035.5</ele>
        <time>2013-10-28T05:19:20Z</time>
      </trkpt>
      <trkpt lat="28.34791" lon="83.66096">
        <ele>3036.46</ele>
        <time>2013-10-28T05:19:33Z</time>
      </trkpt>
      <trkpt lat="28.34791" lon="83.66096">
        <ele>3036.94</ele>
        <time>2013-10-28T05:19:36Z</time>
      </trkpt>
      <trkpt lat="28.34789" lon="83.66094">
        <ele>3036.46</ele>
        <time>2013-10-28T05:19:47Z</time>
      </trkpt>
      <trkpt lat="28.3479" lon="83.66097">
        <ele>3036.46</ele>
        <time>2013-10-28T05:20:16Z</time>
      </trkpt>
      <trkpt lat="28.3479" lon="83.66097">
        <ele>3036.46</ele>
        <time>2013-10-28T05:20:17Z</time>
      </trkpt>
      <trkpt lat="28.34791" lon="83.66105">
        <ele>3037.9</ele>
        <time>2013-10-28T05:20:28Z</time>
      </trkpt>
      <trkpt lat="28.34793" lon="83.66111">
        <ele>3039.35</ele>
        <time>2013-10-28T05:20:39Z</time>
      </trkpt>
      <trkpt lat="28.34797" lon="83.66119">
        <ele>3042.23</ele>
        <time>2013-10-28T05:20:50Z</time>
      </trkpt>
      <trkpt lat="28.34802" lon="83.66122">
        <ele>3042.71</ele>
        <time>2013-10-28T05:21:00Z</time>
      </trkpt>
      <trkpt lat="28.34807" lon="83.66128">
        <ele>3044.15</ele>
        <time>2013-10-28T05:21:11Z</time>
      </trkpt>
      <trkpt lat="28.3481" lon="83.66131">
        <ele>3045.11</ele>
        <time>2013-10-28T05:21:19Z</time>
      </trkpt>
      <trkpt lat="28.34816" lon="83.66134">
        <ele>3047.04</ele>
        <time>2013-10-28T05:21:32Z</time>
      </trkpt>
      <trkpt lat="28.34818" lon="83.66136">
        <ele>3049.44</ele>
        <time>2013-10-28T05:21:45Z</time>
      </trkpt>
      <trkpt lat="28.3482" lon="83.66136">
        <ele>3050.88</ele>
        <time>2013-10-28T05:21:56Z</time>
      </trkpt>
      <trkpt lat="28.34821" lon="83.66141">
        <ele>3052.8</ele>
        <time>2013-10-28T05:22:10Z</time>
      </trkpt>
      <trkpt lat="28.34823" lon="83.66145">
        <ele>3054.73</ele>
        <time>2013-10-28T05:22:20Z</time>
      </trkpt>
      <trkpt lat="28.34825" lon="83.66148">
        <ele>3056.65</ele>
        <time>2013-10-28T05:22:34Z</time>
      </trkpt>
      <trkpt lat="28.34831" lon="83.66149">
        <ele>3057.13</ele>
        <time>2013-10-28T05:22:45Z</time>
      </trkpt>
      <trkpt lat="28.34836" lon="83.6615">
        <ele>3059.05</ele>
        <time>2013-10-28T05:22:57Z</time>
      </trkpt>
      <trkpt lat="28.34837" lon="83.66151">
        <ele>3059.05</ele>
        <time>2013-10-28T05:23:11Z</time>
      </trkpt>
      <trkpt lat="28.34838" lon="83.66151">
        <ele>3059.05</ele>
        <time>2013-10-28T05:23:35Z</time>
      </trkpt>
      <trkpt lat="28.34838" lon="83.66151">
        <ele>3058.57</ele>
        <time>2013-10-28T05:24:06Z</time>
      </trkpt>
      <trkpt lat="28.34838" lon="83.66152">
        <ele>3058.57</ele>
        <time>2013-10-28T05:24:27Z</time>
      </trkpt>
      <trkpt lat="28.34837" lon="83.66151">
        <ele>3059.05</ele>
        <time>2013-10-28T05:24:56Z</time>
      </trkpt>
      <trkpt lat="28.34837" lon="83.66151">
        <ele>3059.05</ele>
        <time>2013-10-28T05:25:19Z</time>
      </trkpt>
      <trkpt lat="28.34838" lon="83.66151">
        <ele>3059.05</ele>
        <time>2013-10-28T05:25:37Z</time>
      </trkpt>
      <trkpt lat="28.34838" lon="83.66151">
        <ele>3059.05</ele>
        <time>2013-10-28T05:26:02Z</time>
      </trkpt>
      <trkpt lat="28.34837" lon="83.66151">
        <ele>3058.57</ele>
        <time>2013-10-28T05:26:31Z</time>
      </trkpt>
      <trkpt lat="28.3484" lon="83.66152">
        <ele>3059.05</ele>
        <time>2013-10-28T05:26:45Z</time>
      </trkpt>
      <trkpt lat="28.34841" lon="83.66152">
        <ele>3060.01</ele>
        <time>2013-10-28T05:26:46Z</time>
      </trkpt>
      <trkpt lat="28.34851" lon="83.66158">
        <ele>3060.49</ele>
        <time>2013-10-28T05:26:58Z</time>
      </trkpt>
      <trkpt lat="28.34855" lon="83.66165">
        <ele>3061.94</ele>
        <time>2013-10-28T05:27:11Z</time>
      </trkpt>
      <trkpt lat="28.34859" lon="83.66173">
        <ele>3062.42</ele>
        <time>2013-10-28T05:27:22Z</time>
      </trkpt>
      <trkpt lat="28.34864" lon="83.6618">
        <ele>3064.34</ele>
        <time>2013-10-28T05:27:34Z</time>
      </trkpt>
      <trkpt lat="28.34867" lon="83.66189">
        <ele>3066.26</ele>
        <time>2013-10-28T05:27:47Z</time>
      </trkpt>
      <trkpt lat="28.34867" lon="83.6619">
        <ele>3064.82</ele>
        <time>2013-10-28T05:28:02Z</time>
      </trkpt>
      <trkpt lat="28.34867" lon="83.66191">
        <ele>3065.3</ele>
        <time>2013-10-28T05:28:15Z</time>
      </trkpt>
      <trkpt lat="28.34868" lon="83.66193">
        <ele>3065.78</ele>
        <time>2013-10-28T05:28:31Z</time>
      </trkpt>
      <trkpt lat="28.34868" lon="83.66194">
        <ele>3066.26</ele>
        <time>2013-10-28T05:28:49Z</time>
      </trkpt>
      <trkpt lat="28.34869" lon="83.66196">
        <ele>3066.74</ele>
        <time>2013-10-28T05:29:04Z</time>
      </trkpt>
      <trkpt lat="28.34872" lon="83.66198">
        <ele>3068.67</ele>
        <time>2013-10-28T05:29:18Z</time>
      </trkpt>
      <trkpt lat="28.34873" lon="83.66199">
        <ele>3069.63</ele>
        <time>2013-10-28T05:29:33Z</time>
      </trkpt>
      <trkpt lat="28.34873" lon="83.662">
        <ele>3070.11</ele>
        <time>2013-10-28T05:29:49Z</time>
      </trkpt>
      <trkpt lat="28.34874" lon="83.66201">
        <ele>3071.07</ele>
        <time>2013-10-28T05:30:07Z</time>
      </trkpt>
      <trkpt lat="28.34874" lon="83.66201">
        <ele>3072.03</ele>
        <time>2013-10-28T05:30:19Z</time>
      </trkpt>
      <trkpt lat="28.34875" lon="83.66206">
        <ele>3072.03</ele>
        <time>2013-10-28T05:30:33Z</time>
      </trkpt>
      <trkpt lat="28.34878" lon="83.66216">
        <ele>3072.99</ele>
        <time>2013-10-28T05:30:47Z</time>
      </trkpt>
      <trkpt lat="28.34882" lon="83.66225">
        <ele>3073.95</ele>
        <time>2013-10-28T05:31:00Z</time>
      </trkpt>
      <trkpt lat="28.34884" lon="83.66225">
        <ele>3073.47</ele>
        <time>2013-10-28T05:31:15Z</time>
      </trkpt>
      <trkpt lat="28.34885" lon="83.66224">
        <ele>3072.99</ele>
        <time>2013-10-28T05:31:34Z</time>
      </trkpt>
      <trkpt lat="28.34886" lon="83.66228">
        <ele>3074.43</ele>
        <time>2013-10-28T05:31:40Z</time>
      </trkpt>
      <trkpt lat="28.34886" lon="83.66229">
        <ele>3075.88</ele>
        <time>2013-10-28T05:31:56Z</time>
      </trkpt>
      <trkpt lat="28.34886" lon="83.6623">
        <ele>3076.84</ele>
        <time>2013-10-28T05:32:17Z</time>
      </trkpt>
      <trkpt lat="28.34886" lon="83.66231">
        <ele>3076.36</ele>
        <time>2013-10-28T05:32:39Z</time>
      </trkpt>
      <trkpt lat="28.34886" lon="83.66231">
        <ele>3076.84</ele>
        <time>2013-10-28T05:33:00Z</time>
      </trkpt>
      <trkpt lat="28.34889" lon="83.6623">
        <ele>3077.8</ele>
        <time>2013-10-28T05:33:05Z</time>
      </trkpt>
      <trkpt lat="28.3489" lon="83.66236">
        <ele>3079.72</ele>
        <time>2013-10-28T05:33:17Z</time>
      </trkpt>
      <trkpt lat="28.34891" lon="83.66238">
        <ele>3079.24</ele>
        <time>2013-10-28T05:33:36Z</time>
      </trkpt>
      <trkpt lat="28.34892" lon="83.66243">
        <ele>3080.68</ele>
        <time>2013-10-28T05:33:52Z</time>
      </trkpt>
      <trkpt lat="28.34895" lon="83.66247">
        <ele>3081.64</ele>
        <time>2013-10-28T05:34:08Z</time>
      </trkpt>
      <trkpt lat="28.34898" lon="83.6625">
        <ele>3084.05</ele>
        <time>2013-10-28T05:34:26Z</time>
      </trkpt>
      <trkpt lat="28.34899" lon="83.66252">
        <ele>3083.57</ele>
        <time>2013-10-28T05:34:39Z</time>
      </trkpt>
      <trkpt lat="28.34905" lon="83.66257">
        <ele>3085.49</ele>
        <time>2013-10-28T05:34:56Z</time>
      </trkpt>
      <trkpt lat="28.34908" lon="83.6626">
        <ele>3085.49</ele>
        <time>2013-10-28T05:35:09Z</time>
      </trkpt>
      <trkpt lat="28.34909" lon="83.66261">
        <ele>3088.37</ele>
        <time>2013-10-28T05:35:10Z</time>
      </trkpt>
      <trkpt lat="28.34911" lon="83.66263">
        <ele>3088.37</ele>
        <time>2013-10-28T05:35:24Z</time>
      </trkpt>
      <trkpt lat="28.34913" lon="83.66266">
        <ele>3089.33</ele>
        <time>2013-10-28T05:35:44Z</time>
      </trkpt>
      <trkpt lat="28.34919" lon="83.66273">
        <ele>3090.78</ele>
        <time>2013-10-28T05:35:59Z</time>
      </trkpt>
      <trkpt lat="28.3492" lon="83.66274">
        <ele>3091.74</ele>
        <time>2013-10-28T05:36:16Z</time>
      </trkpt>
      <trkpt lat="28.34921" lon="83.66274">
        <ele>3091.74</ele>
        <time>2013-10-28T05:36:31Z</time>
      </trkpt>
      <trkpt lat="28.34921" lon="83.66274">
        <ele>3091.26</ele>
        <time>2013-10-28T05:37:02Z</time>
      </trkpt>
      <trkpt lat="28.34919" lon="83.66275">
        <ele>3091.74</ele>
        <time>2013-10-28T05:37:04Z</time>
      </trkpt>
      <trkpt lat="28.34917" lon="83.66264">
        <ele>3091.26</ele>
        <time>2013-10-28T05:37:17Z</time>
      </trkpt>
      <trkpt lat="28.34917" lon="83.66264">
        <ele>3091.74</ele>
        <time>2013-10-28T05:37:43Z</time>
      </trkpt>
      <trkpt lat="28.34919" lon="83.66275">
        <ele>3091.74</ele>
        <time>2013-10-28T05:38:02Z</time>
      </trkpt>
      <trkpt lat="28.3492" lon="83.66278">
        <ele>3095.1</ele>
        <time>2013-10-28T05:38:21Z</time>
      </trkpt>
      <trkpt lat="28.3492" lon="83.66285">
        <ele>3094.62</ele>
        <time>2013-10-28T05:38:36Z</time>
      </trkpt>
      <trkpt lat="28.34923" lon="83.66288">
        <ele>3096.54</ele>
        <time>2013-10-28T05:38:50Z</time>
      </trkpt>
      <trkpt lat="28.34922" lon="83.66297">
        <ele>3097.51</ele>
        <time>2013-10-28T05:39:05Z</time>
      </trkpt>
      <trkpt lat="28.34923" lon="83.66299">
        <ele>3100.87</ele>
        <time>2013-10-28T05:39:20Z</time>
      </trkpt>
      <trkpt lat="28.34924" lon="83.66301">
        <ele>3100.39</ele>
        <time>2013-10-28T05:39:40Z</time>
      </trkpt>
      <trkpt lat="28.34923" lon="83.66306">
        <ele>3102.31</ele>
        <time>2013-10-28T05:39:56Z</time>
      </trkpt>
      <trkpt lat="28.34927" lon="83.66316">
        <ele>3102.79</ele>
        <time>2013-10-28T05:40:11Z</time>
      </trkpt>
      <trkpt lat="28.34925" lon="83.66318">
        <ele>3104.23</ele>
        <time>2013-10-28T05:40:25Z</time>
      </trkpt>
      <trkpt lat="28.34924" lon="83.66324">
        <ele>3104.23</ele>
        <time>2013-10-28T05:40:38Z</time>
      </trkpt>
      <trkpt lat="28.34924" lon="83.66326">
        <ele>3105.2</ele>
        <time>2013-10-28T05:40:58Z</time>
      </trkpt>
      <trkpt lat="28.34925" lon="83.66327">
        <ele>3108.08</ele>
        <time>2013-10-28T05:41:06Z</time>
      </trkpt>
      <trkpt lat="28.34927" lon="83.66334">
        <ele>3109.04</ele>
        <time>2013-10-28T05:41:21Z</time>
      </trkpt>
      <trkpt lat="28.34925" lon="83.66338">
        <ele>3110</ele>
        <time>2013-10-28T05:41:37Z</time>
      </trkpt>
      <trkpt lat="28.34926" lon="83.66337">
        <ele>3110</ele>
        <time>2013-10-28T05:42:05Z</time>
      </trkpt>
      <trkpt lat="28.34928" lon="83.66341">
        <ele>3110.48</ele>
        <time>2013-10-28T05:42:20Z</time>
      </trkpt>
      <trkpt lat="28.34931" lon="83.66346">
        <ele>3110.48</ele>
        <time>2013-10-28T05:42:36Z</time>
      </trkpt>
      <trkpt lat="28.34934" lon="83.6635">
        <ele>3113.85</ele>
        <time>2013-10-28T05:42:51Z</time>
      </trkpt>
      <trkpt lat="28.34935" lon="83.66352">
        <ele>3114.33</ele>
        <time>2013-10-28T05:43:08Z</time>
      </trkpt>
      <trkpt lat="28.34937" lon="83.66357">
        <ele>3115.29</ele>
        <time>2013-10-28T05:43:24Z</time>
      </trkpt>
      <trkpt lat="28.3494" lon="83.66362">
        <ele>3118.65</ele>
        <time>2013-10-28T05:43:38Z</time>
      </trkpt>
      <trkpt lat="28.34943" lon="83.6637">
        <ele>3120.58</ele>
        <time>2013-10-28T05:43:55Z</time>
      </trkpt>
      <trkpt lat="28.34943" lon="83.66375">
        <ele>3122.02</ele>
        <time>2013-10-28T05:44:10Z</time>
      </trkpt>
      <trkpt lat="28.34943" lon="83.66374">
        <ele>3121.54</ele>
        <time>2013-10-28T05:44:31Z</time>
      </trkpt>
      <trkpt lat="28.34942" lon="83.66376">
        <ele>3122.5</ele>
        <time>2013-10-28T05:44:40Z</time>
      </trkpt>
      <trkpt lat="28.34935" lon="83.66381">
        <ele>3124.9</ele>
        <time>2013-10-28T05:44:55Z</time>
      </trkpt>
      <trkpt lat="28.34935" lon="83.66384">
        <ele>3125.86</ele>
        <time>2013-10-28T05:45:20Z</time>
      </trkpt>
      <trkpt lat="28.34933" lon="83.66388">
        <ele>3125.86</ele>
        <time>2013-10-28T05:45:36Z</time>
      </trkpt>
      <trkpt lat="28.34933" lon="83.66388">
        <ele>3126.34</ele>
        <time>2013-10-28T05:46:01Z</time>
      </trkpt>
      <trkpt lat="28.34932" lon="83.6639">
        <ele>3126.34</ele>
        <time>2013-10-28T05:46:30Z</time>
      </trkpt>
      <trkpt lat="28.34932" lon="83.66389">
        <ele>3127.31</ele>
        <time>2013-10-28T05:46:56Z</time>
      </trkpt>
      <trkpt lat="28.34933" lon="83.66389">
        <ele>3126.83</ele>
        <time>2013-10-28T05:47:23Z</time>
      </trkpt>
      <trkpt lat="28.34932" lon="83.66389">
        <ele>3127.79</ele>
        <time>2013-10-28T05:47:52Z</time>
      </trkpt>
      <trkpt lat="28.34931" lon="83.66388">
        <ele>3127.31</ele>
        <time>2013-10-28T05:48:15Z</time>
      </trkpt>
      <trkpt lat="28.34931" lon="83.66388">
        <ele>3127.31</ele>
        <time>2013-10-28T05:48:31Z</time>
      </trkpt>
      <trkpt lat="28.34931" lon="83.66388">
        <ele>3127.31</ele>
        <time>2013-10-28T05:48:59Z</time>
      </trkpt>
      <trkpt lat="28.34931" lon="83.66388">
        <ele>3127.79</ele>
        <time>2013-10-28T05:49:31Z</time>
      </trkpt>
      <trkpt lat="28.34931" lon="83.66388">
        <ele>3127.79</ele>
        <time>2013-10-28T05:49:55Z</time>
      </trkpt>
      <trkpt lat="28.34936" lon="83.66394">
        <ele>3128.27</ele>
        <time>2013-10-28T05:50:07Z</time>
      </trkpt>
      <trkpt lat="28.34939" lon="83.66399">
        <ele>3128.27</ele>
        <time>2013-10-28T05:50:17Z</time>
      </trkpt>
      <trkpt lat="28.3494" lon="83.66401">
        <ele>3128.75</ele>
        <time>2013-10-28T05:50:19Z</time>
      </trkpt>
      <trkpt lat="28.34941" lon="83.66406">
        <ele>3129.71</ele>
        <time>2013-10-28T05:50:30Z</time>
      </trkpt>
      <trkpt lat="28.34941" lon="83.66409">
        <ele>3130.19</ele>
        <time>2013-10-28T05:50:41Z</time>
      </trkpt>
      <trkpt lat="28.34943" lon="83.66413">
        <ele>3132.11</ele>
        <time>2013-10-28T05:50:51Z</time>
      </trkpt>
      <trkpt lat="28.34943" lon="83.66414">
        <ele>3132.59</ele>
        <time>2013-10-28T05:50:52Z</time>
      </trkpt>
      <trkpt lat="28.34946" lon="83.66417">
        <ele>3133.55</ele>
        <time>2013-10-28T05:51:04Z</time>
      </trkpt>
      <trkpt lat="28.34946" lon="83.66418">
        <ele>3133.55</ele>
        <time>2013-10-28T05:51:22Z</time>
      </trkpt>
      <trkpt lat="28.3495" lon="83.66419">
        <ele>3133.55</ele>
        <time>2013-10-28T05:51:38Z</time>
      </trkpt>
      <trkpt lat="28.34964" lon="83.66419">
        <ele>3131.63</ele>
        <time>2013-10-28T05:51:53Z</time>
      </trkpt>
      <trkpt lat="28.34978" lon="83.66423">
        <ele>3132.11</ele>
        <time>2013-10-28T05:52:07Z</time>
      </trkpt>
      <trkpt lat="28.34982" lon="83.66423">
        <ele>3132.59</ele>
        <time>2013-10-28T05:52:13Z</time>
      </trkpt>
      <trkpt lat="28.34984" lon="83.66422">
        <ele>3132.59</ele>
        <time>2013-10-28T05:52:15Z</time>
      </trkpt>
      <trkpt lat="28.34987" lon="83.66423">
        <ele>3133.07</ele>
        <time>2013-10-28T05:52:19Z</time>
      </trkpt>
      <trkpt lat="28.34996" lon="83.66431">
        <ele>3134.04</ele>
        <time>2013-10-28T05:52:33Z</time>
      </trkpt>
      <trkpt lat="28.35002" lon="83.66434">
        <ele>3135</ele>
        <time>2013-10-28T05:52:43Z</time>
      </trkpt>
      <trkpt lat="28.35005" lon="83.66439">
        <ele>3135</ele>
        <time>2013-10-28T05:52:48Z</time>
      </trkpt>
      <trkpt lat="28.3501" lon="83.66447">
        <ele>3135.96</ele>
        <time>2013-10-28T05:53:00Z</time>
      </trkpt>
      <trkpt lat="28.35012" lon="83.66454">
        <ele>3137.88</ele>
        <time>2013-10-28T05:53:12Z</time>
      </trkpt>
      <trkpt lat="28.3501" lon="83.66464">
        <ele>3139.32</ele>
        <time>2013-10-28T05:53:22Z</time>
      </trkpt>
      <trkpt lat="28.35009" lon="83.66469">
        <ele>3139.32</ele>
        <time>2013-10-28T05:53:26Z</time>
      </trkpt>
      <trkpt lat="28.3501" lon="83.66473">
        <ele>3139.32</ele>
        <time>2013-10-28T05:53:30Z</time>
      </trkpt>
      <trkpt lat="28.35011" lon="83.66476">
        <ele>3139.32</ele>
        <time>2013-10-28T05:53:33Z</time>
      </trkpt>
      <trkpt lat="28.35012" lon="83.66482">
        <ele>3139.8</ele>
        <time>2013-10-28T05:53:39Z</time>
      </trkpt>
      <trkpt lat="28.35013" lon="83.66491">
        <ele>3141.25</ele>
        <time>2013-10-28T05:53:51Z</time>
      </trkpt>
      <trkpt lat="28.35013" lon="83.66495">
        <ele>3140.76</ele>
        <time>2013-10-28T05:53:57Z</time>
      </trkpt>
      <trkpt lat="28.35012" lon="83.66497">
        <ele>3140.76</ele>
        <time>2013-10-28T05:53:59Z</time>
      </trkpt>
      <trkpt lat="28.35014" lon="83.66507">
        <ele>3139.8</ele>
        <time>2013-10-28T05:54:10Z</time>
      </trkpt>
      <trkpt lat="28.35013" lon="83.66514">
        <ele>3139.32</ele>
        <time>2013-10-28T05:54:17Z</time>
      </trkpt>
      <trkpt lat="28.35016" lon="83.66522">
        <ele>3140.76</ele>
        <time>2013-10-28T05:54:30Z</time>
      </trkpt>
      <trkpt lat="28.35015" lon="83.66524">
        <ele>3140.28</ele>
        <time>2013-10-28T05:54:41Z</time>
      </trkpt>
      <trkpt lat="28.35015" lon="83.66523">
        <ele>3141.25</ele>
        <time>2013-10-28T05:54:54Z</time>
      </trkpt>
      <trkpt lat="28.35015" lon="83.66523">
        <ele>3141.25</ele>
        <time>2013-10-28T05:55:20Z</time>
      </trkpt>
      <trkpt lat="28.35016" lon="83.66523">
        <ele>3141.25</ele>
        <time>2013-10-28T05:55:43Z</time>
      </trkpt>
      <trkpt lat="28.35019" lon="83.66526">
        <ele>3140.28</ele>
        <time>2013-10-28T05:56:02Z</time>
      </trkpt>
      <trkpt lat="28.35019" lon="83.66526">
        <ele>3140.28</ele>
        <time>2013-10-28T05:56:04Z</time>
      </trkpt>
      <trkpt lat="28.35024" lon="83.66535">
        <ele>3139.32</ele>
        <time>2013-10-28T05:56:12Z</time>
      </trkpt>
      <trkpt lat="28.3503" lon="83.66545">
        <ele>3138.84</ele>
        <time>2013-10-28T05:56:23Z</time>
      </trkpt>
      <trkpt lat="28.35032" lon="83.66551">
        <ele>3139.32</ele>
        <time>2013-10-28T05:56:28Z</time>
      </trkpt>
      <trkpt lat="28.35033" lon="83.66559">
        <ele>3138.84</ele>
        <time>2013-10-28T05:56:40Z</time>
      </trkpt>
      <trkpt lat="28.35034" lon="83.66564">
        <ele>3137.4</ele>
        <time>2013-10-28T05:56:56Z</time>
      </trkpt>
      <trkpt lat="28.35037" lon="83.6657">
        <ele>3137.88</ele>
        <time>2013-10-28T05:57:07Z</time>
      </trkpt>
      <trkpt lat="28.35041" lon="83.66566">
        <ele>3139.8</ele>
        <time>2013-10-28T05:57:19Z</time>
      </trkpt>
      <trkpt lat="28.35046" lon="83.66565">
        <ele>3140.76</ele>
        <time>2013-10-28T05:57:36Z</time>
      </trkpt>
      <trkpt lat="28.35056" lon="83.66566">
        <ele>3140.28</ele>
        <time>2013-10-28T05:57:50Z</time>
      </trkpt>
      <trkpt lat="28.35063" lon="83.66566">
        <ele>3139.8</ele>
        <time>2013-10-28T05:58:07Z</time>
      </trkpt>
      <trkpt lat="28.35068" lon="83.66561">
        <ele>3138.84</ele>
        <time>2013-10-28T05:58:29Z</time>
      </trkpt>
      <trkpt lat="28.35071" lon="83.66557">
        <ele>3137.4</ele>
        <time>2013-10-28T05:58:44Z</time>
      </trkpt>
      <trkpt lat="28.35075" lon="83.66556">
        <ele>3135.96</ele>
        <time>2013-10-28T05:59:02Z</time>
      </trkpt>
      <trkpt lat="28.35084" lon="83.66548">
        <ele>3136.44</ele>
        <time>2013-10-28T05:59:15Z</time>
      </trkpt>
      <trkpt lat="28.35087" lon="83.66537">
        <ele>3137.4</ele>
        <time>2013-10-28T05:59:28Z</time>
      </trkpt>
      <trkpt lat="28.3509" lon="83.66528">
        <ele>3139.8</ele>
        <time>2013-10-28T05:59:46Z</time>
      </trkpt>
      <trkpt lat="28.35093" lon="83.66517">
        <ele>3140.28</ele>
        <time>2013-10-28T06:00:03Z</time>
      </trkpt>
      <trkpt lat="28.35096" lon="83.66509">
        <ele>3139.8</ele>
        <time>2013-10-28T06:00:18Z</time>
      </trkpt>
      <trkpt lat="28.351" lon="83.665">
        <ele>3140.76</ele>
        <time>2013-10-28T06:00:36Z</time>
      </trkpt>
      <trkpt lat="28.35108" lon="83.66484">
        <ele>3142.21</ele>
        <time>2013-10-28T06:00:53Z</time>
      </trkpt>
      <trkpt lat="28.35118" lon="83.66478">
        <ele>3143.17</ele>
        <time>2013-10-28T06:01:08Z</time>
      </trkpt>
      <trkpt lat="28.35123" lon="83.66481">
        <ele>3144.61</ele>
        <time>2013-10-28T06:01:22Z</time>
      </trkpt>
      <trkpt lat="28.35134" lon="83.66487">
        <ele>3146.05</ele>
        <time>2013-10-28T06:01:37Z</time>
      </trkpt>
      <trkpt lat="28.35142" lon="83.66494">
        <ele>3147.01</ele>
        <time>2013-10-28T06:01:51Z</time>
      </trkpt>
      <trkpt lat="28.35148" lon="83.66504">
        <ele>3148.46</ele>
        <time>2013-10-28T06:02:05Z</time>
      </trkpt>
      <trkpt lat="28.3515" lon="83.66505">
        <ele>3148.46</ele>
        <time>2013-10-28T06:02:07Z</time>
      </trkpt>
      <trkpt lat="28.35153" lon="83.66513">
        <ele>3149.9</ele>
        <time>2013-10-28T06:02:20Z</time>
      </trkpt>
      <trkpt lat="28.35157" lon="83.66519">
        <ele>3150.86</ele>
        <time>2013-10-28T06:02:35Z</time>
      </trkpt>
      <trkpt lat="28.35158" lon="83.6652">
        <ele>3150.38</ele>
        <time>2013-10-28T06:02:38Z</time>
      </trkpt>
      <trkpt lat="28.35164" lon="83.66523">
        <ele>3150.86</ele>
        <time>2013-10-28T06:02:51Z</time>
      </trkpt>
      <trkpt lat="28.35171" lon="83.66527">
        <ele>3151.34</ele>
        <time>2013-10-28T06:03:03Z</time>
      </trkpt>
      <trkpt lat="28.35173" lon="83.66532">
        <ele>3152.3</ele>
        <time>2013-10-28T06:03:17Z</time>
      </trkpt>
      <trkpt lat="28.35174" lon="83.6654">
        <ele>3153.74</ele>
        <time>2013-10-28T06:03:30Z</time>
      </trkpt>
      <trkpt lat="28.35176" lon="83.66544">
        <ele>3154.22</ele>
        <time>2013-10-28T06:03:42Z</time>
      </trkpt>
      <trkpt lat="28.35182" lon="83.6655">
        <ele>3154.22</ele>
        <time>2013-10-28T06:03:54Z</time>
      </trkpt>
      <trkpt lat="28.35187" lon="83.66549">
        <ele>3153.74</ele>
        <time>2013-10-28T06:04:10Z</time>
      </trkpt>
      <trkpt lat="28.35195" lon="83.66556">
        <ele>3152.78</ele>
        <time>2013-10-28T06:04:22Z</time>
      </trkpt>
      <trkpt lat="28.35201" lon="83.66562">
        <ele>3152.78</ele>
        <time>2013-10-28T06:04:32Z</time>
      </trkpt>
      <trkpt lat="28.35205" lon="83.66565">
        <ele>3153.74</ele>
        <time>2013-10-28T06:04:45Z</time>
      </trkpt>
      <trkpt lat="28.3521" lon="83.66566">
        <ele>3153.74</ele>
        <time>2013-10-28T06:04:54Z</time>
      </trkpt>
      <trkpt lat="28.35214" lon="83.66569">
        <ele>3152.78</ele>
        <time>2013-10-28T06:05:00Z</time>
      </trkpt>
      <trkpt lat="28.35224" lon="83.66568">
        <ele>3152.78</ele>
        <time>2013-10-28T06:05:15Z</time>
      </trkpt>
      <trkpt lat="28.35235" lon="83.66566">
        <ele>3153.26</ele>
        <time>2013-10-28T06:05:27Z</time>
      </trkpt>
      <trkpt lat="28.35245" lon="83.6657">
        <ele>3153.26</ele>
        <time>2013-10-28T06:05:41Z</time>
      </trkpt>
      <trkpt lat="28.35248" lon="83.6658">
        <ele>3154.7</ele>
        <time>2013-10-28T06:05:57Z</time>
      </trkpt>
      <trkpt lat="28.35256" lon="83.66593">
        <ele>3154.22</ele>
        <time>2013-10-28T06:06:11Z</time>
      </trkpt>
      <trkpt lat="28.35259" lon="83.66598">
        <ele>3155.66</ele>
        <time>2013-10-28T06:06:27Z</time>
      </trkpt>
      <trkpt lat="28.3526" lon="83.66599">
        <ele>3158.07</ele>
        <time>2013-10-28T06:06:47Z</time>
      </trkpt>
      <trkpt lat="28.35261" lon="83.666">
        <ele>3159.03</ele>
        <time>2013-10-28T06:07:04Z</time>
      </trkpt>
      <trkpt lat="28.35264" lon="83.66602">
        <ele>3159.99</ele>
        <time>2013-10-28T06:07:20Z</time>
      </trkpt>
      <trkpt lat="28.35264" lon="83.66607">
        <ele>3161.43</ele>
        <time>2013-10-28T06:07:30Z</time>
      </trkpt>
      <trkpt lat="28.35264" lon="83.66608">
        <ele>3161.43</ele>
        <time>2013-10-28T06:07:47Z</time>
      </trkpt>
      <trkpt lat="28.35267" lon="83.66609">
        <ele>3160.95</ele>
        <time>2013-10-28T06:08:09Z</time>
      </trkpt>
      <trkpt lat="28.35268" lon="83.66611">
        <ele>3161.91</ele>
        <time>2013-10-28T06:08:11Z</time>
      </trkpt>
      <trkpt lat="28.35269" lon="83.66618">
        <ele>3162.39</ele>
        <time>2013-10-28T06:08:18Z</time>
      </trkpt>
      <trkpt lat="28.35276" lon="83.66627">
        <ele>3161.43</ele>
        <time>2013-10-28T06:08:30Z</time>
      </trkpt>
      <trkpt lat="28.3528" lon="83.66636">
        <ele>3162.39</ele>
        <time>2013-10-28T06:08:43Z</time>
      </trkpt>
      <trkpt lat="28.35282" lon="83.66644">
        <ele>3162.88</ele>
        <time>2013-10-28T06:08:54Z</time>
      </trkpt>
      <trkpt lat="28.35283" lon="83.66649">
        <ele>3163.36</ele>
        <time>2013-10-28T06:09:04Z</time>
      </trkpt>
      <trkpt lat="28.35282" lon="83.66659">
        <ele>3165.76</ele>
        <time>2013-10-28T06:09:19Z</time>
      </trkpt>
      <trkpt lat="28.35281" lon="83.66662">
        <ele>3166.72</ele>
        <time>2013-10-28T06:09:34Z</time>
      </trkpt>
      <trkpt lat="28.35274" lon="83.6667">
        <ele>3168.16</ele>
        <time>2013-10-28T06:09:48Z</time>
      </trkpt>
      <trkpt lat="28.3527" lon="83.66673">
        <ele>3168.64</ele>
        <time>2013-10-28T06:10:07Z</time>
      </trkpt>
      <trkpt lat="28.3527" lon="83.66673">
        <ele>3169.12</ele>
        <time>2013-10-28T06:10:23Z</time>
      </trkpt>
      <trkpt lat="28.35269" lon="83.66675">
        <ele>3169.6</ele>
        <time>2013-10-28T06:10:36Z</time>
      </trkpt>
      <trkpt lat="28.35269" lon="83.66684">
        <ele>3171.05</ele>
        <time>2013-10-28T06:10:52Z</time>
      </trkpt>
      <trkpt lat="28.35271" lon="83.66694">
        <ele>3171.05</ele>
        <time>2013-10-28T06:11:08Z</time>
      </trkpt>
      <trkpt lat="28.3527" lon="83.66697">
        <ele>3171.53</ele>
        <time>2013-10-28T06:11:22Z</time>
      </trkpt>
      <trkpt lat="28.3527" lon="83.66698">
        <ele>3172.01</ele>
        <time>2013-10-28T06:11:27Z</time>
      </trkpt>
      <trkpt lat="28.35271" lon="83.66701">
        <ele>3172.01</ele>
        <time>2013-10-28T06:11:51Z</time>
      </trkpt>
      <trkpt lat="28.35272" lon="83.66701">
        <ele>3173.45</ele>
        <time>2013-10-28T06:12:11Z</time>
      </trkpt>
      <trkpt lat="28.35273" lon="83.667">
        <ele>3176.33</ele>
        <time>2013-10-28T06:12:23Z</time>
      </trkpt>
      <trkpt lat="28.35274" lon="83.66698">
        <ele>3177.78</ele>
        <time>2013-10-28T06:12:36Z</time>
      </trkpt>
      <trkpt lat="28.35275" lon="83.66697">
        <ele>3178.26</ele>
        <time>2013-10-28T06:12:46Z</time>
      </trkpt>
      <trkpt lat="28.35276" lon="83.66695">
        <ele>3178.26</ele>
        <time>2013-10-28T06:13:03Z</time>
      </trkpt>
      <trkpt lat="28.35277" lon="83.66695">
        <ele>3178.74</ele>
        <time>2013-10-28T06:13:18Z</time>
      </trkpt>
      <trkpt lat="28.35282" lon="83.66692">
        <ele>3179.7</ele>
        <time>2013-10-28T06:13:28Z</time>
      </trkpt>
      <trkpt lat="28.35283" lon="83.66691">
        <ele>3180.66</ele>
        <time>2013-10-28T06:13:29Z</time>
      </trkpt>
      <trkpt lat="28.3529" lon="83.6669">
        <ele>3180.66</ele>
        <time>2013-10-28T06:13:40Z</time>
      </trkpt>
      <trkpt lat="28.35289" lon="83.6669">
        <ele>3180.66</ele>
        <time>2013-10-28T06:13:42Z</time>
      </trkpt>
      <trkpt lat="28.35284" lon="83.66691">
        <ele>3179.22</ele>
        <time>2013-10-28T06:13:54Z</time>
      </trkpt>
      <trkpt lat="28.35284" lon="83.6669">
        <ele>3180.66</ele>
        <time>2013-10-28T06:14:13Z</time>
      </trkpt>
      <trkpt lat="28.35284" lon="83.66689">
        <ele>3180.66</ele>
        <time>2013-10-28T06:14:32Z</time>
      </trkpt>
      <trkpt lat="28.35284" lon="83.66689">
        <ele>3183.54</ele>
        <time>2013-10-28T06:14:59Z</time>
      </trkpt>
      <trkpt lat="28.35284" lon="83.66689">
        <ele>3180.66</ele>
        <time>2013-10-28T06:15:03Z</time>
      </trkpt>
      <trkpt lat="28.35285" lon="83.66689">
        <ele>3180.66</ele>
        <time>2013-10-28T06:15:22Z</time>
      </trkpt>
      <trkpt lat="28.35285" lon="83.66689">
        <ele>3180.18</ele>
        <time>2013-10-28T06:15:40Z</time>
      </trkpt>
      <trkpt lat="28.35285" lon="83.66689">
        <ele>3181.14</ele>
        <time>2013-10-28T06:16:05Z</time>
      </trkpt>
      <trkpt lat="28.35285" lon="83.66689">
        <ele>3180.18</ele>
        <time>2013-10-28T06:16:20Z</time>
      </trkpt>
      <trkpt lat="28.35285" lon="83.6669">
        <ele>3180.18</ele>
        <time>2013-10-28T06:16:35Z</time>
      </trkpt>
      <trkpt lat="28.35286" lon="83.66689">
        <ele>3180.66</ele>
        <time>2013-10-28T06:16:51Z</time>
      </trkpt>
      <trkpt lat="28.35286" lon="83.66689">
        <ele>3181.14</ele>
        <time>2013-10-28T06:17:10Z</time>
      </trkpt>
      <trkpt lat="28.35286" lon="83.66689">
        <ele>3180.18</ele>
        <time>2013-10-28T06:17:27Z</time>
      </trkpt>
      <trkpt lat="28.35286" lon="83.6669">
        <ele>3176.81</ele>
        <time>2013-10-28T06:17:49Z</time>
      </trkpt>
      <trkpt lat="28.35286" lon="83.6669">
        <ele>3184.02</ele>
        <time>2013-10-28T06:17:51Z</time>
      </trkpt>
      <trkpt lat="28.35286" lon="83.6669">
        <ele>3183.06</ele>
        <time>2013-10-28T06:17:52Z</time>
      </trkpt>
      <trkpt lat="28.35286" lon="83.66689">
        <ele>3180.66</ele>
        <time>2013-10-28T06:17:54Z</time>
      </trkpt>
      <trkpt lat="28.35287" lon="83.66688">
        <ele>3181.62</ele>
        <time>2013-10-28T06:18:04Z</time>
      </trkpt>
      <trkpt lat="28.35287" lon="83.66689">
        <ele>3180.66</ele>
        <time>2013-10-28T06:18:15Z</time>
      </trkpt>
      <trkpt lat="28.35287" lon="83.66689">
        <ele>3181.62</ele>
        <time>2013-10-28T06:18:28Z</time>
      </trkpt>
      <trkpt lat="28.35287" lon="83.66689">
        <ele>3181.14</ele>
        <time>2013-10-28T06:18:42Z</time>
      </trkpt>
      <trkpt lat="28.35287" lon="83.66689">
        <ele>3180.66</ele>
        <time>2013-10-28T06:18:57Z</time>
      </trkpt>
      <trkpt lat="28.35286" lon="83.6669">
        <ele>3181.14</ele>
        <time>2013-10-28T06:19:27Z</time>
      </trkpt>
      <trkpt lat="28.35285" lon="83.6669">
        <ele>3180.66</ele>
        <time>2013-10-28T06:19:51Z</time>
      </trkpt>
      <trkpt lat="28.35284" lon="83.66689">
        <ele>3181.62</ele>
        <time>2013-10-28T06:20:20Z</time>
      </trkpt>
      <trkpt lat="28.35284" lon="83.66689">
        <ele>3181.62</ele>
        <time>2013-10-28T06:20:48Z</time>
      </trkpt>
      <trkpt lat="28.35284" lon="83.66689">
        <ele>3181.62</ele>
        <time>2013-10-28T06:21:15Z</time>
      </trkpt>
      <trkpt lat="28.35284" lon="83.66688">
        <ele>3182.1</ele>
        <time>2013-10-28T06:21:42Z</time>
      </trkpt>
      <trkpt lat="28.35284" lon="83.66688">
        <ele>3182.1</ele>
        <time>2013-10-28T06:22:10Z</time>
      </trkpt>
      <trkpt lat="28.35283" lon="83.66688">
        <ele>3182.58</ele>
        <time>2013-10-28T06:22:39Z</time>
      </trkpt>
      <trkpt lat="28.35284" lon="83.66688">
        <ele>3182.58</ele>
        <time>2013-10-28T06:22:57Z</time>
      </trkpt>
      <trkpt lat="28.35285" lon="83.66688">
        <ele>3183.06</ele>
        <time>2013-10-28T06:23:20Z</time>
      </trkpt>
      <trkpt lat="28.35285" lon="83.66688">
        <ele>3183.06</ele>
        <time>2013-10-28T06:23:49Z</time>
      </trkpt>
      <trkpt lat="28.35285" lon="83.66689">
        <ele>3183.06</ele>
        <time>2013-10-28T06:24:20Z</time>
      </trkpt>
      <trkpt lat="28.35285" lon="83.66689">
        <ele>3182.58</ele>
        <time>2013-10-28T06:24:54Z</time>
      </trkpt>
      <trkpt lat="28.35285" lon="83.66688">
        <ele>3183.54</ele>
        <time>2013-10-28T06:25:25Z</time>
      </trkpt>
      <trkpt lat="28.35286" lon="83.66688">
        <ele>3183.06</ele>
        <time>2013-10-28T06:25:52Z</time>
      </trkpt>
      <trkpt lat="28.35286" lon="83.66688">
        <ele>3183.06</ele>
        <time>2013-10-28T06:26:27Z</time>
      </trkpt>
      <trkpt lat="28.35286" lon="83.66689">
        <ele>3183.54</ele>
        <time>2013-10-28T06:26:53Z</time>
      </trkpt>
      <trkpt lat="28.35286" lon="83.66688">
        <ele>3183.06</ele>
        <time>2013-10-28T06:27:21Z</time>
      </trkpt>
      <trkpt lat="28.35286" lon="83.66688">
        <ele>3183.54</ele>
        <time>2013-10-28T06:27:54Z</time>
      </trkpt>
      <trkpt lat="28.35287" lon="83.66688">
        <ele>3183.54</ele>
        <time>2013-10-28T06:28:22Z</time>
      </trkpt>
      <trkpt lat="28.35287" lon="83.66688">
        <ele>3183.54</ele>
        <time>2013-10-28T06:28:45Z</time>
      </trkpt>
      <trkpt lat="28.35288" lon="83.66688">
        <ele>3183.54</ele>
        <time>2013-10-28T06:29:14Z</time>
      </trkpt>
      <trkpt lat="28.35288" lon="83.66688">
        <ele>3183.54</ele>
        <time>2013-10-28T06:29:43Z</time>
      </trkpt>
      <trkpt lat="28.35288" lon="83.66688">
        <ele>3184.02</ele>
        <time>2013-10-28T06:30:09Z</time>
      </trkpt>
      <trkpt lat="28.35288" lon="83.66687">
        <ele>3184.02</ele>
        <time>2013-10-28T06:30:36Z</time>
      </trkpt>
      <trkpt lat="28.35287" lon="83.66688">
        <ele>3184.02</ele>
        <time>2013-10-28T06:31:03Z</time>
      </trkpt>
      <trkpt lat="28.35287" lon="83.66687">
        <ele>3184.5</ele>
        <time>2013-10-28T06:31:22Z</time>
      </trkpt>
      <trkpt lat="28.35288" lon="83.66687">
        <ele>3184.5</ele>
        <time>2013-10-28T06:31:37Z</time>
      </trkpt>
      <trkpt lat="28.35288" lon="83.66688">
        <ele>3184.5</ele>
        <time>2013-10-28T06:32:09Z</time>
      </trkpt>
      <trkpt lat="28.35289" lon="83.66688">
        <ele>3184.5</ele>
        <time>2013-10-28T06:32:41Z</time>
      </trkpt>
      <trkpt lat="28.35289" lon="83.66689">
        <ele>3184.5</ele>
        <time>2013-10-28T06:33:09Z</time>
      </trkpt>
      <trkpt lat="28.35289" lon="83.66688">
        <ele>3184.98</ele>
        <time>2013-10-28T06:33:30Z</time>
      </trkpt>
      <trkpt lat="28.35288" lon="83.66687">
        <ele>3184.98</ele>
        <time>2013-10-28T06:34:03Z</time>
      </trkpt>
      <trkpt lat="28.35288" lon="83.66686">
        <ele>3185.47</ele>
        <time>2013-10-28T06:34:29Z</time>
      </trkpt>
      <trkpt lat="28.35288" lon="83.66685">
        <ele>3185.47</ele>
        <time>2013-10-28T06:35:03Z</time>
      </trkpt>
      <trkpt lat="28.35288" lon="83.66685">
        <ele>3184.98</ele>
        <time>2013-10-28T06:35:36Z</time>
      </trkpt>
      <trkpt lat="28.35288" lon="83.66685">
        <ele>3184.98</ele>
        <time>2013-10-28T06:35:59Z</time>
      </trkpt>
      <trkpt lat="28.35288" lon="83.66684">
        <ele>3184.98</ele>
        <time>2013-10-28T06:36:26Z</time>
      </trkpt>
      <trkpt lat="28.35286" lon="83.66684">
        <ele>3185.47</ele>
        <time>2013-10-28T06:36:47Z</time>
      </trkpt>
      <trkpt lat="28.35286" lon="83.66684">
        <ele>3185.47</ele>
        <time>2013-10-28T06:37:19Z</time>
      </trkpt>
      <trkpt lat="28.35286" lon="83.66684">
        <ele>3185.47</ele>
        <time>2013-10-28T06:37:36Z</time>
      </trkpt>
      <trkpt lat="28.35286" lon="83.66684">
        <ele>3185.95</ele>
        <time>2013-10-28T06:37:48Z</time>
      </trkpt>
      <trkpt lat="28.35286" lon="83.66684">
        <ele>3185.95</ele>
        <time>2013-10-28T06:38:12Z</time>
      </trkpt>
      <trkpt lat="28.35286" lon="83.66684">
        <ele>3185.47</ele>
        <time>2013-10-28T06:38:27Z</time>
      </trkpt>
      <trkpt lat="28.35286" lon="83.66684">
        <ele>3185.95</ele>
        <time>2013-10-28T06:38:55Z</time>
      </trkpt>
      <trkpt lat="28.35287" lon="83.66683">
        <ele>3185.95</ele>
        <time>2013-10-28T06:39:27Z</time>
      </trkpt>
      <trkpt lat="28.35287" lon="83.66683">
        <ele>3186.43</ele>
        <time>2013-10-28T06:40:00Z</time>
      </trkpt>
      <trkpt lat="28.35287" lon="83.66683">
        <ele>3177.29</ele>
        <time>2013-10-28T06:40:25Z</time>
      </trkpt>
      <trkpt lat="28.35287" lon="83.66683">
        <ele>3194.6</ele>
        <time>2013-10-28T06:40:26Z</time>
      </trkpt>
      <trkpt lat="28.35287" lon="83.66683">
        <ele>3187.39</ele>
        <time>2013-10-28T06:40:27Z</time>
      </trkpt>
      <trkpt lat="28.35287" lon="83.66683">
        <ele>3182.1</ele>
        <time>2013-10-28T06:40:28Z</time>
      </trkpt>
      <trkpt lat="28.35287" lon="83.66683">
        <ele>3185.47</ele>
        <time>2013-10-28T06:40:29Z</time>
      </trkpt>
      <trkpt lat="28.35287" lon="83.66683">
        <ele>3188.35</ele>
        <time>2013-10-28T06:40:30Z</time>
      </trkpt>
      <trkpt lat="28.35287" lon="83.66683">
        <ele>3184.02</ele>
        <time>2013-10-28T06:40:35Z</time>
      </trkpt>
      <trkpt lat="28.35287" lon="83.66683">
        <ele>3188.35</ele>
        <time>2013-10-28T06:40:36Z</time>
      </trkpt>
      <trkpt lat="28.35288" lon="83.66683">
        <ele>3186.43</ele>
        <time>2013-10-28T06:40:58Z</time>
      </trkpt>
      <trkpt lat="28.35289" lon="83.66684">
        <ele>3186.43</ele>
        <time>2013-10-28T06:41:11Z</time>
      </trkpt>
      <trkpt lat="28.35289" lon="83.66684">
        <ele>3186.43</ele>
        <time>2013-10-28T06:41:37Z</time>
      </trkpt>
      <trkpt lat="28.35289" lon="83.66685">
        <ele>3186.43</ele>
        <time>2013-10-28T06:41:59Z</time>
      </trkpt>
      <trkpt lat="28.35289" lon="83.66685">
        <ele>3186.91</ele>
        <time>2013-10-28T06:42:34Z</time>
      </trkpt>
      <trkpt lat="28.35288" lon="83.66685">
        <ele>3186.91</ele>
        <time>2013-10-28T06:43:03Z</time>
      </trkpt>
      <trkpt lat="28.35288" lon="83.66685">
        <ele>3186.91</ele>
        <time>2013-10-28T06:43:32Z</time>
      </trkpt>
      <trkpt lat="28.35287" lon="83.66685">
        <ele>3187.39</ele>
        <time>2013-10-28T06:44:01Z</time>
      </trkpt>
      <trkpt lat="28.35287" lon="83.66686">
        <ele>3187.39</ele>
        <time>2013-10-28T06:44:31Z</time>
      </trkpt>
      <trkpt lat="28.35287" lon="83.66686">
        <ele>3186.91</ele>
        <time>2013-10-28T06:45:04Z</time>
      </trkpt>
      <trkpt lat="28.35286" lon="83.66687">
        <ele>3186.91</ele>
        <time>2013-10-28T06:45:22Z</time>
      </trkpt>
      <trkpt lat="28.35285" lon="83.66688">
        <ele>3187.87</ele>
        <time>2013-10-28T06:45:55Z</time>
      </trkpt>
      <trkpt lat="28.35284" lon="83.66688">
        <ele>3187.39</ele>
        <time>2013-10-28T06:46:16Z</time>
      </trkpt>
      <trkpt lat="28.35283" lon="83.66689">
        <ele>3187.39</ele>
        <time>2013-10-28T06:46:36Z</time>
      </trkpt>
      <trkpt lat="28.35284" lon="83.66689">
        <ele>3187.87</ele>
        <time>2013-10-28T06:47:08Z</time>
      </trkpt>
      <trkpt lat="28.35284" lon="83.6669">
        <ele>3187.87</ele>
        <time>2013-10-28T06:47:45Z</time>
      </trkpt>
      <trkpt lat="28.35284" lon="83.6669">
        <ele>3187.87</ele>
        <time>2013-10-28T06:48:22Z</time>
      </trkpt>
      <trkpt lat="28.35284" lon="83.6669">
        <ele>3187.87</ele>
        <time>2013-10-28T06:49:03Z</time>
      </trkpt>
      <trkpt lat="28.35284" lon="83.6669">
        <ele>3188.35</ele>
        <time>2013-10-28T06:49:38Z</time>
      </trkpt>
      <trkpt lat="28.35284" lon="83.6669">
        <ele>3188.35</ele>
        <time>2013-10-28T06:50:09Z</time>
      </trkpt>
      <trkpt lat="28.35285" lon="83.66692">
        <ele>3187.87</ele>
        <time>2013-10-28T06:50:42Z</time>
      </trkpt>
      <trkpt lat="28.35284" lon="83.66692">
        <ele>3188.83</ele>
        <time>2013-10-28T06:51:01Z</time>
      </trkpt>
      <trkpt lat="28.35284" lon="83.66691">
        <ele>3188.83</ele>
        <time>2013-10-28T06:51:27Z</time>
      </trkpt>
      <trkpt lat="28.35284" lon="83.66691">
        <ele>3188.83</ele>
        <time>2013-10-28T06:51:54Z</time>
      </trkpt>
      <trkpt lat="28.35284" lon="83.66691">
        <ele>3188.83</ele>
        <time>2013-10-28T06:52:23Z</time>
      </trkpt>
      <trkpt lat="28.35284" lon="83.66691">
        <ele>3188.35</ele>
        <time>2013-10-28T06:52:50Z</time>
      </trkpt>
      <trkpt lat="28.35284" lon="83.66691">
        <ele>3188.35</ele>
        <time>2013-10-28T06:53:20Z</time>
      </trkpt>
      <trkpt lat="28.35285" lon="83.66691">
        <ele>3187.87</ele>
        <time>2013-10-28T06:53:53Z</time>
      </trkpt>
      <trkpt lat="28.35285" lon="83.6669">
        <ele>3187.87</ele>
        <time>2013-10-28T06:54:26Z</time>
      </trkpt>
      <trkpt lat="28.35285" lon="83.6669">
        <ele>3187.87</ele>
        <time>2013-10-28T06:55:01Z</time>
      </trkpt>
      <trkpt lat="28.35285" lon="83.6669">
        <ele>3187.39</ele>
        <time>2013-10-28T06:55:33Z</time>
      </trkpt>
      <trkpt lat="28.35285" lon="83.6669">
        <ele>3186.91</ele>
        <time>2013-10-28T06:56:03Z</time>
      </trkpt>
      <trkpt lat="28.35284" lon="83.66689">
        <ele>3186.91</ele>
        <time>2013-10-28T06:56:32Z</time>
      </trkpt>
      <trkpt lat="28.35284" lon="83.66689">
        <ele>3186.91</ele>
        <time>2013-10-28T06:57:05Z</time>
      </trkpt>
      <trkpt lat="28.35284" lon="83.66689">
        <ele>3186.91</ele>
        <time>2013-10-28T06:57:34Z</time>
      </trkpt>
      <trkpt lat="28.35284" lon="83.66689">
        <ele>3187.39</ele>
        <time>2013-10-28T06:58:01Z</time>
      </trkpt>
      <trkpt lat="28.35284" lon="83.66689">
        <ele>3186.91</ele>
        <time>2013-10-28T06:58:37Z</time>
      </trkpt>
      <trkpt lat="28.35283" lon="83.66688">
        <ele>3187.39</ele>
        <time>2013-10-28T06:59:08Z</time>
      </trkpt>
      <trkpt lat="28.35284" lon="83.66688">
        <ele>3186.91</ele>
        <time>2013-10-28T06:59:31Z</time>
      </trkpt>
      <trkpt lat="28.35285" lon="83.66688">
        <ele>3187.39</ele>
        <time>2013-10-28T06:59:55Z</time>
      </trkpt>
      <trkpt lat="28.35285" lon="83.66688">
        <ele>3186.91</ele>
        <time>2013-10-28T07:00:21Z</time>
      </trkpt>
      <trkpt lat="28.35284" lon="83.66687">
        <ele>3186.91</ele>
        <time>2013-10-28T07:00:48Z</time>
      </trkpt>
      <trkpt lat="28.35284" lon="83.66687">
        <ele>3186.91</ele>
        <time>2013-10-28T07:01:21Z</time>
      </trkpt>
      <trkpt lat="28.35284" lon="83.66687">
        <ele>3187.39</ele>
        <time>2013-10-28T07:01:52Z</time>
      </trkpt>
      <trkpt lat="28.35284" lon="83.66687">
        <ele>3186.91</ele>
        <time>2013-10-28T07:02:26Z</time>
      </trkpt>
      <trkpt lat="28.35284" lon="83.66687">
        <ele>3186.91</ele>
        <time>2013-10-28T07:02:56Z</time>
      </trkpt>
      <trkpt lat="28.35284" lon="83.66687">
        <ele>3186.91</ele>
        <time>2013-10-28T07:03:27Z</time>
      </trkpt>
      <trkpt lat="28.35283" lon="83.66687">
        <ele>3186.91</ele>
        <time>2013-10-28T07:03:59Z</time>
      </trkpt>
      <trkpt lat="28.35282" lon="83.66688">
        <ele>3186.43</ele>
        <time>2013-10-28T07:04:24Z</time>
      </trkpt>
      <trkpt lat="28.35281" lon="83.66688">
        <ele>3186.91</ele>
        <time>2013-10-28T07:04:56Z</time>
      </trkpt>
      <trkpt lat="28.3528" lon="83.66689">
        <ele>3186.43</ele>
        <time>2013-10-28T07:05:25Z</time>
      </trkpt>
      <trkpt lat="28.3528" lon="83.66689">
        <ele>3186.43</ele>
        <time>2013-10-28T07:05:59Z</time>
      </trkpt>
      <trkpt lat="28.3528" lon="83.66689">
        <ele>3186.43</ele>
        <time>2013-10-28T07:06:31Z</time>
      </trkpt>
      <trkpt lat="28.3528" lon="83.66689">
        <ele>3185.95</ele>
        <time>2013-10-28T07:06:59Z</time>
      </trkpt>
      <trkpt lat="28.35279" lon="83.66689">
        <ele>3186.43</ele>
        <time>2013-10-28T07:07:35Z</time>
      </trkpt>
      <trkpt lat="28.35279" lon="83.66689">
        <ele>3186.43</ele>
        <time>2013-10-28T07:08:00Z</time>
      </trkpt>
      <trkpt lat="28.35279" lon="83.66689">
        <ele>3185.95</ele>
        <time>2013-10-28T07:08:33Z</time>
      </trkpt>
      <trkpt lat="28.35279" lon="83.66689">
        <ele>3186.43</ele>
        <time>2013-10-28T07:09:06Z</time>
      </trkpt>
      <trkpt lat="28.35279" lon="83.66689">
        <ele>3185.47</ele>
        <time>2013-10-28T07:09:27Z</time>
      </trkpt>
      <trkpt lat="28.35279" lon="83.66689">
        <ele>3186.43</ele>
        <time>2013-10-28T07:09:42Z</time>
      </trkpt>
      <trkpt lat="28.35278" lon="83.6669">
        <ele>3186.43</ele>
        <time>2013-10-28T07:10:13Z</time>
      </trkpt>
      <trkpt lat="28.35278" lon="83.66689">
        <ele>3185.95</ele>
        <time>2013-10-28T07:10:41Z</time>
      </trkpt>
      <trkpt lat="28.35278" lon="83.6669">
        <ele>3185.95</ele>
        <time>2013-10-28T07:11:11Z</time>
      </trkpt>
      <trkpt lat="28.35277" lon="83.6669">
        <ele>3185.47</ele>
        <time>2013-10-28T07:11:47Z</time>
      </trkpt>
      <trkpt lat="28.35277" lon="83.6669">
        <ele>3185.47</ele>
        <time>2013-10-28T07:12:21Z</time>
      </trkpt>
      <trkpt lat="28.35277" lon="83.6669">
        <ele>3184.98</ele>
        <time>2013-10-28T07:12:54Z</time>
      </trkpt>
      <trkpt lat="28.35277" lon="83.6669">
        <ele>3184.98</ele>
        <time>2013-10-28T07:13:29Z</time>
      </trkpt>
      <trkpt lat="28.35277" lon="83.6669">
        <ele>3184.5</ele>
        <time>2013-10-28T07:14:01Z</time>
      </trkpt>
      <trkpt lat="28.35277" lon="83.6669">
        <ele>3184.5</ele>
        <time>2013-10-28T07:14:29Z</time>
      </trkpt>
      <trkpt lat="28.35277" lon="83.6669">
        <ele>3184.98</ele>
        <time>2013-10-28T07:14:50Z</time>
      </trkpt>
      <trkpt lat="28.35278" lon="83.66689">
        <ele>3184.5</ele>
        <time>2013-10-28T07:15:15Z</time>
      </trkpt>
      <trkpt lat="28.35278" lon="83.66689">
        <ele>3184.98</ele>
        <time>2013-10-28T07:15:42Z</time>
      </trkpt>
      <trkpt lat="28.35279" lon="83.66689">
        <ele>3184.98</ele>
        <time>2013-10-28T07:15:57Z</time>
      </trkpt>
      <trkpt lat="28.35279" lon="83.66689">
        <ele>3184.98</ele>
        <time>2013-10-28T07:16:13Z</time>
      </trkpt>
      <trkpt lat="28.35279" lon="83.66689">
        <ele>3184.98</ele>
        <time>2013-10-28T07:16:37Z</time>
      </trkpt>
      <trkpt lat="28.35279" lon="83.66689">
        <ele>3184.98</ele>
        <time>2013-10-28T07:17:03Z</time>
      </trkpt>
      <trkpt lat="28.3528" lon="83.66689">
        <ele>3184.98</ele>
        <time>2013-10-28T07:17:28Z</time>
      </trkpt>
      <trkpt lat="28.35282" lon="83.66687">
        <ele>3184.98</ele>
        <time>2013-10-28T07:17:52Z</time>
      </trkpt>
      <trkpt lat="28.35282" lon="83.66687">
        <ele>3185.47</ele>
        <time>2013-10-28T07:18:09Z</time>
      </trkpt>
      <trkpt lat="28.35283" lon="83.66687">
        <ele>3184.98</ele>
        <time>2013-10-28T07:18:21Z</time>
      </trkpt>
      <trkpt lat="28.35287" lon="83.66689">
        <ele>3185.47</ele>
        <time>2013-10-28T07:18:34Z</time>
      </trkpt>
      <trkpt lat="28.35288" lon="83.66689">
        <ele>3184.5</ele>
        <time>2013-10-28T07:18:48Z</time>
      </trkpt>
      <trkpt lat="28.35289" lon="83.6669">
        <ele>3183.06</ele>
        <time>2013-10-28T07:19:03Z</time>
      </trkpt>
      <trkpt lat="28.3529" lon="83.66691">
        <ele>3183.06</ele>
        <time>2013-10-28T07:19:16Z</time>
      </trkpt>
      <trkpt lat="28.3529" lon="83.66692">
        <ele>3181.62</ele>
        <time>2013-10-28T07:19:34Z</time>
      </trkpt>
      <trkpt lat="28.35291" lon="83.66693">
        <ele>3181.14</ele>
        <time>2013-10-28T07:19:51Z</time>
      </trkpt>
      <trkpt lat="28.35292" lon="83.66694">
        <ele>3181.14</ele>
        <time>2013-10-28T07:20:07Z</time>
      </trkpt>
      <trkpt lat="28.35295" lon="83.66696">
        <ele>3180.18</ele>
        <time>2013-10-28T07:20:29Z</time>
      </trkpt>
      <trkpt lat="28.35296" lon="83.66696">
        <ele>3179.7</ele>
        <time>2013-10-28T07:20:34Z</time>
      </trkpt>
      <trkpt lat="28.35298" lon="83.66702">
        <ele>3179.7</ele>
        <time>2013-10-28T07:20:40Z</time>
      </trkpt>
      <trkpt lat="28.35316" lon="83.66711">
        <ele>3179.7</ele>
        <time>2013-10-28T07:20:56Z</time>
      </trkpt>
      <trkpt lat="28.35324" lon="83.66724">
        <ele>3179.7</ele>
        <time>2013-10-28T07:21:09Z</time>
      </trkpt>
      <trkpt lat="28.35327" lon="83.66735">
        <ele>3179.22</ele>
        <time>2013-10-28T07:21:22Z</time>
      </trkpt>
      <trkpt lat="28.35338" lon="83.6673">
        <ele>3178.74</ele>
        <time>2013-10-28T07:21:39Z</time>
      </trkpt>
      <trkpt lat="28.35341" lon="83.66731">
        <ele>3176.81</ele>
        <time>2013-10-28T07:21:57Z</time>
      </trkpt>
      <trkpt lat="28.35348" lon="83.66728">
        <ele>3175.37</ele>
        <time>2013-10-28T07:22:15Z</time>
      </trkpt>
      <trkpt lat="28.35355" lon="83.66722">
        <ele>3178.26</ele>
        <time>2013-10-28T07:22:30Z</time>
      </trkpt>
      <trkpt lat="28.35363" lon="83.66723">
        <ele>3179.7</ele>
        <time>2013-10-28T07:22:44Z</time>
      </trkpt>
      <trkpt lat="28.35369" lon="83.66729">
        <ele>3182.1</ele>
        <time>2013-10-28T07:22:57Z</time>
      </trkpt>
      <trkpt lat="28.35371" lon="83.66733">
        <ele>3181.62</ele>
        <time>2013-10-28T07:23:24Z</time>
      </trkpt>
      <trkpt lat="28.35371" lon="83.66735">
        <ele>3182.1</ele>
        <time>2013-10-28T07:23:51Z</time>
      </trkpt>
      <trkpt lat="28.35371" lon="83.66735">
        <ele>3182.1</ele>
        <time>2013-10-28T07:24:22Z</time>
      </trkpt>
      <trkpt lat="28.3537" lon="83.66737">
        <ele>3182.58</ele>
        <time>2013-10-28T07:24:40Z</time>
      </trkpt>
      <trkpt lat="28.35372" lon="83.66738">
        <ele>3182.58</ele>
        <time>2013-10-28T07:24:54Z</time>
      </trkpt>
      <trkpt lat="28.35383" lon="83.66744">
        <ele>3184.02</ele>
        <time>2013-10-28T07:25:09Z</time>
      </trkpt>
      <trkpt lat="28.35395" lon="83.66743">
        <ele>3180.66</ele>
        <time>2013-10-28T07:25:24Z</time>
      </trkpt>
      <trkpt lat="28.35405" lon="83.66747">
        <ele>3178.26</ele>
        <time>2013-10-28T07:25:40Z</time>
      </trkpt>
      <trkpt lat="28.3542" lon="83.66754">
        <ele>3175.85</ele>
        <time>2013-10-28T07:25:55Z</time>
      </trkpt>
      <trkpt lat="28.35433" lon="83.66763">
        <ele>3175.37</ele>
        <time>2013-10-28T07:26:07Z</time>
      </trkpt>
      <trkpt lat="28.3544" lon="83.66771">
        <ele>3175.37</ele>
        <time>2013-10-28T07:26:21Z</time>
      </trkpt>
      <trkpt lat="28.35448" lon="83.66781">
        <ele>3175.85</ele>
        <time>2013-10-28T07:26:35Z</time>
      </trkpt>
      <trkpt lat="28.35452" lon="83.66785">
        <ele>3176.33</ele>
        <time>2013-10-28T07:26:54Z</time>
      </trkpt>
      <trkpt lat="28.35458" lon="83.66792">
        <ele>3177.78</ele>
        <time>2013-10-28T07:27:11Z</time>
      </trkpt>
      <trkpt lat="28.35465" lon="83.66805">
        <ele>3180.18</ele>
        <time>2013-10-28T07:27:25Z</time>
      </trkpt>
      <trkpt lat="28.35469" lon="83.66814">
        <ele>3182.1</ele>
        <time>2013-10-28T07:27:41Z</time>
      </trkpt>
      <trkpt lat="28.35474" lon="83.66825">
        <ele>3180.66</ele>
        <time>2013-10-28T07:27:52Z</time>
      </trkpt>
      <trkpt lat="28.35477" lon="83.66832">
        <ele>3180.66</ele>
        <time>2013-10-28T07:28:08Z</time>
      </trkpt>
      <trkpt lat="28.35481" lon="83.66835">
        <ele>3179.22</ele>
        <time>2013-10-28T07:28:17Z</time>
      </trkpt>
      <trkpt lat="28.35489" lon="83.66844">
        <ele>3178.74</ele>
        <time>2013-10-28T07:28:28Z</time>
      </trkpt>
      <trkpt lat="28.3549" lon="83.66848">
        <ele>3178.74</ele>
        <time>2013-10-28T07:28:32Z</time>
      </trkpt>
      <trkpt lat="28.3549" lon="83.66852">
        <ele>3178.26</ele>
        <time>2013-10-28T07:28:36Z</time>
      </trkpt>
      <trkpt lat="28.35494" lon="83.66866">
        <ele>3178.26</ele>
        <time>2013-10-28T07:28:51Z</time>
      </trkpt>
      <trkpt lat="28.35498" lon="83.66872">
        <ele>3176.81</ele>
        <time>2013-10-28T07:29:04Z</time>
      </trkpt>
      <trkpt lat="28.35506" lon="83.66878">
        <ele>3176.81</ele>
        <time>2013-10-28T07:29:17Z</time>
      </trkpt>
      <trkpt lat="28.35507" lon="83.6688">
        <ele>3176.33</ele>
        <time>2013-10-28T07:29:29Z</time>
      </trkpt>
      <trkpt lat="28.35508" lon="83.66882">
        <ele>3176.33</ele>
        <time>2013-10-28T07:29:40Z</time>
      </trkpt>
      <trkpt lat="28.35507" lon="83.66893">
        <ele>3176.33</ele>
        <time>2013-10-28T07:29:52Z</time>
      </trkpt>
      <trkpt lat="28.35504" lon="83.66898">
        <ele>3176.33</ele>
        <time>2013-10-28T07:29:57Z</time>
      </trkpt>
      <trkpt lat="28.35496" lon="83.66909">
        <ele>3175.85</ele>
        <time>2013-10-28T07:30:10Z</time>
      </trkpt>
      <trkpt lat="28.35496" lon="83.66917">
        <ele>3175.37</ele>
        <time>2013-10-28T07:30:24Z</time>
      </trkpt>
      <trkpt lat="28.35499" lon="83.66923">
        <ele>3174.89</ele>
        <time>2013-10-28T07:30:37Z</time>
      </trkpt>
      <trkpt lat="28.35495" lon="83.66926">
        <ele>3174.89</ele>
        <time>2013-10-28T07:30:44Z</time>
      </trkpt>
      <trkpt lat="28.3549" lon="83.66936">
        <ele>3174.89</ele>
        <time>2013-10-28T07:30:55Z</time>
      </trkpt>
      <trkpt lat="28.3549" lon="83.66939">
        <ele>3174.41</ele>
        <time>2013-10-28T07:30:58Z</time>
      </trkpt>
      <trkpt lat="28.35494" lon="83.66949">
        <ele>3173.93</ele>
        <time>2013-10-28T07:31:06Z</time>
      </trkpt>
      <trkpt lat="28.35489" lon="83.6696">
        <ele>3174.41</ele>
        <time>2013-10-28T07:31:19Z</time>
      </trkpt>
      <trkpt lat="28.35485" lon="83.66966">
        <ele>3172.01</ele>
        <time>2013-10-28T07:31:36Z</time>
      </trkpt>
      <trkpt lat="28.35482" lon="83.66966">
        <ele>3172.01</ele>
        <time>2013-10-28T07:31:54Z</time>
      </trkpt>
      <trkpt lat="28.35481" lon="83.6697">
        <ele>3171.53</ele>
        <time>2013-10-28T07:32:14Z</time>
      </trkpt>
      <trkpt lat="28.35481" lon="83.66971">
        <ele>3169.12</ele>
        <time>2013-10-28T07:32:29Z</time>
      </trkpt>
      <trkpt lat="28.35481" lon="83.66972">
        <ele>3165.76</ele>
        <time>2013-10-28T07:32:47Z</time>
      </trkpt>
      <trkpt lat="28.35486" lon="83.66975">
        <ele>3163.36</ele>
        <time>2013-10-28T07:33:04Z</time>
      </trkpt>
      <trkpt lat="28.35489" lon="83.66979">
        <ele>3161.43</ele>
        <time>2013-10-28T07:33:21Z</time>
      </trkpt>
      <trkpt lat="28.35501" lon="83.6698">
        <ele>3159.99</ele>
        <time>2013-10-28T07:33:37Z</time>
      </trkpt>
      <trkpt lat="28.35519" lon="83.66977">
        <ele>3160.47</ele>
        <time>2013-10-28T07:33:51Z</time>
      </trkpt>
      <trkpt lat="28.35524" lon="83.66986">
        <ele>3158.07</ele>
        <time>2013-10-28T07:34:06Z</time>
      </trkpt>
      <trkpt lat="28.35526" lon="83.66989">
        <ele>3156.63</ele>
        <time>2013-10-28T07:34:24Z</time>
      </trkpt>
      <trkpt lat="28.35525" lon="83.66991">
        <ele>3155.18</ele>
        <time>2013-10-28T07:34:48Z</time>
      </trkpt>
      <trkpt lat="28.35526" lon="83.66996">
        <ele>3153.74</ele>
        <time>2013-10-28T07:35:01Z</time>
      </trkpt>
      <trkpt lat="28.35526" lon="83.66996">
        <ele>3153.26</ele>
        <time>2013-10-28T07:35:21Z</time>
      </trkpt>
      <trkpt lat="28.35526" lon="83.67">
        <ele>3152.3</ele>
        <time>2013-10-28T07:35:37Z</time>
      </trkpt>
      <trkpt lat="28.35527" lon="83.67001">
        <ele>3152.3</ele>
        <time>2013-10-28T07:36:10Z</time>
      </trkpt>
      <trkpt lat="28.35534" lon="83.67011">
        <ele>3149.9</ele>
        <time>2013-10-28T07:36:24Z</time>
      </trkpt>
      <trkpt lat="28.35564" lon="83.66993">
        <ele>3148.94</ele>
        <time>2013-10-28T07:36:41Z</time>
      </trkpt>
      <trkpt lat="28.35577" lon="83.66987">
        <ele>3148.94</ele>
        <time>2013-10-28T07:36:55Z</time>
      </trkpt>
      <trkpt lat="28.35581" lon="83.66988">
        <ele>3146.05</ele>
        <time>2013-10-28T07:37:12Z</time>
      </trkpt>
      <trkpt lat="28.35584" lon="83.66991">
        <ele>3144.13</ele>
        <time>2013-10-28T07:37:28Z</time>
      </trkpt>
      <trkpt lat="28.35587" lon="83.67">
        <ele>3143.17</ele>
        <time>2013-10-28T07:37:37Z</time>
      </trkpt>
      <trkpt lat="28.35593" lon="83.67007">
        <ele>3144.13</ele>
        <time>2013-10-28T07:37:53Z</time>
      </trkpt>
      <trkpt lat="28.35599" lon="83.67011">
        <ele>3144.13</ele>
        <time>2013-10-28T07:38:06Z</time>
      </trkpt>
      <trkpt lat="28.35609" lon="83.67015">
        <ele>3142.69</ele>
        <time>2013-10-28T07:38:21Z</time>
      </trkpt>
      <trkpt lat="28.35617" lon="83.67018">
        <ele>3141.73</ele>
        <time>2013-10-28T07:38:36Z</time>
      </trkpt>
      <trkpt lat="28.35618" lon="83.6702">
        <ele>3139.32</ele>
        <time>2013-10-28T07:38:57Z</time>
      </trkpt>
      <trkpt lat="28.35622" lon="83.67024">
        <ele>3138.36</ele>
        <time>2013-10-28T07:39:09Z</time>
      </trkpt>
      <trkpt lat="28.35627" lon="83.67029">
        <ele>3135.96</ele>
        <time>2013-10-28T07:39:21Z</time>
      </trkpt>
      <trkpt lat="28.3563" lon="83.67041">
        <ele>3134.52</ele>
        <time>2013-10-28T07:39:36Z</time>
      </trkpt>
      <trkpt lat="28.35636" lon="83.67046">
        <ele>3133.55</ele>
        <time>2013-10-28T07:39:47Z</time>
      </trkpt>
      <trkpt lat="28.3564" lon="83.67055">
        <ele>3131.63</ele>
        <time>2013-10-28T07:40:03Z</time>
      </trkpt>
      <trkpt lat="28.35637" lon="83.67065">
        <ele>3129.23</ele>
        <time>2013-10-28T07:40:19Z</time>
      </trkpt>
      <trkpt lat="28.35638" lon="83.67073">
        <ele>3127.31</ele>
        <time>2013-10-28T07:40:38Z</time>
      </trkpt>
      <trkpt lat="28.35637" lon="83.67077">
        <ele>3125.38</ele>
        <time>2013-10-28T07:40:57Z</time>
      </trkpt>
      <trkpt lat="28.35638" lon="83.67082">
        <ele>3123.94</ele>
        <time>2013-10-28T07:41:15Z</time>
      </trkpt>
      <trkpt lat="28.35639" lon="83.67084">
        <ele>3122.98</ele>
        <time>2013-10-28T07:41:41Z</time>
      </trkpt>
      <trkpt lat="28.35639" lon="83.67085">
        <ele>3120.58</ele>
        <time>2013-10-28T07:42:00Z</time>
      </trkpt>
      <trkpt lat="28.35642" lon="83.67086">
        <ele>3118.65</ele>
        <time>2013-10-28T07:42:23Z</time>
      </trkpt>
      <trkpt lat="28.35642" lon="83.67085">
        <ele>3116.25</ele>
        <time>2013-10-28T07:42:45Z</time>
      </trkpt>
      <trkpt lat="28.35647" lon="83.67087">
        <ele>3114.81</ele>
        <time>2013-10-28T07:43:03Z</time>
      </trkpt>
      <trkpt lat="28.3565" lon="83.67089">
        <ele>3111.92</ele>
        <time>2013-10-28T07:43:24Z</time>
      </trkpt>
      <trkpt lat="28.35656" lon="83.6709">
        <ele>3110</ele>
        <time>2013-10-28T07:43:45Z</time>
      </trkpt>
      <trkpt lat="28.3566" lon="83.67092">
        <ele>3108.08</ele>
        <time>2013-10-28T07:44:04Z</time>
      </trkpt>
      <trkpt lat="28.35663" lon="83.67092">
        <ele>3106.64</ele>
        <time>2013-10-28T07:44:25Z</time>
      </trkpt>
      <trkpt lat="28.35666" lon="83.67093">
        <ele>3104.23</ele>
        <time>2013-10-28T07:44:45Z</time>
      </trkpt>
      <trkpt lat="28.35667" lon="83.67099">
        <ele>3102.31</ele>
        <time>2013-10-28T07:45:06Z</time>
      </trkpt>
      <trkpt lat="28.35668" lon="83.67104">
        <ele>3101.83</ele>
        <time>2013-10-28T07:45:13Z</time>
      </trkpt>
      <trkpt lat="28.35677" lon="83.67122">
        <ele>3098.47</ele>
        <time>2013-10-28T07:45:30Z</time>
      </trkpt>
      <trkpt lat="28.35687" lon="83.67128">
        <ele>3096.54</ele>
        <time>2013-10-28T07:45:50Z</time>
      </trkpt>
      <trkpt lat="28.35692" lon="83.67129">
        <ele>3096.54</ele>
        <time>2013-10-28T07:46:06Z</time>
      </trkpt>
      <trkpt lat="28.35699" lon="83.67127">
        <ele>3097.99</ele>
        <time>2013-10-28T07:46:23Z</time>
      </trkpt>
      <trkpt lat="28.35705" lon="83.67126">
        <ele>3100.39</ele>
        <time>2013-10-28T07:46:43Z</time>
      </trkpt>
      <trkpt lat="28.35716" lon="83.67121">
        <ele>3100.39</ele>
        <time>2013-10-28T07:47:03Z</time>
      </trkpt>
      <trkpt lat="28.35719" lon="83.6712">
        <ele>3099.43</ele>
        <time>2013-10-28T07:47:29Z</time>
      </trkpt>
      <trkpt lat="28.35727" lon="83.67112">
        <ele>3097.99</ele>
        <time>2013-10-28T07:47:49Z</time>
      </trkpt>
      <trkpt lat="28.35737" lon="83.67113">
        <ele>3098.95</ele>
        <time>2013-10-28T07:48:07Z</time>
      </trkpt>
      <trkpt lat="28.3575" lon="83.67111">
        <ele>3098.95</ele>
        <time>2013-10-28T07:48:26Z</time>
      </trkpt>
      <trkpt lat="28.35753" lon="83.67104">
        <ele>3100.87</ele>
        <time>2013-10-28T07:48:48Z</time>
      </trkpt>
      <trkpt lat="28.35758" lon="83.67101">
        <ele>3102.79</ele>
        <time>2013-10-28T07:49:10Z</time>
      </trkpt>
      <trkpt lat="28.35767" lon="83.67101">
        <ele>3104.23</ele>
        <time>2013-10-28T07:49:33Z</time>
      </trkpt>
      <trkpt lat="28.35774" lon="83.671">
        <ele>3105.68</ele>
        <time>2013-10-28T07:49:50Z</time>
      </trkpt>
      <trkpt lat="28.35783" lon="83.67095">
        <ele>3108.08</ele>
        <time>2013-10-28T07:50:10Z</time>
      </trkpt>
      <trkpt lat="28.3579" lon="83.67094">
        <ele>3109.52</ele>
        <time>2013-10-28T07:50:30Z</time>
      </trkpt>
      <trkpt lat="28.35798" lon="83.67094">
        <ele>3110</ele>
        <time>2013-10-28T07:50:49Z</time>
      </trkpt>
      <trkpt lat="28.35813" lon="83.67092">
        <ele>3110.48</ele>
        <time>2013-10-28T07:51:11Z</time>
      </trkpt>
      <trkpt lat="28.35824" lon="83.67094">
        <ele>3110.48</ele>
        <time>2013-10-28T07:51:28Z</time>
      </trkpt>
      <trkpt lat="28.35835" lon="83.67098">
        <ele>3111.44</ele>
        <time>2013-10-28T07:51:45Z</time>
      </trkpt>
      <trkpt lat="28.3585" lon="83.67095">
        <ele>3112.89</ele>
        <time>2013-10-28T07:52:04Z</time>
      </trkpt>
      <trkpt lat="28.35854" lon="83.671">
        <ele>3113.37</ele>
        <time>2013-10-28T07:52:20Z</time>
      </trkpt>
      <trkpt lat="28.35862" lon="83.67102">
        <ele>3114.81</ele>
        <time>2013-10-28T07:52:33Z</time>
      </trkpt>
      <trkpt lat="28.35864" lon="83.67102">
        <ele>3117.21</ele>
        <time>2013-10-28T07:52:47Z</time>
      </trkpt>
      <trkpt lat="28.35865" lon="83.67101">
        <ele>3116.73</ele>
        <time>2013-10-28T07:53:09Z</time>
      </trkpt>
      <trkpt lat="28.35871" lon="83.67107">
        <ele>3117.69</ele>
        <time>2013-10-28T07:53:26Z</time>
      </trkpt>
      <trkpt lat="28.35876" lon="83.6711">
        <ele>3118.17</ele>
        <time>2013-10-28T07:53:37Z</time>
      </trkpt>
      <trkpt lat="28.3588" lon="83.67113">
        <ele>3118.65</ele>
        <time>2013-10-28T07:53:43Z</time>
      </trkpt>
      <trkpt lat="28.35883" lon="83.67111">
        <ele>3118.65</ele>
        <time>2013-10-28T07:53:45Z</time>
      </trkpt>
      <trkpt lat="28.35887" lon="83.67115">
        <ele>3118.17</ele>
        <time>2013-10-28T07:53:52Z</time>
      </trkpt>
      <trkpt lat="28.35892" lon="83.67121">
        <ele>3118.65</ele>
        <time>2013-10-28T07:54:07Z</time>
      </trkpt>
      <trkpt lat="28.35895" lon="83.67134">
        <ele>3118.65</ele>
        <time>2013-10-28T07:54:23Z</time>
      </trkpt>
      <trkpt lat="28.35908" lon="83.67147">
        <ele>3118.65</ele>
        <time>2013-10-28T07:54:42Z</time>
      </trkpt>
      <trkpt lat="28.35918" lon="83.67154">
        <ele>3119.62</ele>
        <time>2013-10-28T07:54:59Z</time>
      </trkpt>
      <trkpt lat="28.35928" lon="83.67167">
        <ele>3121.06</ele>
        <time>2013-10-28T07:55:16Z</time>
      </trkpt>
      <trkpt lat="28.35934" lon="83.67169">
        <ele>3122.02</ele>
        <time>2013-10-28T07:55:32Z</time>
      </trkpt>
      <trkpt lat="28.35937" lon="83.67171">
        <ele>3123.46</ele>
        <time>2013-10-28T07:55:46Z</time>
      </trkpt>
      <trkpt lat="28.35945" lon="83.67175">
        <ele>3123.46</ele>
        <time>2013-10-28T07:55:59Z</time>
      </trkpt>
      <trkpt lat="28.35948" lon="83.67181">
        <ele>3124.42</ele>
        <time>2013-10-28T07:56:11Z</time>
      </trkpt>
      <trkpt lat="28.35953" lon="83.67188">
        <ele>3125.38</ele>
        <time>2013-10-28T07:56:26Z</time>
      </trkpt>
      <trkpt lat="28.35951" lon="83.672">
        <ele>3126.83</ele>
        <time>2013-10-28T07:56:42Z</time>
      </trkpt>
      <trkpt lat="28.35952" lon="83.67206">
        <ele>3126.83</ele>
        <time>2013-10-28T07:56:47Z</time>
      </trkpt>
      <trkpt lat="28.35958" lon="83.67213">
        <ele>3127.79</ele>
        <time>2013-10-28T07:56:58Z</time>
      </trkpt>
      <trkpt lat="28.35959" lon="83.67216">
        <ele>3128.75</ele>
        <time>2013-10-28T07:57:11Z</time>
      </trkpt>
      <trkpt lat="28.35962" lon="83.67218">
        <ele>3129.71</ele>
        <time>2013-10-28T07:57:28Z</time>
      </trkpt>
      <trkpt lat="28.35963" lon="83.67221">
        <ele>3130.19</ele>
        <time>2013-10-28T07:57:41Z</time>
      </trkpt>
      <trkpt lat="28.35963" lon="83.67221">
        <ele>3130.19</ele>
        <time>2013-10-28T07:58:01Z</time>
      </trkpt>
      <trkpt lat="28.35964" lon="83.67223">
        <ele>3130.19</ele>
        <time>2013-10-28T07:58:15Z</time>
      </trkpt>
      <trkpt lat="28.35962" lon="83.67223">
        <ele>3130.67</ele>
        <time>2013-10-28T07:58:35Z</time>
      </trkpt>
      <trkpt lat="28.3596" lon="83.67221">
        <ele>3130.19</ele>
        <time>2013-10-28T07:58:53Z</time>
      </trkpt>
      <trkpt lat="28.3596" lon="83.67222">
        <ele>3130.19</ele>
        <time>2013-10-28T07:59:12Z</time>
      </trkpt>
      <trkpt lat="28.3596" lon="83.67223">
        <ele>3130.67</ele>
        <time>2013-10-28T07:59:32Z</time>
      </trkpt>
      <trkpt lat="28.35961" lon="83.67224">
        <ele>3130.67</ele>
        <time>2013-10-28T07:59:55Z</time>
      </trkpt>
      <trkpt lat="28.3596" lon="83.67224">
        <ele>3131.15</ele>
        <time>2013-10-28T08:00:13Z</time>
      </trkpt>
      <trkpt lat="28.3596" lon="83.67224">
        <ele>3131.15</ele>
        <time>2013-10-28T08:00:43Z</time>
      </trkpt>
      <trkpt lat="28.3596" lon="83.67224">
        <ele>3131.63</ele>
        <time>2013-10-28T08:01:10Z</time>
      </trkpt>
      <trkpt lat="28.3596" lon="83.67224">
        <ele>3132.11</ele>
        <time>2013-10-28T08:01:26Z</time>
      </trkpt>
      <trkpt lat="28.3596" lon="83.67224">
        <ele>3132.11</ele>
        <time>2013-10-28T08:01:47Z</time>
      </trkpt>
      <trkpt lat="28.3596" lon="83.67225">
        <ele>3132.59</ele>
        <time>2013-10-28T08:02:03Z</time>
      </trkpt>
      <trkpt lat="28.35961" lon="83.67227">
        <ele>3132.59</ele>
        <time>2013-10-28T08:02:26Z</time>
      </trkpt>
      <trkpt lat="28.3596" lon="83.67226">
        <ele>3132.59</ele>
        <time>2013-10-28T08:02:52Z</time>
      </trkpt>
      <trkpt lat="28.3596" lon="83.67226">
        <ele>3133.07</ele>
        <time>2013-10-28T08:03:21Z</time>
      </trkpt>
      <trkpt lat="28.35961" lon="83.67226">
        <ele>3133.07</ele>
        <time>2013-10-28T08:03:45Z</time>
      </trkpt>
      <trkpt lat="28.35961" lon="83.67226">
        <ele>3133.07</ele>
        <time>2013-10-28T08:04:19Z</time>
      </trkpt>
      <trkpt lat="28.35962" lon="83.67227">
        <ele>3133.55</ele>
        <time>2013-10-28T08:04:50Z</time>
      </trkpt>
      <trkpt lat="28.35961" lon="83.67227">
        <ele>3133.55</ele>
        <time>2013-10-28T08:05:11Z</time>
      </trkpt>
      <trkpt lat="28.3596" lon="83.67226">
        <ele>3133.55</ele>
        <time>2013-10-28T08:05:27Z</time>
      </trkpt>
      <trkpt lat="28.3596" lon="83.67226">
        <ele>3133.55</ele>
        <time>2013-10-28T08:05:40Z</time>
      </trkpt>
      <trkpt lat="28.35962" lon="83.67233">
        <ele>3133.07</ele>
        <time>2013-10-28T08:05:52Z</time>
      </trkpt>
      <trkpt lat="28.35963" lon="83.67245">
        <ele>3133.55</ele>
        <time>2013-10-28T08:06:01Z</time>
      </trkpt>
      <trkpt lat="28.35967" lon="83.6726">
        <ele>3135</ele>
        <time>2013-10-28T08:06:18Z</time>
      </trkpt>
      <trkpt lat="28.35976" lon="83.67276">
        <ele>3136.44</ele>
        <time>2013-10-28T08:06:34Z</time>
      </trkpt>
      <trkpt lat="28.35982" lon="83.67279">
        <ele>3138.84</ele>
        <time>2013-10-28T08:06:50Z</time>
      </trkpt>
      <trkpt lat="28.35992" lon="83.67281">
        <ele>3139.8</ele>
        <time>2013-10-28T08:07:03Z</time>
      </trkpt>
      <trkpt lat="28.36005" lon="83.67281">
        <ele>3140.76</ele>
        <time>2013-10-28T08:07:22Z</time>
      </trkpt>
      <trkpt lat="28.36016" lon="83.67278">
        <ele>3142.21</ele>
        <time>2013-10-28T08:07:36Z</time>
      </trkpt>
      <trkpt lat="28.36028" lon="83.67269">
        <ele>3143.17</ele>
        <time>2013-10-28T08:07:52Z</time>
      </trkpt>
      <trkpt lat="28.36036" lon="83.67265">
        <ele>3144.13</ele>
        <time>2013-10-28T08:08:06Z</time>
      </trkpt>
      <trkpt lat="28.36045" lon="83.67266">
        <ele>3146.05</ele>
        <time>2013-10-28T08:08:20Z</time>
      </trkpt>
      <trkpt lat="28.36057" lon="83.67265">
        <ele>3146.53</ele>
        <time>2013-10-28T08:08:37Z</time>
      </trkpt>
      <trkpt lat="28.36062" lon="83.67266">
        <ele>3148.46</ele>
        <time>2013-10-28T08:08:53Z</time>
      </trkpt>
      <trkpt lat="28.36073" lon="83.67264">
        <ele>3149.42</ele>
        <time>2013-10-28T08:09:07Z</time>
      </trkpt>
      <trkpt lat="28.36084" lon="83.67269">
        <ele>3151.34</ele>
        <time>2013-10-28T08:09:23Z</time>
      </trkpt>
      <trkpt lat="28.36088" lon="83.6727">
        <ele>3151.34</ele>
        <time>2013-10-28T08:09:27Z</time>
      </trkpt>
      <trkpt lat="28.361" lon="83.67267">
        <ele>3152.78</ele>
        <time>2013-10-28T08:09:41Z</time>
      </trkpt>
      <trkpt lat="28.36103" lon="83.67267">
        <ele>3153.26</ele>
        <time>2013-10-28T08:09:53Z</time>
      </trkpt>
      <trkpt lat="28.36116" lon="83.67272">
        <ele>3154.22</ele>
        <time>2013-10-28T08:10:08Z</time>
      </trkpt>
      <trkpt lat="28.36126" lon="83.67276">
        <ele>3152.78</ele>
        <time>2013-10-28T08:10:24Z</time>
      </trkpt>
      <trkpt lat="28.36135" lon="83.67275">
        <ele>3153.74</ele>
        <time>2013-10-28T08:10:35Z</time>
      </trkpt>
      <trkpt lat="28.36138" lon="83.67282">
        <ele>3154.22</ele>
        <time>2013-10-28T08:10:50Z</time>
      </trkpt>
      <trkpt lat="28.36149" lon="83.67281">
        <ele>3155.66</ele>
        <time>2013-10-28T08:11:07Z</time>
      </trkpt>
      <trkpt lat="28.36164" lon="83.67283">
        <ele>3157.59</ele>
        <time>2013-10-28T08:11:26Z</time>
      </trkpt>
      <trkpt lat="28.36169" lon="83.67292">
        <ele>3158.55</ele>
        <time>2013-10-28T08:11:42Z</time>
      </trkpt>
      <trkpt lat="28.36176" lon="83.67301">
        <ele>3158.55</ele>
        <time>2013-10-28T08:11:55Z</time>
      </trkpt>
      <trkpt lat="28.3618" lon="83.67302">
        <ele>3158.07</ele>
        <time>2013-10-28T08:12:08Z</time>
      </trkpt>
      <trkpt lat="28.36181" lon="83.67303">
        <ele>3158.07</ele>
        <time>2013-10-28T08:12:32Z</time>
      </trkpt>
      <trkpt lat="28.36181" lon="83.67305">
        <ele>3158.07</ele>
        <time>2013-10-28T08:12:56Z</time>
      </trkpt>
      <trkpt lat="28.36185" lon="83.67308">
        <ele>3156.63</ele>
        <time>2013-10-28T08:13:19Z</time>
      </trkpt>
      <trkpt lat="28.36189" lon="83.67304">
        <ele>3158.07</ele>
        <time>2013-10-28T08:13:38Z</time>
      </trkpt>
      <trkpt lat="28.36189" lon="83.67309">
        <ele>3160.47</ele>
        <time>2013-10-28T08:13:54Z</time>
      </trkpt>
      <trkpt lat="28.36191" lon="83.67316">
        <ele>3161.91</ele>
        <time>2013-10-28T08:14:12Z</time>
      </trkpt>
      <trkpt lat="28.36198" lon="83.67322">
        <ele>3163.36</ele>
        <time>2013-10-28T08:14:30Z</time>
      </trkpt>
      <trkpt lat="28.36203" lon="83.6733">
        <ele>3165.28</ele>
        <time>2013-10-28T08:14:47Z</time>
      </trkpt>
      <trkpt lat="28.36209" lon="83.6734">
        <ele>3167.2</ele>
        <time>2013-10-28T08:15:07Z</time>
      </trkpt>
      <trkpt lat="28.36214" lon="83.67351">
        <ele>3168.16</ele>
        <time>2013-10-28T08:15:25Z</time>
      </trkpt>
      <trkpt lat="28.36222" lon="83.67355">
        <ele>3169.6</ele>
        <time>2013-10-28T08:15:43Z</time>
      </trkpt>
      <trkpt lat="28.3623" lon="83.67354">
        <ele>3172.01</ele>
        <time>2013-10-28T08:15:59Z</time>
      </trkpt>
      <trkpt lat="28.36237" lon="83.67351">
        <ele>3173.45</ele>
        <time>2013-10-28T08:16:16Z</time>
      </trkpt>
      <trkpt lat="28.36244" lon="83.67347">
        <ele>3174.89</ele>
        <time>2013-10-28T08:16:32Z</time>
      </trkpt>
      <trkpt lat="28.36255" lon="83.67345">
        <ele>3176.33</ele>
        <time>2013-10-28T08:16:51Z</time>
      </trkpt>
      <trkpt lat="28.36265" lon="83.6735">
        <ele>3178.26</ele>
        <time>2013-10-28T08:17:09Z</time>
      </trkpt>
      <trkpt lat="28.36273" lon="83.67346">
        <ele>3177.29</ele>
        <time>2013-10-28T08:17:26Z</time>
      </trkpt>
      <trkpt lat="28.36279" lon="83.67347">
        <ele>3175.85</ele>
        <time>2013-10-28T08:17:41Z</time>
      </trkpt>
      <trkpt lat="28.36285" lon="83.6735">
        <ele>3174.89</ele>
        <time>2013-10-28T08:17:57Z</time>
      </trkpt>
      <trkpt lat="28.36291" lon="83.67352">
        <ele>3175.37</ele>
        <time>2013-10-28T08:18:13Z</time>
      </trkpt>
      <trkpt lat="28.36299" lon="83.67357">
        <ele>3175.37</ele>
        <time>2013-10-28T08:18:27Z</time>
      </trkpt>
      <trkpt lat="28.36314" lon="83.67359">
        <ele>3174.89</ele>
        <time>2013-10-28T08:18:43Z</time>
      </trkpt>
      <trkpt lat="28.36326" lon="83.67361">
        <ele>3175.85</ele>
        <time>2013-10-28T08:18:55Z</time>
      </trkpt>
      <trkpt lat="28.36332" lon="83.67361">
        <ele>3174.41</ele>
        <time>2013-10-28T08:19:12Z</time>
      </trkpt>
      <trkpt lat="28.36334" lon="83.67363">
        <ele>3172.49</ele>
        <time>2013-10-28T08:19:29Z</time>
      </trkpt>
      <trkpt lat="28.36345" lon="83.67366">
        <ele>3169.6</ele>
        <time>2013-10-28T08:19:48Z</time>
      </trkpt>
      <trkpt lat="28.36361" lon="83.6737">
        <ele>3169.12</ele>
        <time>2013-10-28T08:20:04Z</time>
      </trkpt>
      <trkpt lat="28.36368" lon="83.67376">
        <ele>3167.68</ele>
        <time>2013-10-28T08:20:19Z</time>
      </trkpt>
      <trkpt lat="28.36385" lon="83.67388">
        <ele>3164.8</ele>
        <time>2013-10-28T08:20:37Z</time>
      </trkpt>
      <trkpt lat="28.36397" lon="83.67392">
        <ele>3162.88</ele>
        <time>2013-10-28T08:20:52Z</time>
      </trkpt>
      <trkpt lat="28.36403" lon="83.6739">
        <ele>3164.32</ele>
        <time>2013-10-28T08:21:07Z</time>
      </trkpt>
      <trkpt lat="28.36408" lon="83.67379">
        <ele>3164.32</ele>
        <time>2013-10-28T08:21:23Z</time>
      </trkpt>
      <trkpt lat="28.36414" lon="83.67372">
        <ele>3163.36</ele>
        <time>2013-10-28T08:21:37Z</time>
      </trkpt>
      <trkpt lat="28.36417" lon="83.6737">
        <ele>3163.36</ele>
        <time>2013-10-28T08:21:53Z</time>
      </trkpt>
      <trkpt lat="28.36428" lon="83.67368">
        <ele>3163.36</ele>
        <time>2013-10-28T08:22:08Z</time>
      </trkpt>
      <trkpt lat="28.36438" lon="83.67363">
        <ele>3163.36</ele>
        <time>2013-10-28T08:22:24Z</time>
      </trkpt>
      <trkpt lat="28.36443" lon="83.67364">
        <ele>3161.43</ele>
        <time>2013-10-28T08:22:40Z</time>
      </trkpt>
      <trkpt lat="28.36448" lon="83.67366">
        <ele>3162.39</ele>
        <time>2013-10-28T08:23:01Z</time>
      </trkpt>
      <trkpt lat="28.36464" lon="83.67366">
        <ele>3164.32</ele>
        <time>2013-10-28T08:23:20Z</time>
      </trkpt>
      <trkpt lat="28.36474" lon="83.67373">
        <ele>3165.28</ele>
        <time>2013-10-28T08:23:32Z</time>
      </trkpt>
      <trkpt lat="28.36486" lon="83.67372">
        <ele>3167.2</ele>
        <time>2013-10-28T08:23:45Z</time>
      </trkpt>
      <trkpt lat="28.36492" lon="83.67369">
        <ele>3168.64</ele>
        <time>2013-10-28T08:24:05Z</time>
      </trkpt>
      <trkpt lat="28.36493" lon="83.67368">
        <ele>3170.08</ele>
        <time>2013-10-28T08:24:27Z</time>
      </trkpt>
      <trkpt lat="28.36502" lon="83.67369">
        <ele>3172.49</ele>
        <time>2013-10-28T08:24:42Z</time>
      </trkpt>
      <trkpt lat="28.36504" lon="83.67373">
        <ele>3172.97</ele>
        <time>2013-10-28T08:25:02Z</time>
      </trkpt>
      <trkpt lat="28.36506" lon="83.67374">
        <ele>3174.41</ele>
        <time>2013-10-28T08:25:23Z</time>
      </trkpt>
      <trkpt lat="28.36509" lon="83.67372">
        <ele>3176.33</ele>
        <time>2013-10-28T08:25:41Z</time>
      </trkpt>
      <trkpt lat="28.36515" lon="83.67375">
        <ele>3178.26</ele>
        <time>2013-10-28T08:25:59Z</time>
      </trkpt>
      <trkpt lat="28.36523" lon="83.67379">
        <ele>3179.22</ele>
        <time>2013-10-28T08:26:15Z</time>
      </trkpt>
      <trkpt lat="28.36524" lon="83.6738">
        <ele>3181.62</ele>
        <time>2013-10-28T08:26:35Z</time>
      </trkpt>
      <trkpt lat="28.36527" lon="83.67375">
        <ele>3183.06</ele>
        <time>2013-10-28T08:26:53Z</time>
      </trkpt>
      <trkpt lat="28.36531" lon="83.67374">
        <ele>3184.5</ele>
        <time>2013-10-28T08:27:10Z</time>
      </trkpt>
      <trkpt lat="28.36534" lon="83.67371">
        <ele>3185.47</ele>
        <time>2013-10-28T08:27:27Z</time>
      </trkpt>
      <trkpt lat="28.36535" lon="83.67372">
        <ele>3186.43</ele>
        <time>2013-10-28T08:27:49Z</time>
      </trkpt>
      <trkpt lat="28.3654" lon="83.67374">
        <ele>3186.91</ele>
        <time>2013-10-28T08:28:07Z</time>
      </trkpt>
      <trkpt lat="28.36547" lon="83.67374">
        <ele>3186.43</ele>
        <time>2013-10-28T08:28:27Z</time>
      </trkpt>
      <trkpt lat="28.36557" lon="83.67373">
        <ele>3186.91</ele>
        <time>2013-10-28T08:28:45Z</time>
      </trkpt>
      <trkpt lat="28.36561" lon="83.67374">
        <ele>3188.35</ele>
        <time>2013-10-28T08:29:08Z</time>
      </trkpt>
      <trkpt lat="28.36569" lon="83.67374">
        <ele>3190.75</ele>
        <time>2013-10-28T08:29:28Z</time>
      </trkpt>
      <trkpt lat="28.36573" lon="83.67376">
        <ele>3192.68</ele>
        <time>2013-10-28T08:29:51Z</time>
      </trkpt>
      <trkpt lat="28.36579" lon="83.67376">
        <ele>3194.6</ele>
        <time>2013-10-28T08:30:14Z</time>
      </trkpt>
      <trkpt lat="28.3659" lon="83.67377">
        <ele>3196.52</ele>
        <time>2013-10-28T08:30:34Z</time>
      </trkpt>
      <trkpt lat="28.36594" lon="83.67382">
        <ele>3198.44</ele>
        <time>2013-10-28T08:30:54Z</time>
      </trkpt>
      <trkpt lat="28.36602" lon="83.67389">
        <ele>3200.37</ele>
        <time>2013-10-28T08:31:11Z</time>
      </trkpt>
      <trkpt lat="28.36606" lon="83.6739">
        <ele>3200.85</ele>
        <time>2013-10-28T08:31:30Z</time>
      </trkpt>
      <trkpt lat="28.36611" lon="83.67391">
        <ele>3202.29</ele>
        <time>2013-10-28T08:31:44Z</time>
      </trkpt>
      <trkpt lat="28.36615" lon="83.67394">
        <ele>3202.77</ele>
        <time>2013-10-28T08:31:59Z</time>
      </trkpt>
      <trkpt lat="28.36621" lon="83.67397">
        <ele>3201.81</ele>
        <time>2013-10-28T08:32:13Z</time>
      </trkpt>
      <trkpt lat="28.36622" lon="83.67405">
        <ele>3200.37</ele>
        <time>2013-10-28T08:32:23Z</time>
      </trkpt>
      <trkpt lat="28.36622" lon="83.67407">
        <ele>3199.4</ele>
        <time>2013-10-28T08:32:37Z</time>
      </trkpt>
      <trkpt lat="28.36623" lon="83.67409">
        <ele>3198.44</ele>
        <time>2013-10-28T08:32:54Z</time>
      </trkpt>
      <trkpt lat="28.36624" lon="83.67412">
        <ele>3197</ele>
        <time>2013-10-28T08:33:10Z</time>
      </trkpt>
      <trkpt lat="28.36632" lon="83.67415">
        <ele>3196.04</ele>
        <time>2013-10-28T08:33:25Z</time>
      </trkpt>
      <trkpt lat="28.36638" lon="83.67417">
        <ele>3195.08</ele>
        <time>2013-10-28T08:33:38Z</time>
      </trkpt>
      <trkpt lat="28.36639" lon="83.67418">
        <ele>3194.6</ele>
        <time>2013-10-28T08:33:40Z</time>
      </trkpt>
      <trkpt lat="28.36644" lon="83.67418">
        <ele>3195.08</ele>
        <time>2013-10-28T08:33:46Z</time>
      </trkpt>
      <trkpt lat="28.36655" lon="83.67418">
        <ele>3195.56</ele>
        <time>2013-10-28T08:34:02Z</time>
      </trkpt>
      <trkpt lat="28.36658" lon="83.67417">
        <ele>3195.56</ele>
        <time>2013-10-28T08:34:06Z</time>
      </trkpt>
      <trkpt lat="28.36667" lon="83.67417">
        <ele>3196.04</ele>
        <time>2013-10-28T08:34:19Z</time>
      </trkpt>
      <trkpt lat="28.36674" lon="83.67421">
        <ele>3196.04</ele>
        <time>2013-10-28T08:34:30Z</time>
      </trkpt>
      <trkpt lat="28.36683" lon="83.67425">
        <ele>3195.56</ele>
        <time>2013-10-28T08:34:43Z</time>
      </trkpt>
      <trkpt lat="28.36686" lon="83.67424">
        <ele>3196.52</ele>
        <time>2013-10-28T08:34:46Z</time>
      </trkpt>
      <trkpt lat="28.36691" lon="83.67429">
        <ele>3196.04</ele>
        <time>2013-10-28T08:34:53Z</time>
      </trkpt>
      <trkpt lat="28.36696" lon="83.67432">
        <ele>3196.04</ele>
        <time>2013-10-28T08:34:59Z</time>
      </trkpt>
      <trkpt lat="28.36706" lon="83.67431">
        <ele>3196.52</ele>
        <time>2013-10-28T08:35:11Z</time>
      </trkpt>
      <trkpt lat="28.3671" lon="83.67431">
        <ele>3197.96</ele>
        <time>2013-10-28T08:35:25Z</time>
      </trkpt>
      <trkpt lat="28.36718" lon="83.67434">
        <ele>3198.92</ele>
        <time>2013-10-28T08:35:39Z</time>
      </trkpt>
      <trkpt lat="28.36727" lon="83.67441">
        <ele>3199.4</ele>
        <time>2013-10-28T08:35:52Z</time>
      </trkpt>
      <trkpt lat="28.36728" lon="83.6745">
        <ele>3198.44</ele>
        <time>2013-10-28T08:36:05Z</time>
      </trkpt>
      <trkpt lat="28.36731" lon="83.67465">
        <ele>3196.52</ele>
        <time>2013-10-28T08:36:22Z</time>
      </trkpt>
      <trkpt lat="28.36738" lon="83.67468">
        <ele>3197</ele>
        <time>2013-10-28T08:36:36Z</time>
      </trkpt>
      <trkpt lat="28.36745" lon="83.67474">
        <ele>3197.96</ele>
        <time>2013-10-28T08:36:49Z</time>
      </trkpt>
      <trkpt lat="28.36748" lon="83.67476">
        <ele>3197.48</ele>
        <time>2013-10-28T08:37:03Z</time>
      </trkpt>
      <trkpt lat="28.3675" lon="83.67479">
        <ele>3194.6</ele>
        <time>2013-10-28T08:37:18Z</time>
      </trkpt>
      <trkpt lat="28.36756" lon="83.67486">
        <ele>3193.64</ele>
        <time>2013-10-28T08:37:30Z</time>
      </trkpt>
      <trkpt lat="28.3676" lon="83.67491">
        <ele>3192.68</ele>
        <time>2013-10-28T08:37:46Z</time>
      </trkpt>
      <trkpt lat="28.36771" lon="83.67497">
        <ele>3190.27</ele>
        <time>2013-10-28T08:37:58Z</time>
      </trkpt>
      <trkpt lat="28.36778" lon="83.67503">
        <ele>3189.79</ele>
        <time>2013-10-28T08:38:13Z</time>
      </trkpt>
      <trkpt lat="28.36784" lon="83.67506">
        <ele>3191.71</ele>
        <time>2013-10-28T08:38:31Z</time>
      </trkpt>
      <trkpt lat="28.36792" lon="83.67511">
        <ele>3193.16</ele>
        <time>2013-10-28T08:38:47Z</time>
      </trkpt>
      <trkpt lat="28.36798" lon="83.67515">
        <ele>3194.12</ele>
        <time>2013-10-28T08:39:01Z</time>
      </trkpt>
      <trkpt lat="28.368" lon="83.67516">
        <ele>3194.12</ele>
        <time>2013-10-28T08:39:27Z</time>
      </trkpt>
      <trkpt lat="28.36803" lon="83.67517">
        <ele>3194.12</ele>
        <time>2013-10-28T08:39:48Z</time>
      </trkpt>
      <trkpt lat="28.36806" lon="83.67518">
        <ele>3194.12</ele>
        <time>2013-10-28T08:40:21Z</time>
      </trkpt>
      <trkpt lat="28.36806" lon="83.67519">
        <ele>3194.12</ele>
        <time>2013-10-28T08:40:52Z</time>
      </trkpt>
      <trkpt lat="28.36806" lon="83.6752">
        <ele>3193.64</ele>
        <time>2013-10-28T08:41:22Z</time>
      </trkpt>
      <trkpt lat="28.36807" lon="83.67521">
        <ele>3193.64</ele>
        <time>2013-10-28T08:41:46Z</time>
      </trkpt>
      <trkpt lat="28.36809" lon="83.67523">
        <ele>3196.04</ele>
        <time>2013-10-28T08:42:02Z</time>
      </trkpt>
      <trkpt lat="28.36818" lon="83.67528">
        <ele>3197.48</ele>
        <time>2013-10-28T08:42:17Z</time>
      </trkpt>
      <trkpt lat="28.36826" lon="83.67534">
        <ele>3198.44</ele>
        <time>2013-10-28T08:42:28Z</time>
      </trkpt>
      <trkpt lat="28.36825" lon="83.67546">
        <ele>3200.37</ele>
        <time>2013-10-28T08:42:43Z</time>
      </trkpt>
      <trkpt lat="28.36824" lon="83.67557">
        <ele>3201.81</ele>
        <time>2013-10-28T08:42:56Z</time>
      </trkpt>
      <trkpt lat="28.36823" lon="83.67571">
        <ele>3203.73</ele>
        <time>2013-10-28T08:43:11Z</time>
      </trkpt>
      <trkpt lat="28.36824" lon="83.67575">
        <ele>3205.17</ele>
        <time>2013-10-28T08:43:27Z</time>
      </trkpt>
      <trkpt lat="28.36831" lon="83.67582">
        <ele>3206.61</ele>
        <time>2013-10-28T08:43:43Z</time>
      </trkpt>
      <trkpt lat="28.36835" lon="83.67587">
        <ele>3207.58</ele>
        <time>2013-10-28T08:44:00Z</time>
      </trkpt>
      <trkpt lat="28.36839" lon="83.67592">
        <ele>3209.02</ele>
        <time>2013-10-28T08:44:14Z</time>
      </trkpt>
      <trkpt lat="28.36847" lon="83.67602">
        <ele>3210.46</ele>
        <time>2013-10-28T08:44:30Z</time>
      </trkpt>
      <trkpt lat="28.36849" lon="83.67611">
        <ele>3210.94</ele>
        <time>2013-10-28T08:44:43Z</time>
      </trkpt>
      <trkpt lat="28.36852" lon="83.67614">
        <ele>3212.38</ele>
        <time>2013-10-28T08:44:53Z</time>
      </trkpt>
      <trkpt lat="28.3686" lon="83.6762">
        <ele>3212.86</ele>
        <time>2013-10-28T08:45:07Z</time>
      </trkpt>
      <trkpt lat="28.3686" lon="83.67624">
        <ele>3213.82</ele>
        <time>2013-10-28T08:45:21Z</time>
      </trkpt>
      <trkpt lat="28.36864" lon="83.67629">
        <ele>3214.79</ele>
        <time>2013-10-28T08:45:34Z</time>
      </trkpt>
      <trkpt lat="28.3687" lon="83.67635">
        <ele>3216.23</ele>
        <time>2013-10-28T08:45:51Z</time>
      </trkpt>
      <trkpt lat="28.36873" lon="83.67638">
        <ele>3218.63</ele>
        <time>2013-10-28T08:46:08Z</time>
      </trkpt>
      <trkpt lat="28.36875" lon="83.67646">
        <ele>3219.11</ele>
        <time>2013-10-28T08:46:19Z</time>
      </trkpt>
      <trkpt lat="28.36879" lon="83.67651">
        <ele>3220.55</ele>
        <time>2013-10-28T08:46:32Z</time>
      </trkpt>
      <trkpt lat="28.36881" lon="83.67653">
        <ele>3221.03</ele>
        <time>2013-10-28T08:46:44Z</time>
      </trkpt>
      <trkpt lat="28.36883" lon="83.67653">
        <ele>3222.48</ele>
        <time>2013-10-28T08:47:01Z</time>
      </trkpt>
      <trkpt lat="28.36886" lon="83.67653">
        <ele>3223.92</ele>
        <time>2013-10-28T08:47:20Z</time>
      </trkpt>
      <trkpt lat="28.36884" lon="83.67656">
        <ele>3226.32</ele>
        <time>2013-10-28T08:47:35Z</time>
      </trkpt>
      <trkpt lat="28.36886" lon="83.67661">
        <ele>3228.24</ele>
        <time>2013-10-28T08:47:51Z</time>
      </trkpt>
      <trkpt lat="28.36886" lon="83.67665">
        <ele>3228.73</ele>
        <time>2013-10-28T08:48:05Z</time>
      </trkpt>
      <trkpt lat="28.36886" lon="83.67666">
        <ele>3229.21</ele>
        <time>2013-10-28T08:48:29Z</time>
      </trkpt>
      <trkpt lat="28.3689" lon="83.67668">
        <ele>3231.13</ele>
        <time>2013-10-28T08:48:44Z</time>
      </trkpt>
      <trkpt lat="28.3689" lon="83.67672">
        <ele>3233.05</ele>
        <time>2013-10-28T08:49:00Z</time>
      </trkpt>
      <trkpt lat="28.36891" lon="83.67677">
        <ele>3234.49</ele>
        <time>2013-10-28T08:49:15Z</time>
      </trkpt>
      <trkpt lat="28.36893" lon="83.6768">
        <ele>3235.94</ele>
        <time>2013-10-28T08:49:28Z</time>
      </trkpt>
      <trkpt lat="28.36893" lon="83.67683">
        <ele>3236.9</ele>
        <time>2013-10-28T08:49:45Z</time>
      </trkpt>
      <trkpt lat="28.36897" lon="83.67688">
        <ele>3238.82</ele>
        <time>2013-10-28T08:49:58Z</time>
      </trkpt>
      <trkpt lat="28.36897" lon="83.67691">
        <ele>3239.3</ele>
        <time>2013-10-28T08:50:15Z</time>
      </trkpt>
      <trkpt lat="28.36898" lon="83.67693">
        <ele>3239.78</ele>
        <time>2013-10-28T08:50:36Z</time>
      </trkpt>
      <trkpt lat="28.36898" lon="83.67694">
        <ele>3240.74</ele>
        <time>2013-10-28T08:50:50Z</time>
      </trkpt>
      <trkpt lat="28.36899" lon="83.677">
        <ele>3242.66</ele>
        <time>2013-10-28T08:51:05Z</time>
      </trkpt>
      <trkpt lat="28.36899" lon="83.67706">
        <ele>3244.59</ele>
        <time>2013-10-28T08:51:21Z</time>
      </trkpt>
      <trkpt lat="28.36903" lon="83.67708">
        <ele>3245.55</ele>
        <time>2013-10-28T08:51:35Z</time>
      </trkpt>
      <trkpt lat="28.36907" lon="83.6771">
        <ele>3246.99</ele>
        <time>2013-10-28T08:51:48Z</time>
      </trkpt>
      <trkpt lat="28.36911" lon="83.67713">
        <ele>3248.43</ele>
        <time>2013-10-28T08:52:07Z</time>
      </trkpt>
      <trkpt lat="28.36915" lon="83.67716">
        <ele>3249.87</ele>
        <time>2013-10-28T08:52:20Z</time>
      </trkpt>
      <trkpt lat="28.3692" lon="83.67722">
        <ele>3250.83</ele>
        <time>2013-10-28T08:52:34Z</time>
      </trkpt>
      <trkpt lat="28.36927" lon="83.67729">
        <ele>3251.32</ele>
        <time>2013-10-28T08:52:47Z</time>
      </trkpt>
      <trkpt lat="28.3693" lon="83.67735">
        <ele>3251.8</ele>
        <time>2013-10-28T08:52:59Z</time>
      </trkpt>
      <trkpt lat="28.36935" lon="83.67739">
        <ele>3253.24</ele>
        <time>2013-10-28T08:53:12Z</time>
      </trkpt>
      <trkpt lat="28.36939" lon="83.67744">
        <ele>3254.68</ele>
        <time>2013-10-28T08:53:26Z</time>
      </trkpt>
      <trkpt lat="28.36944" lon="83.67749">
        <ele>3255.64</ele>
        <time>2013-10-28T08:53:42Z</time>
      </trkpt>
      <trkpt lat="28.36943" lon="83.6775">
        <ele>3256.12</ele>
        <time>2013-10-28T08:54:03Z</time>
      </trkpt>
      <trkpt lat="28.36943" lon="83.6775">
        <ele>3256.12</ele>
        <time>2013-10-28T08:54:19Z</time>
      </trkpt>
      <trkpt lat="28.36944" lon="83.67751">
        <ele>3256.6</ele>
        <time>2013-10-28T08:54:47Z</time>
      </trkpt>
      <trkpt lat="28.36946" lon="83.67754">
        <ele>3257.08</ele>
        <time>2013-10-28T08:54:58Z</time>
      </trkpt>
      <trkpt lat="28.36954" lon="83.67755">
        <ele>3259.01</ele>
        <time>2013-10-28T08:55:10Z</time>
      </trkpt>
      <trkpt lat="28.36955" lon="83.67756">
        <ele>3259.01</ele>
        <time>2013-10-28T08:55:11Z</time>
      </trkpt>
      <trkpt lat="28.36959" lon="83.67761">
        <ele>3260.45</ele>
        <time>2013-10-28T08:55:23Z</time>
      </trkpt>
      <trkpt lat="28.36963" lon="83.67765">
        <ele>3261.89</ele>
        <time>2013-10-28T08:55:36Z</time>
      </trkpt>
      <trkpt lat="28.36967" lon="83.67765">
        <ele>3260.93</ele>
        <time>2013-10-28T08:55:47Z</time>
      </trkpt>
      <trkpt lat="28.36975" lon="83.6777">
        <ele>3259.97</ele>
        <time>2013-10-28T08:56:00Z</time>
      </trkpt>
      <trkpt lat="28.36982" lon="83.67777">
        <ele>3259.49</ele>
        <time>2013-10-28T08:56:12Z</time>
      </trkpt>
      <trkpt lat="28.36987" lon="83.6778">
        <ele>3259.49</ele>
        <time>2013-10-28T08:56:19Z</time>
      </trkpt>
      <trkpt lat="28.36995" lon="83.67783">
        <ele>3257.56</ele>
        <time>2013-10-28T08:56:32Z</time>
      </trkpt>
      <trkpt lat="28.37005" lon="83.67791">
        <ele>3257.56</ele>
        <time>2013-10-28T08:56:46Z</time>
      </trkpt>
      <trkpt lat="28.37012" lon="83.67799">
        <ele>3257.56</ele>
        <time>2013-10-28T08:56:58Z</time>
      </trkpt>
      <trkpt lat="28.37018" lon="83.67803">
        <ele>3258.53</ele>
        <time>2013-10-28T08:57:10Z</time>
      </trkpt>
      <trkpt lat="28.37025" lon="83.6781">
        <ele>3260.45</ele>
        <time>2013-10-28T08:57:23Z</time>
      </trkpt>
      <trkpt lat="28.37024" lon="83.67812">
        <ele>3260.93</ele>
        <time>2013-10-28T08:57:35Z</time>
      </trkpt>
      <trkpt lat="28.37024" lon="83.67813">
        <ele>3260.93</ele>
        <time>2013-10-28T08:57:54Z</time>
      </trkpt>
      <trkpt lat="28.37024" lon="83.67813">
        <ele>3260.93</ele>
        <time>2013-10-28T08:58:18Z</time>
      </trkpt>
      <trkpt lat="28.37026" lon="83.67822">
        <ele>3261.89</ele>
        <time>2013-10-28T08:58:30Z</time>
      </trkpt>
      <trkpt lat="28.37028" lon="83.67827">
        <ele>3264.29</ele>
        <time>2013-10-28T08:58:42Z</time>
      </trkpt>
      <trkpt lat="28.37035" lon="83.67832">
        <ele>3266.22</ele>
        <time>2013-10-28T08:58:55Z</time>
      </trkpt>
      <trkpt lat="28.37041" lon="83.67834">
        <ele>3268.62</ele>
        <time>2013-10-28T08:59:08Z</time>
      </trkpt>
      <trkpt lat="28.37044" lon="83.67834">
        <ele>3269.1</ele>
        <time>2013-10-28T08:59:22Z</time>
      </trkpt>
      <trkpt lat="28.37046" lon="83.67838">
        <ele>3270.06</ele>
        <time>2013-10-28T08:59:35Z</time>
      </trkpt>
      <trkpt lat="28.37049" lon="83.67842">
        <ele>3270.54</ele>
        <time>2013-10-28T08:59:52Z</time>
      </trkpt>
      <trkpt lat="28.37052" lon="83.67844">
        <ele>3271.5</ele>
        <time>2013-10-28T09:00:06Z</time>
      </trkpt>
      <trkpt lat="28.37053" lon="83.67847">
        <ele>3272.46</ele>
        <time>2013-10-28T09:00:14Z</time>
      </trkpt>
      <trkpt lat="28.37055" lon="83.6785">
        <ele>3274.39</ele>
        <time>2013-10-28T09:00:26Z</time>
      </trkpt>
      <trkpt lat="28.37056" lon="83.67849">
        <ele>3274.39</ele>
        <time>2013-10-28T09:00:48Z</time>
      </trkpt>
      <trkpt lat="28.37058" lon="83.67852">
        <ele>3276.31</ele>
        <time>2013-10-28T09:01:01Z</time>
      </trkpt>
      <trkpt lat="28.37061" lon="83.67855">
        <ele>3277.75</ele>
        <time>2013-10-28T09:01:13Z</time>
      </trkpt>
      <trkpt lat="28.37062" lon="83.67854">
        <ele>3277.75</ele>
        <time>2013-10-28T09:01:36Z</time>
      </trkpt>
      <trkpt lat="28.37061" lon="83.67855">
        <ele>3277.75</ele>
        <time>2013-10-28T09:02:00Z</time>
      </trkpt>
      <trkpt lat="28.37061" lon="83.67856">
        <ele>3277.75</ele>
        <time>2013-10-28T09:02:23Z</time>
      </trkpt>
      <trkpt lat="28.37061" lon="83.67856">
        <ele>3278.23</ele>
        <time>2013-10-28T09:02:43Z</time>
      </trkpt>
      <trkpt lat="28.37062" lon="83.67859">
        <ele>3278.71</ele>
        <time>2013-10-28T09:03:08Z</time>
      </trkpt>
      <trkpt lat="28.37063" lon="83.67865">
        <ele>3280.64</ele>
        <time>2013-10-28T09:03:21Z</time>
      </trkpt>
      <trkpt lat="28.37063" lon="83.67869">
        <ele>3283.04</ele>
        <time>2013-10-28T09:03:34Z</time>
      </trkpt>
      <trkpt lat="28.37064" lon="83.67875">
        <ele>3284</ele>
        <time>2013-10-28T09:03:46Z</time>
      </trkpt>
      <trkpt lat="28.37069" lon="83.67882">
        <ele>3284</ele>
        <time>2013-10-28T09:03:58Z</time>
      </trkpt>
      <trkpt lat="28.37073" lon="83.67889">
        <ele>3284.48</ele>
        <time>2013-10-28T09:04:10Z</time>
      </trkpt>
      <trkpt lat="28.37079" lon="83.67895">
        <ele>3285.92</ele>
        <time>2013-10-28T09:04:22Z</time>
      </trkpt>
      <trkpt lat="28.37082" lon="83.679">
        <ele>3284.96</ele>
        <time>2013-10-28T09:04:35Z</time>
      </trkpt>
      <trkpt lat="28.37082" lon="83.679">
        <ele>3290.25</ele>
        <time>2013-10-28T09:04:36Z</time>
      </trkpt>
      <trkpt lat="28.37082" lon="83.679">
        <ele>3289.77</ele>
        <time>2013-10-28T09:04:37Z</time>
      </trkpt>
      <trkpt lat="28.37083" lon="83.67902">
        <ele>3288.33</ele>
        <time>2013-10-28T09:04:54Z</time>
      </trkpt>
      <trkpt lat="28.37085" lon="83.67906">
        <ele>3290.25</ele>
        <time>2013-10-28T09:05:06Z</time>
      </trkpt>
      <trkpt lat="28.37091" lon="83.6791">
        <ele>3292.65</ele>
        <time>2013-10-28T09:05:20Z</time>
      </trkpt>
      <trkpt lat="28.37092" lon="83.67913">
        <ele>3294.58</ele>
        <time>2013-10-28T09:05:32Z</time>
      </trkpt>
      <trkpt lat="28.37093" lon="83.67914">
        <ele>3294.58</ele>
        <time>2013-10-28T09:05:43Z</time>
      </trkpt>
      <trkpt lat="28.37095" lon="83.67915">
        <ele>3295.06</ele>
        <time>2013-10-28T09:06:06Z</time>
      </trkpt>
      <trkpt lat="28.371" lon="83.67919">
        <ele>3295.06</ele>
        <time>2013-10-28T09:06:17Z</time>
      </trkpt>
      <trkpt lat="28.37102" lon="83.6792">
        <ele>3295.06</ele>
        <time>2013-10-28T09:06:19Z</time>
      </trkpt>
      <trkpt lat="28.37108" lon="83.67924">
        <ele>3296.5</ele>
        <time>2013-10-28T09:06:31Z</time>
      </trkpt>
      <trkpt lat="28.37111" lon="83.67932">
        <ele>3296.5</ele>
        <time>2013-10-28T09:06:43Z</time>
      </trkpt>
      <trkpt lat="28.37117" lon="83.67937">
        <ele>3296.98</ele>
        <time>2013-10-28T09:06:52Z</time>
      </trkpt>
      <trkpt lat="28.37118" lon="83.67942">
        <ele>3297.46</ele>
        <time>2013-10-28T09:07:05Z</time>
      </trkpt>
      <trkpt lat="28.37117" lon="83.67943">
        <ele>3297.46</ele>
        <time>2013-10-28T09:07:23Z</time>
      </trkpt>
      <trkpt lat="28.37116" lon="83.67943">
        <ele>3297.46</ele>
        <time>2013-10-28T09:07:51Z</time>
      </trkpt>
      <trkpt lat="28.37119" lon="83.6794">
        <ele>3297.46</ele>
        <time>2013-10-28T09:08:05Z</time>
      </trkpt>
      <trkpt lat="28.37119" lon="83.67938">
        <ele>3297.46</ele>
        <time>2013-10-28T09:08:16Z</time>
      </trkpt>
      <trkpt lat="28.37123" lon="83.67934">
        <ele>3297.94</ele>
        <time>2013-10-28T09:08:33Z</time>
      </trkpt>
      <trkpt lat="28.37122" lon="83.67933">
        <ele>3297.94</ele>
        <time>2013-10-28T09:08:53Z</time>
      </trkpt>
      <trkpt lat="28.37122" lon="83.67933">
        <ele>3297.94</ele>
        <time>2013-10-28T09:09:09Z</time>
      </trkpt>
      <trkpt lat="28.37121" lon="83.67933">
        <ele>3297.94</ele>
        <time>2013-10-28T09:09:30Z</time>
      </trkpt>
      <trkpt lat="28.37121" lon="83.67933">
        <ele>3297.94</ele>
        <time>2013-10-28T09:09:50Z</time>
      </trkpt>
      <trkpt lat="28.37123" lon="83.67933">
        <ele>3297.94</ele>
        <time>2013-10-28T09:10:00Z</time>
      </trkpt>
      <trkpt lat="28.3713" lon="83.67934">
        <ele>3296.02</ele>
        <time>2013-10-28T09:10:10Z</time>
      </trkpt>
      <trkpt lat="28.37142" lon="83.67929">
        <ele>3293.61</ele>
        <time>2013-10-28T09:10:25Z</time>
      </trkpt>
      <trkpt lat="28.37143" lon="83.67927">
        <ele>3292.17</ele>
        <time>2013-10-28T09:10:39Z</time>
      </trkpt>
      <trkpt lat="28.37145" lon="83.67921">
        <ele>3291.69</ele>
        <time>2013-10-28T09:10:52Z</time>
      </trkpt>
      <trkpt lat="28.37145" lon="83.67919">
        <ele>3292.17</ele>
        <time>2013-10-28T09:10:54Z</time>
      </trkpt>
      <trkpt lat="28.37146" lon="83.67914">
        <ele>3291.69</ele>
        <time>2013-10-28T09:11:06Z</time>
      </trkpt>
      <trkpt lat="28.37147" lon="83.67913">
        <ele>3292.17</ele>
        <time>2013-10-28T09:11:28Z</time>
      </trkpt>
      <trkpt lat="28.37149" lon="83.67907">
        <ele>3292.17</ele>
        <time>2013-10-28T09:11:41Z</time>
      </trkpt>
      <trkpt lat="28.3715" lon="83.67912">
        <ele>3291.69</ele>
        <time>2013-10-28T09:12:00Z</time>
      </trkpt>
      <trkpt lat="28.37151" lon="83.67913">
        <ele>3292.17</ele>
        <time>2013-10-28T09:12:24Z</time>
      </trkpt>
      <trkpt lat="28.37152" lon="83.67914">
        <ele>3291.69</ele>
        <time>2013-10-28T09:12:47Z</time>
      </trkpt>
      <trkpt lat="28.37152" lon="83.67916">
        <ele>3292.17</ele>
        <time>2013-10-28T09:13:07Z</time>
      </trkpt>
      <trkpt lat="28.37153" lon="83.67917">
        <ele>3291.69</ele>
        <time>2013-10-28T09:13:36Z</time>
      </trkpt>
      <trkpt lat="28.37153" lon="83.67917">
        <ele>3284.96</ele>
        <time>2013-10-28T09:13:52Z</time>
      </trkpt>
      <trkpt lat="28.37153" lon="83.67917">
        <ele>3291.69</ele>
        <time>2013-10-28T09:13:53Z</time>
      </trkpt>
      <trkpt lat="28.37153" lon="83.67917">
        <ele>3293.13</ele>
        <time>2013-10-28T09:13:56Z</time>
      </trkpt>
      <trkpt lat="28.37153" lon="83.67917">
        <ele>3290.25</ele>
        <time>2013-10-28T09:13:58Z</time>
      </trkpt>
      <trkpt lat="28.37153" lon="83.67917">
        <ele>3301.3</ele>
        <time>2013-10-28T09:14:10Z</time>
      </trkpt>
      <trkpt lat="28.37153" lon="83.67917">
        <ele>3291.69</ele>
        <time>2013-10-28T09:14:11Z</time>
      </trkpt>
      <trkpt lat="28.37153" lon="83.67916">
        <ele>3294.09</ele>
        <time>2013-10-28T09:14:27Z</time>
      </trkpt>
      <trkpt lat="28.37152" lon="83.67915">
        <ele>3292.65</ele>
        <time>2013-10-28T09:14:45Z</time>
      </trkpt>
      <trkpt lat="28.37151" lon="83.67913">
        <ele>3293.13</ele>
        <time>2013-10-28T09:15:22Z</time>
      </trkpt>
      <trkpt lat="28.37151" lon="83.67912">
        <ele>3293.13</ele>
        <time>2013-10-28T09:15:55Z</time>
      </trkpt>
      <trkpt lat="28.37151" lon="83.67913">
        <ele>3293.61</ele>
        <time>2013-10-28T09:16:27Z</time>
      </trkpt>
      <trkpt lat="28.3715" lon="83.67914">
        <ele>3293.61</ele>
        <time>2013-10-28T09:17:03Z</time>
      </trkpt>
      <trkpt lat="28.3715" lon="83.67914">
        <ele>3293.61</ele>
        <time>2013-10-28T09:17:27Z</time>
      </trkpt>
      <trkpt lat="28.37149" lon="83.67913">
        <ele>3294.09</ele>
        <time>2013-10-28T09:17:56Z</time>
      </trkpt>
      <trkpt lat="28.37148" lon="83.67913">
        <ele>3294.58</ele>
        <time>2013-10-28T09:18:25Z</time>
      </trkpt>
    </trkseg>
  </trk>
</gpx>